Time,TemperatureF,DewpointF,PressureIn,WindDirection,WindDirectionDegrees,WindSpeedMPH,WindSpeedGustMPH,Humidity,HourlyPrecipIn,Conditions,Clouds,dailyrainin,SoftwareType,DateUTC
2013-01-01 00:00:00,76.6,70.3,30.01,SE,135,2.0,2.0,81,0.00,,---,0.00,VWS V13.01,2013-01-01 04:00:00,
2013-01-01 00:01:00,76.6,70.3,30.01,ESE,112,0.0,2.0,81,0.00,,---,0.00,VWS V13.01,2013-01-01 04:01:00,
2013-01-01 00:02:00,76.2,70.3,30.01,ESE,112,1.3,9.8,82,0.00,,---,0.04,VWS V13.01,2013-01-01 04:02:00,
2013-01-01 00:03:00,76.6,70.3,30.01,ESE,112,3.3,3.3,81,0.00,,---,0.00,VWS V13.01,2013-01-01 04:03:00,
2013-01-01 00:04:00,76.6,70.3,30.01,ENE,68,0.0,3.3,81,0.00,,---,0.00,VWS V13.01,2013-01-01 04:04:00,
2013-01-01 00:05:00,76.6,70.3,30.01,ESE,112,1.3,1.3,81,0.00,,---,0.00,VWS V13.01,2013-01-01 04:05:00,
2013-01-01 00:06:00,76.6,70.3,30.01,ENE,68,1.1,1.3,81,0.00,,---,0.00,VWS V13.01,2013-01-01 04:06:00,
2013-01-01 00:07:00,76.4,70.5,30.01,ESE,112,2.9,2.9,82,0.00,,---,0.04,VWS V13.01,2013-01-01 04:07:00,
2013-01-01 00:08:00,76.6,70.3,30.01,East,90,0.0,1.3,81,0.00,,---,0.00,VWS V13.01,2013-01-01 04:08:00,
2013-01-01 00:09:00,76.6,70.3,30.01,ENE,68,0.0,0.0,81,0.00,,---,0.00,VWS V13.01,2013-01-01 04:09:00,
2013-01-01 00:10:00,76.6,70.3,30.00,ESE,112,0.0,0.0,81,0.00,,---,0.00,VWS V13.01,2013-01-01 04:10:00,
2013-01-01 00:11:00,76.6,70.3,30.01,SE,135,0.0,0.0,81,0.00,,---,0.00,VWS V13.01,2013-01-01 04:11:00,
2013-01-01 00:12:00,76.6,70.3,30.01,East,90,0.0,0.0,81,0.00,,---,0.00,VWS V13.01,2013-01-01 04:12:00,
2013-01-01 00:13:00,76.6,70.3,30.00,NNE,22,3.1,3.1,81,0.00,,---,0.00,VWS V13.01,2013-01-01 04:13:00,
2013-01-01 00:14:00,76.8,70.5,30.00,ENE,68,6.2,6.2,81,0.00,,---,0.00,VWS V13.01,2013-01-01 04:14:00,
2013-01-01 00:15:00,76.8,70.5,30.00,NE,45,8.5,8.5,81,0.00,,---,0.00,VWS V13.01,2013-01-01 04:15:00,
2013-01-01 00:16:00,76.8,70.5,30.00,ENE,68,10.2,10.2,81,0.00,,---,0.00,VWS V13.01,2013-01-01 04:16:00,
2013-01-01 00:17:00,76.6,70.3,30.01,SE,135,1.3,1.3,81,0.00,,---,0.00,VWS V13.01,2013-01-01 04:17:00,
2013-01-01 00:18:00,76.8,70.2,30.00,East,90,9.6,12.9,80,0.00,,---,0.00,VWS V13.01,2013-01-01 04:18:00,
2013-01-01 00:19:00,76.8,70.2,30.00,ENE,68,6.2,9.6,80,0.00,,---,0.00,VWS V13.01,2013-01-01 04:19:00,
2013-01-01 00:20:00,77.0,70.4,30.00,ENE,68,10.2,10.2,80,0.00,,---,0.00,VWS V13.01,2013-01-01 04:20:00,
2013-01-01 00:21:00,77.1,70.5,30.00,East,90,12.3,12.3,80,0.00,,---,0.00,VWS V13.01,2013-01-01 04:21:00,
2013-01-01 00:22:00,76.6,70.3,30.00,ENE,68,0.0,0.0,81,0.00,,---,0.00,VWS V13.01,2013-01-01 04:22:00,
2013-01-01 00:23:00,77.1,70.5,30.00,ESE,112,12.9,12.9,80,0.00,,---,0.00,VWS V13.01,2013-01-01 04:23:00,
2013-01-01 00:24:00,77.3,71.0,30.00,ENE,68,11.8,12.9,81,0.00,,---,0.00,VWS V13.01,2013-01-01 04:24:00,
2013-01-01 00:25:00,77.3,71.0,30.00,South,180,2.6,11.8,81,0.00,,---,0.00,VWS V13.01,2013-01-01 04:25:00,
2013-01-01 00:26:00,77.3,71.0,30.01,ENE,68,4.4,4.4,81,0.00,,---,0.00,VWS V13.01,2013-01-01 04:26:00,
2013-01-01 00:27:00,76.8,70.5,30.00,NE,45,12.9,12.9,81,0.00,,---,0.00,VWS V13.01,2013-01-01 04:27:00,
2013-01-01 00:28:00,77.3,71.0,30.00,ESE,112,3.5,3.5,81,0.00,,---,0.00,VWS V13.01,2013-01-01 04:28:00,
2013-01-01 00:29:00,77.3,71.0,30.00,North,0,4.9,4.9,81,0.00,,---,0.00,VWS V13.01,2013-01-01 04:29:00,
2013-01-01 00:30:00,77.3,71.0,30.00,NE,45,3.3,4.9,81,0.00,,---,0.00,VWS V13.01,2013-01-01 04:30:00,
2013-01-01 00:31:00,77.3,71.0,30.00,ESE,112,5.1,5.1,81,0.00,,---,0.00,VWS V13.01,2013-01-01 04:31:00,
2013-01-01 00:32:00,77.1,70.5,30.00,ENE,68,6.2,12.3,80,0.00,,---,0.00,VWS V13.01,2013-01-01 04:32:00,
2013-01-01 00:33:00,77.3,71.0,30.00,East,90,8.7,8.7,81,0.00,,---,0.00,VWS V13.01,2013-01-01 04:33:00,
2013-01-01 00:34:00,77.3,71.0,30.00,ENE,68,6.9,8.7,81,0.00,,---,0.00,VWS V13.01,2013-01-01 04:34:00,
2013-01-01 00:35:00,77.3,71.0,30.01,East,90,9.8,9.8,81,0.00,,---,0.00,VWS V13.01,2013-01-01 04:35:00,
2013-01-01 00:36:00,77.3,71.0,30.00,ENE,68,4.0,9.8,81,0.00,,---,0.00,VWS V13.01,2013-01-01 04:36:00,
2013-01-01 00:37:00,77.3,71.0,30.00,East,90,2.4,4.4,81,0.00,,---,0.00,VWS V13.01,2013-01-01 04:37:00,
2013-01-01 00:38:00,77.3,71.0,30.00,East,90,10.0,10.0,81,0.00,,---,0.00,VWS V13.01,2013-01-01 04:38:00,
2013-01-01 00:39:00,77.3,71.0,30.00,ENE,68,0.6,10.0,81,0.00,,---,0.00,VWS V13.01,2013-01-01 04:39:00,
2013-01-01 00:40:00,77.3,71.0,30.00,NE,45,3.3,3.3,81,0.00,,---,0.00,VWS V13.01,2013-01-01 04:40:00,
2013-01-01 00:41:00,77.3,71.0,30.00,ENE,68,4.6,4.6,81,0.00,,---,0.00,VWS V13.01,2013-01-01 04:41:00,
2013-01-01 00:42:00,77.3,71.0,30.00,NE,45,5.1,5.1,81,0.00,,---,0.00,VWS V13.01,2013-01-01 04:42:00,
2013-01-01 00:43:00,77.5,70.8,30.01,East,90,7.3,7.3,80,0.00,,---,0.00,VWS V13.01,2013-01-01 04:43:00,
2013-01-01 00:44:00,77.5,70.8,30.01,ESE,112,2.0,7.3,80,0.00,,---,0.00,VWS V13.01,2013-01-01 04:44:00,
2013-01-01 00:45:00,77.5,70.8,30.01,SE,135,2.0,2.0,80,0.00,,---,0.00,VWS V13.01,2013-01-01 04:45:00,
2013-01-01 00:46:00,77.5,70.5,30.01,SE,135,0.0,2.0,79,0.00,,---,0.00,VWS V13.01,2013-01-01 04:46:00,
2013-01-01 00:47:00,77.3,71.0,30.00,ENE,68,3.8,3.8,81,0.00,,---,0.00,VWS V13.01,2013-01-01 04:47:00,
2013-01-01 00:48:00,77.5,70.5,30.01,SSE,158,0.0,0.0,79,0.00,,---,0.00,VWS V13.01,2013-01-01 04:48:00,
2013-01-01 00:49:00,77.3,70.3,30.01,SE,135,0.8,0.8,79,0.00,,---,0.00,VWS V13.01,2013-01-01 04:49:00,
2013-01-01 00:50:00,77.3,70.3,30.01,SE,135,0.8,0.8,79,0.00,,---,0.00,VWS V13.01,2013-01-01 04:50:00,
2013-01-01 00:51:00,77.3,70.3,30.01,SSE,158,0.0,0.8,79,0.00,,---,0.00,VWS V13.01,2013-01-01 04:51:00,
2013-01-01 00:52:00,77.5,70.8,30.00,ENE,68,3.5,3.5,80,0.00,,---,0.00,VWS V13.01,2013-01-01 04:52:00,
2013-01-01 00:53:00,77.3,70.7,30.01,ESE,112,2.4,2.4,80,0.00,,---,0.00,VWS V13.01,2013-01-01 04:53:00,
2013-01-01 00:54:00,77.1,70.5,30.00,SE,135,1.7,2.4,80,0.00,,---,0.00,VWS V13.01,2013-01-01 04:54:00,
2013-01-01 00:55:00,77.1,70.5,30.00,WSW,248,0.0,1.7,80,0.00,,---,0.00,VWS V13.01,2013-01-01 04:55:00,
2013-01-01 00:56:00,77.1,70.5,30.00,SE,135,4.6,4.6,80,0.00,,---,0.00,VWS V13.01,2013-01-01 04:56:00,
2013-01-01 00:57:00,77.5,70.5,30.01,SSE,158,0.0,0.0,79,0.00,,---,0.00,VWS V13.01,2013-01-01 04:57:00,
2013-01-01 00:58:00,77.1,70.5,30.00,SSE,158,1.7,1.7,80,0.00,,---,0.00,VWS V13.01,2013-01-01 04:58:00,
2013-01-01 00:59:00,77.0,70.4,30.00,ESE,112,1.5,1.7,80,0.00,,---,0.00,VWS V13.01,2013-01-01 04:59:00,
2013-01-01 01:00:00,77.3,70.3,30.01,SE,135,0.8,0.8,79,0.00,,---,0.00,VWS V13.01,2013-01-01 05:00:00,
2013-01-01 01:01:00,76.8,70.2,30.00,SE,135,0.0,0.0,80,0.00,,---,0.00,VWS V13.01,2013-01-01 05:01:00,
2013-01-01 01:02:00,76.8,70.2,29.99,SE,135,0.0,0.0,80,0.00,,---,0.00,VWS V13.01,2013-01-01 05:02:00,
2013-01-01 01:03:00,77.3,70.7,30.01,ESE,112,2.4,2.4,80,0.00,,---,0.00,VWS V13.01,2013-01-01 05:03:00,
2013-01-01 01:04:00,76.8,70.2,30.00,East,90,0.0,0.0,80,0.00,,---,0.00,VWS V13.01,2013-01-01 05:04:00,
2013-01-01 01:05:00,76.8,70.2,30.00,ESE,112,0.0,0.0,80,0.00,,---,0.00,VWS V13.01,2013-01-01 05:05:00,
2013-01-01 01:06:00,76.8,70.2,29.99,ESE,112,0.0,0.0,80,0.00,,---,0.00,VWS V13.01,2013-01-01 05:06:00,
2013-01-01 01:07:00,76.8,70.2,30.00,SE,135,0.6,0.6,80,0.00,,---,0.00,VWS V13.01,2013-01-01 05:07:00,
2013-01-01 01:08:00,77.1,70.5,30.00,SSE,158,1.7,1.7,80,0.00,,---,0.00,VWS V13.01,2013-01-01 05:08:00,
2013-01-01 01:09:00,76.8,70.2,30.00,SE,135,2.0,2.0,80,0.00,,---,0.00,VWS V13.01,2013-01-01 05:09:00,
2013-01-01 01:10:00,76.8,70.2,29.99,WSW,248,0.0,2.0,80,0.00,,---,0.00,VWS V13.01,2013-01-01 05:10:00,
2013-01-01 01:11:00,76.8,70.2,29.99,ESE,112,4.2,4.2,80,0.00,,---,0.00,VWS V13.01,2013-01-01 05:11:00,
2013-01-01 01:12:00,76.8,70.2,29.99,East,90,1.5,4.2,80,0.00,,---,0.00,VWS V13.01,2013-01-01 05:12:00,
2013-01-01 01:13:00,76.8,70.2,30.00,SSE,158,0.0,0.0,80,0.00,,---,0.00,VWS V13.01,2013-01-01 05:13:00,
2013-01-01 01:14:00,76.8,70.2,30.00,ENE,68,1.3,3.5,80,0.00,,---,0.00,VWS V13.01,2013-01-01 05:14:00,
2013-01-01 01:15:00,76.8,70.2,30.00,SE,135,2.6,2.6,80,0.00,,---,0.00,VWS V13.01,2013-01-01 05:15:00,
2013-01-01 01:16:00,76.6,70.0,29.99,NE,45,1.7,2.6,80,0.00,,---,0.00,VWS V13.01,2013-01-01 05:16:00,
2013-01-01 01:17:00,76.8,70.2,30.00,ENE,68,4.4,4.4,80,0.00,,---,0.00,VWS V13.01,2013-01-01 05:17:00,
2013-01-01 01:18:00,76.8,70.2,30.00,SE,135,0.0,0.0,80,0.00,,---,0.00,VWS V13.01,2013-01-01 05:18:00,
2013-01-01 01:19:00,76.8,70.2,29.99,ENE,68,4.0,7.3,80,0.00,,---,0.00,VWS V13.01,2013-01-01 05:19:00,
2013-01-01 01:20:00,76.8,69.8,29.99,ESE,112,6.7,6.7,79,0.00,,---,0.00,VWS V13.01,2013-01-01 05:20:00,
2013-01-01 01:21:00,76.8,69.8,30.00,ENE,68,0.0,6.7,79,0.00,,---,0.00,VWS V13.01,2013-01-01 05:21:00,
2013-01-01 01:22:00,76.8,69.8,29.99,ENE,68,4.4,4.4,79,0.00,,---,0.00,VWS V13.01,2013-01-01 05:22:00,
2013-01-01 01:23:00,76.8,70.2,30.00,East,90,3.5,3.5,80,0.00,,---,0.00,VWS V13.01,2013-01-01 05:23:00,
2013-01-01 01:24:00,77.0,70.0,29.99,East,90,0.0,1.3,79,0.00,,---,0.00,VWS V13.01,2013-01-01 05:24:00,
2013-01-01 01:25:00,77.0,70.0,29.99,ENE,68,0.6,0.6,79,0.00,,---,0.00,VWS V13.01,2013-01-01 05:25:00,
2013-01-01 01:26:00,77.0,70.0,29.99,SE,135,4.0,4.0,79,0.00,,---,0.00,VWS V13.01,2013-01-01 05:26:00,
2013-01-01 01:27:00,77.1,70.1,29.99,SSE,158,3.5,4.0,79,0.00,,---,0.00,VWS V13.01,2013-01-01 05:27:00,
2013-01-01 01:28:00,76.8,70.2,30.00,ESE,112,7.3,7.3,80,0.00,,---,0.00,VWS V13.01,2013-01-01 05:28:00,
2013-01-01 01:29:00,77.1,70.1,30.00,SE,135,5.8,5.8,79,0.00,,---,0.00,VWS V13.01,2013-01-01 05:29:00,
2013-01-01 01:30:00,77.1,70.1,30.00,East,90,1.3,5.8,79,0.00,,---,0.00,VWS V13.01,2013-01-01 05:30:00,
2013-01-01 01:31:00,77.1,70.1,30.00,ENE,68,4.6,4.6,79,0.00,,---,0.00,VWS V13.01,2013-01-01 05:31:00,
2013-01-01 01:32:00,77.3,70.3,29.99,ENE,68,7.1,7.1,79,0.00,,---,0.00,VWS V13.01,2013-01-01 05:32:00,
2013-01-01 01:33:00,76.8,69.8,29.99,ENE,68,1.3,1.3,79,0.00,,---,0.00,VWS V13.01,2013-01-01 05:33:00,
2013-01-01 01:34:00,77.3,70.3,29.99,East,90,12.5,12.5,79,0.00,,---,0.00,VWS V13.01,2013-01-01 05:34:00,
2013-01-01 01:35:00,77.3,70.3,29.99,NE,45,7.3,12.5,79,0.00,,---,0.00,VWS V13.01,2013-01-01 05:35:00,
2013-01-01 01:36:00,77.3,70.3,29.99,ENE,68,2.0,7.3,79,0.00,,---,0.00,VWS V13.01,2013-01-01 05:36:00,
2013-01-01 01:37:00,77.3,70.3,29.99,North,0,5.1,5.1,79,0.00,,---,0.00,VWS V13.01,2013-01-01 05:37:00,
2013-01-01 01:38:00,77.1,70.1,30.00,East,90,0.0,0.0,79,0.00,,---,0.00,VWS V13.01,2013-01-01 05:38:00,
2013-01-01 01:39:00,77.3,70.3,29.99,NE,45,4.2,4.2,79,0.00,,---,0.00,VWS V13.01,2013-01-01 05:39:00,
2013-01-01 01:40:00,77.1,70.1,29.99,ESE,112,6.2,6.2,79,0.00,,---,0.00,VWS V13.01,2013-01-01 05:40:00,
2013-01-01 01:41:00,77.1,70.1,29.99,ENE,68,1.5,6.2,79,0.00,,---,0.00,VWS V13.01,2013-01-01 05:41:00,
2013-01-01 01:42:00,77.1,70.1,29.99,ENE,68,8.2,8.2,79,0.00,,---,0.00,VWS V13.01,2013-01-01 05:42:00,
2013-01-01 01:43:00,77.3,70.3,29.99,ENE,68,6.0,6.0,79,0.00,,---,0.00,VWS V13.01,2013-01-01 05:43:00,
2013-01-01 01:44:00,77.1,70.1,29.99,ENE,68,4.4,4.4,79,0.00,,---,0.00,VWS V13.01,2013-01-01 05:44:00,
2013-01-01 01:45:00,77.1,70.1,29.99,NE,45,2.2,4.4,79,0.00,,---,0.00,VWS V13.01,2013-01-01 05:45:00,
2013-01-01 01:46:00,77.1,70.1,29.99,East,90,4.0,4.0,79,0.00,,---,0.00,VWS V13.01,2013-01-01 05:46:00,
2013-01-01 01:47:00,77.1,69.7,29.99,ENE,68,6.4,6.4,78,0.00,,---,0.00,VWS V13.01,2013-01-01 05:47:00,
2013-01-01 01:48:00,77.3,70.3,29.99,NE,45,3.3,3.3,79,0.00,,---,0.00,VWS V13.01,2013-01-01 05:48:00,
2013-01-01 01:49:00,77.1,69.7,29.99,ESE,112,0.6,3.1,78,0.00,,---,0.00,VWS V13.01,2013-01-01 05:49:00,
2013-01-01 01:50:00,77.1,69.7,29.99,ESE,112,0.6,0.6,78,0.00,,---,0.00,VWS V13.01,2013-01-01 05:50:00,
2013-01-01 01:51:00,77.3,69.9,29.99,ENE,68,8.5,8.5,78,0.00,,---,0.00,VWS V13.01,2013-01-01 05:51:00,
2013-01-01 01:52:00,77.3,69.9,29.99,ENE,68,8.7,8.7,78,0.00,,---,0.00,VWS V13.01,2013-01-01 05:52:00,
2013-01-01 01:53:00,77.1,70.1,29.99,SSE,158,1.7,1.7,79,0.00,,---,0.00,VWS V13.01,2013-01-01 05:53:00,
2013-01-01 01:54:00,77.3,69.9,29.99,ENE,68,5.1,5.1,78,0.00,,---,0.00,VWS V13.01,2013-01-01 05:54:00,
2013-01-01 01:55:00,77.5,70.1,29.99,East,90,7.6,7.6,78,0.00,,---,0.00,VWS V13.01,2013-01-01 05:55:00,
2013-01-01 01:56:00,77.3,69.9,29.99,SE,135,5.3,7.6,78,0.00,,---,0.00,VWS V13.01,2013-01-01 05:56:00,
2013-01-01 01:57:00,77.5,69.7,29.99,East,90,7.1,7.1,77,0.00,,---,0.00,VWS V13.01,2013-01-01 05:57:00,
2013-01-01 01:58:00,77.1,69.7,29.99,East,90,3.1,3.1,78,0.00,,---,0.00,VWS V13.01,2013-01-01 05:58:00,
2013-01-01 01:59:00,77.5,69.7,29.99,ESE,112,1.3,6.4,77,0.00,,---,0.00,VWS V13.01,2013-01-01 05:59:00,
2013-01-01 02:00:00,77.5,69.7,29.98,ESE,112,5.8,5.8,77,0.00,,---,0.00,VWS V13.01,2013-01-01 06:00:00,
2013-01-01 02:01:00,77.5,69.7,29.99,East,90,7.8,7.8,77,0.00,,---,0.00,VWS V13.01,2013-01-01 06:01:00,
2013-01-01 02:02:00,77.5,69.7,29.99,NE,45,5.8,7.8,77,0.00,,---,0.00,VWS V13.01,2013-01-01 06:02:00,
2013-01-01 02:03:00,77.3,69.9,29.99,SE,135,4.2,4.2,78,0.00,,---,0.00,VWS V13.01,2013-01-01 06:03:00,
2013-01-01 02:04:00,77.5,69.7,29.99,East,90,7.3,7.3,77,0.00,,---,0.00,VWS V13.01,2013-01-01 06:04:00,
2013-01-01 02:05:00,77.5,69.7,29.99,East,90,3.5,7.3,77,0.00,,---,0.00,VWS V13.01,2013-01-01 06:05:00,
2013-01-01 02:06:00,77.5,69.7,29.99,ESE,112,4.0,4.0,77,0.00,,---,0.00,VWS V13.01,2013-01-01 06:06:00,
2013-01-01 02:07:00,77.5,69.7,29.98,NE,45,0.0,4.0,77,0.00,,---,0.00,VWS V13.01,2013-01-01 06:07:00,
2013-01-01 02:08:00,77.5,69.7,29.99,ENE,68,6.4,6.4,77,0.00,,---,0.00,VWS V13.01,2013-01-01 06:08:00,
2013-01-01 02:09:00,77.5,69.7,29.98,ESE,112,4.6,4.6,77,0.00,,---,0.00,VWS V13.01,2013-01-01 06:09:00,
2013-01-01 02:10:00,77.5,69.7,29.98,East,90,5.1,5.1,77,0.00,,---,0.00,VWS V13.01,2013-01-01 06:10:00,
2013-01-01 02:11:00,77.5,69.7,29.98,ENE,68,10.7,10.7,77,0.00,,---,0.00,VWS V13.01,2013-01-01 06:11:00,
2013-01-01 02:12:00,77.5,69.7,29.98,East,90,3.8,10.7,77,0.00,,---,0.00,VWS V13.01,2013-01-01 06:12:00,
2013-01-01 02:13:00,77.5,69.7,29.99,NE,45,4.6,4.6,77,0.00,,---,0.00,VWS V13.01,2013-01-01 06:13:00,
2013-01-01 02:14:00,77.5,69.3,29.98,North,0,2.4,7.6,76,0.00,,---,0.00,VWS V13.01,2013-01-01 06:14:00,
2013-01-01 02:15:00,77.3,69.2,29.98,ESE,112,2.9,2.9,76,0.00,,---,0.00,VWS V13.01,2013-01-01 06:15:00,
2013-01-01 02:16:00,77.5,69.3,29.98,NNE,22,0.0,2.9,76,0.00,,---,0.00,VWS V13.01,2013-01-01 06:16:00,
2013-01-01 02:17:00,77.3,69.2,29.98,East,90,4.9,4.9,76,0.00,,---,0.00,VWS V13.01,2013-01-01 06:17:00,
2013-01-01 02:18:00,77.5,69.7,29.98,NE,45,2.9,2.9,77,0.00,,---,0.00,VWS V13.01,2013-01-01 06:18:00,
2013-01-01 02:19:00,77.5,69.3,29.98,NE,45,1.7,6.0,76,0.00,,---,0.00,VWS V13.01,2013-01-01 06:19:00,
2013-01-01 02:20:00,77.5,69.3,29.98,ESE,112,5.1,5.1,76,0.00,,---,0.00,VWS V13.01,2013-01-01 06:20:00,
2013-01-01 02:21:00,77.3,69.2,29.98,SE,135,7.1,7.1,76,0.00,,---,0.00,VWS V13.01,2013-01-01 06:21:00,
2013-01-01 02:22:00,77.3,69.2,29.98,SE,135,2.0,7.1,76,0.00,,---,0.00,VWS V13.01,2013-01-01 06:22:00,
2013-01-01 02:23:00,77.5,69.7,29.98,SE,135,7.6,7.6,77,0.00,,---,0.00,VWS V13.01,2013-01-01 06:23:00,
2013-01-01 02:24:00,77.3,69.5,29.98,East,90,5.3,9.8,77,0.00,,---,0.00,VWS V13.01,2013-01-01 06:24:00,
2013-01-01 02:25:00,77.3,69.5,29.97,East,90,4.2,5.3,77,0.00,,---,0.00,VWS V13.01,2013-01-01 06:25:00,
2013-01-01 02:26:00,77.5,69.7,29.97,ENE,68,2.6,4.2,77,0.00,,---,0.00,VWS V13.01,2013-01-01 06:26:00,
2013-01-01 02:27:00,77.5,69.7,29.97,East,90,1.1,2.6,77,0.00,,---,0.00,VWS V13.01,2013-01-01 06:27:00,
2013-01-01 02:28:00,77.5,69.3,29.98,ESE,112,6.0,6.0,76,0.00,,---,0.00,VWS V13.01,2013-01-01 06:28:00,
2013-01-01 02:29:00,77.5,69.7,29.98,ESE,112,6.7,6.7,77,0.00,,---,0.00,VWS V13.01,2013-01-01 06:29:00,
2013-01-01 02:30:00,77.3,69.5,29.98,North,0,2.4,6.7,77,0.00,,---,0.00,VWS V13.01,2013-01-01 06:30:00,
2013-01-01 02:31:00,77.3,69.5,29.97,East,90,3.3,3.3,77,0.00,,---,0.00,VWS V13.01,2013-01-01 06:31:00,
2013-01-01 02:32:00,77.3,69.5,29.97,East,90,1.5,3.3,77,0.00,,---,0.00,VWS V13.01,2013-01-01 06:32:00,
2013-01-01 02:33:00,77.5,69.7,29.98,ESE,112,9.8,9.8,77,0.00,,---,0.00,VWS V13.01,2013-01-01 06:33:00,
2013-01-01 02:34:00,77.3,69.5,29.98,East,90,9.8,9.8,77,0.00,,---,0.00,VWS V13.01,2013-01-01 06:34:00,
2013-01-01 02:35:00,77.3,69.5,29.97,ENE,68,3.8,9.8,77,0.00,,---,0.00,VWS V13.01,2013-01-01 06:35:00,
2013-01-01 02:36:00,77.3,69.5,29.98,East,90,2.9,3.8,77,0.00,,---,0.00,VWS V13.01,2013-01-01 06:36:00,
2013-01-01 02:37:00,77.3,69.5,29.98,ENE,68,5.1,5.1,77,0.00,,---,0.00,VWS V13.01,2013-01-01 06:37:00,
2013-01-01 02:38:00,77.5,69.7,29.97,ENE,68,0.0,1.1,77,0.00,,---,0.00,VWS V13.01,2013-01-01 06:38:00,
2013-01-01 02:39:00,77.3,69.5,29.97,East,90,5.8,5.8,77,0.00,,---,0.00,VWS V13.01,2013-01-01 06:39:00,
2013-01-01 02:40:00,77.3,69.5,29.98,ENE,68,6.2,6.2,77,0.00,,---,0.00,VWS V13.01,2013-01-01 06:40:00,
2013-01-01 02:41:00,77.3,69.5,29.98,SW,225,3.3,6.2,77,0.00,,---,0.00,VWS V13.01,2013-01-01 06:41:00,
2013-01-01 02:42:00,77.3,69.5,29.97,East,90,5.8,5.8,77,0.00,,---,0.00,VWS V13.01,2013-01-01 06:42:00,
2013-01-01 02:43:00,77.3,69.5,29.97,ENE,68,3.5,3.5,77,0.00,,---,0.00,VWS V13.01,2013-01-01 06:43:00,
2013-01-01 02:44:00,77.1,69.3,29.97,East,90,6.7,9.8,77,0.00,,---,0.00,VWS V13.01,2013-01-01 06:44:00,
2013-01-01 02:45:00,77.3,69.5,29.97,SE,135,3.5,6.7,77,0.00,,---,0.00,VWS V13.01,2013-01-01 06:45:00,
2013-01-01 02:46:00,77.1,69.3,29.97,ESE,112,6.7,6.7,77,0.00,,---,0.00,VWS V13.01,2013-01-01 06:46:00,
2013-01-01 02:47:00,77.3,69.5,29.97,NE,45,5.5,6.7,77,0.00,,---,0.00,VWS V13.01,2013-01-01 06:47:00,
2013-01-01 02:48:00,77.3,69.5,29.98,NNE,22,2.2,2.2,77,0.00,,---,0.00,VWS V13.01,2013-01-01 06:48:00,
2013-01-01 02:49:00,77.3,69.5,29.97,East,90,3.8,5.1,77,0.00,,---,0.00,VWS V13.01,2013-01-01 06:49:00,
2013-01-01 02:50:00,77.3,69.5,29.97,East,90,3.8,3.8,77,0.00,,---,0.00,VWS V13.01,2013-01-01 06:50:00,
2013-01-01 02:51:00,77.3,69.5,29.97,ENE,68,8.9,8.9,77,0.00,,---,0.00,VWS V13.01,2013-01-01 06:51:00,
2013-01-01 02:52:00,77.3,69.5,29.97,ESE,112,4.4,8.9,77,0.00,,---,0.00,VWS V13.01,2013-01-01 06:52:00,
2013-01-01 02:53:00,77.3,69.5,29.97,ENE,68,9.8,9.8,77,0.00,,---,0.00,VWS V13.01,2013-01-01 06:53:00,
2013-01-01 02:54:00,77.3,69.5,29.97,East,90,0.0,3.5,77,0.00,,---,0.00,VWS V13.01,2013-01-01 06:54:00,
2013-01-01 02:55:00,77.3,69.5,29.96,NE,45,2.0,2.0,77,0.00,,---,0.00,VWS V13.01,2013-01-01 06:55:00,
2013-01-01 02:56:00,77.3,69.5,29.97,ESE,112,4.0,4.0,77,0.00,,---,0.00,VWS V13.01,2013-01-01 06:56:00,
2013-01-01 02:57:00,77.3,69.5,29.96,East,90,4.4,4.4,77,0.00,,---,0.00,VWS V13.01,2013-01-01 06:57:00,
2013-01-01 02:58:00,77.3,69.5,29.97,East,90,5.1,5.1,77,0.00,,---,0.00,VWS V13.01,2013-01-01 06:58:00,
2013-01-01 02:59:00,77.3,69.2,29.97,ENE,68,7.1,7.1,76,0.00,,---,0.00,VWS V13.01,2013-01-01 06:59:00,
2013-01-01 03:00:00,77.5,69.3,29.97,North,0,0.0,7.1,76,0.00,,---,0.00,VWS V13.01,2013-01-01 07:00:00,
2013-01-01 03:01:00,77.5,69.3,29.97,ESE,112,3.8,3.8,76,0.00,,---,0.00,VWS V13.01,2013-01-01 07:01:00,
2013-01-01 03:02:00,77.5,69.3,29.97,ESE,112,5.1,5.1,76,0.00,,---,0.00,VWS V13.01,2013-01-01 07:02:00,
2013-01-01 03:03:00,77.3,69.5,29.97,East,90,3.5,4.4,77,0.00,,---,0.00,VWS V13.01,2013-01-01 07:03:00,
2013-01-01 03:04:00,77.5,69.7,29.97,ENE,68,4.6,5.8,77,0.00,,---,0.00,VWS V13.01,2013-01-01 07:04:00,
2013-01-01 03:05:00,77.5,69.7,29.97,East,90,6.2,6.2,77,0.00,,---,0.00,VWS V13.01,2013-01-01 07:05:00,
2013-01-01 03:06:00,77.5,69.7,29.97,SE,135,2.9,6.2,77,0.00,,---,0.00,VWS V13.01,2013-01-01 07:06:00,
2013-01-01 03:07:00,77.5,69.7,29.96,NE,45,2.4,2.9,77,0.00,,---,0.00,VWS V13.01,2013-01-01 07:07:00,
2013-01-01 03:08:00,77.3,69.5,29.96,ESE,112,6.2,6.2,77,0.00,,---,0.00,VWS V13.01,2013-01-01 07:08:00,
2013-01-01 03:09:00,77.5,69.7,29.97,ESE,112,4.0,4.0,77,0.00,,---,0.00,VWS V13.01,2013-01-01 07:09:00,
2013-01-01 03:10:00,77.5,69.7,29.97,ENE,68,2.2,4.0,77,0.00,,---,0.00,VWS V13.01,2013-01-01 07:10:00,
2013-01-01 03:11:00,77.5,69.7,29.97,ESE,112,5.5,5.5,77,0.00,,---,0.00,VWS V13.01,2013-01-01 07:11:00,
2013-01-01 03:12:00,77.5,69.7,29.97,NE,45,3.8,5.5,77,0.00,,---,0.00,VWS V13.01,2013-01-01 07:12:00,
2013-01-01 03:13:00,77.5,69.7,29.97,ENE,68,5.8,5.8,77,0.00,,---,0.00,VWS V13.01,2013-01-01 07:13:00,
2013-01-01 03:14:00,77.5,69.7,29.97,SE,135,0.0,2.2,77,0.00,,---,0.00,VWS V13.01,2013-01-01 07:14:00,
2013-01-01 03:15:00,77.5,69.7,29.97,East,90,0.0,0.0,77,0.00,,---,0.00,VWS V13.01,2013-01-01 07:15:00,
2013-01-01 03:16:00,77.5,69.7,29.97,ENE,68,0.0,0.0,77,0.00,,---,0.00,VWS V13.01,2013-01-01 07:16:00,
2013-01-01 03:17:00,77.5,69.7,29.97,East,90,0.0,0.0,77,0.00,,---,0.00,VWS V13.01,2013-01-01 07:17:00,
2013-01-01 03:18:00,77.5,69.7,29.96,NE,45,0.0,2.4,77,0.00,,---,0.00,VWS V13.01,2013-01-01 07:18:00,
2013-01-01 03:19:00,77.5,70.1,29.97,East,90,10.0,10.0,78,0.00,,---,0.00,VWS V13.01,2013-01-01 07:19:00,
2013-01-01 03:20:00,77.5,70.1,29.97,East,90,0.8,10.0,78,0.00,,---,0.00,VWS V13.01,2013-01-01 07:20:00,
2013-01-01 03:21:00,77.5,70.1,29.97,SE,135,1.3,1.3,78,0.00,,---,0.00,VWS V13.01,2013-01-01 07:21:00,
2013-01-01 03:22:00,77.5,70.1,29.97,ENE,68,0.8,1.3,78,0.00,,---,0.00,VWS V13.01,2013-01-01 07:22:00,
2013-01-01 03:23:00,77.5,69.7,29.97,ENE,68,2.2,3.8,77,0.00,,---,0.00,VWS V13.01,2013-01-01 07:23:00,
2013-01-01 03:24:00,77.5,70.1,29.97,East,90,0.0,7.8,78,0.00,,---,0.00,VWS V13.01,2013-01-01 07:24:00,
2013-01-01 03:25:00,77.5,70.1,29.96,SE,135,1.7,1.7,78,0.00,,---,0.00,VWS V13.01,2013-01-01 07:25:00,
2013-01-01 03:26:00,77.5,70.1,29.97,ENE,68,4.9,4.9,78,0.00,,---,0.00,VWS V13.01,2013-01-01 07:26:00,
2013-01-01 03:27:00,77.3,69.9,29.97,ENE,68,2.0,4.9,78,0.00,,---,0.00,VWS V13.01,2013-01-01 07:27:00,
2013-01-01 03:28:00,77.5,69.7,29.97,ESE,112,0.0,0.0,77,0.00,,---,0.00,VWS V13.01,2013-01-01 07:28:00,
2013-01-01 03:29:00,77.5,70.1,29.97,East,90,2.0,6.2,78,0.00,,---,0.00,VWS V13.01,2013-01-01 07:29:00,
2013-01-01 03:30:00,77.3,69.9,29.97,ESE,112,2.6,2.6,78,0.00,,---,0.00,VWS V13.01,2013-01-01 07:30:00,
2013-01-01 03:31:00,77.5,70.1,29.97,East,90,3.5,3.5,78,0.00,,---,0.00,VWS V13.01,2013-01-01 07:31:00,
2013-01-01 03:32:00,77.5,70.1,29.97,East,90,4.2,4.2,78,0.00,,---,0.00,VWS V13.01,2013-01-01 07:32:00,
2013-01-01 03:33:00,77.5,70.1,29.97,East,90,7.8,7.8,78,0.00,,---,0.00,VWS V13.01,2013-01-01 07:33:00,
2013-01-01 03:34:00,77.5,70.1,29.97,East,90,7.3,7.3,78,0.00,,---,0.00,VWS V13.01,2013-01-01 07:34:00,
2013-01-01 03:35:00,77.5,70.1,29.98,SE,135,2.4,7.3,78,0.00,,---,0.00,VWS V13.01,2013-01-01 07:35:00,
2013-01-01 03:36:00,77.5,70.1,29.97,East,90,0.0,2.4,78,0.00,,---,0.00,VWS V13.01,2013-01-01 07:36:00,
2013-01-01 03:37:00,77.5,70.1,29.97,ENE,68,2.2,2.2,78,0.00,,---,0.00,VWS V13.01,2013-01-01 07:37:00,
2013-01-01 03:38:00,77.5,70.1,29.96,NE,45,6.2,6.2,78,0.00,,---,0.00,VWS V13.01,2013-01-01 07:38:00,
2013-01-01 03:39:00,77.3,69.9,29.97,East,90,5.8,7.1,78,0.00,,---,0.00,VWS V13.01,2013-01-01 07:39:00,
2013-01-01 03:40:00,77.3,70.3,29.97,ENE,68,7.1,7.1,79,0.00,,---,0.00,VWS V13.01,2013-01-01 07:40:00,
2013-01-01 03:41:00,77.3,70.3,29.97,ESE,112,1.5,7.1,79,0.00,,---,0.00,VWS V13.01,2013-01-01 07:41:00,
2013-01-01 03:42:00,77.3,70.3,29.97,ENE,68,3.8,3.8,79,0.00,,---,0.00,VWS V13.01,2013-01-01 07:42:00,
2013-01-01 03:43:00,77.5,70.1,29.97,East,90,1.1,4.2,78,0.00,,---,0.00,VWS V13.01,2013-01-01 07:43:00,
2013-01-01 03:44:00,77.1,69.7,29.97,NE,45,3.3,6.2,78,0.00,,---,0.00,VWS V13.01,2013-01-01 07:44:00,
2013-01-01 03:45:00,77.1,69.7,29.97,East,90,4.6,4.6,78,0.00,,---,0.00,VWS V13.01,2013-01-01 07:45:00,
2013-01-01 03:46:00,77.1,69.7,29.97,ESE,112,9.6,9.6,78,0.00,,---,0.00,VWS V13.01,2013-01-01 07:46:00,
2013-01-01 03:47:00,77.1,69.7,29.97,NE,45,4.0,9.6,78,0.00,,---,0.00,VWS V13.01,2013-01-01 07:47:00,
2013-01-01 03:48:00,77.3,69.9,29.97,ENE,68,7.1,7.1,78,0.00,,---,0.00,VWS V13.01,2013-01-01 07:48:00,
2013-01-01 03:49:00,77.1,69.7,29.97,NE,45,2.2,6.0,78,0.00,,---,0.00,VWS V13.01,2013-01-01 07:49:00,
2013-01-01 03:50:00,77.1,69.7,29.97,NE,45,2.2,2.2,78,0.00,,---,0.00,VWS V13.01,2013-01-01 07:50:00,
2013-01-01 03:51:00,77.1,69.7,29.97,SE,135,0.0,2.2,78,0.00,,---,0.00,VWS V13.01,2013-01-01 07:51:00,
2013-01-01 03:52:00,77.1,69.7,29.97,ESE,112,2.2,2.2,78,0.00,,---,0.00,VWS V13.01,2013-01-01 07:52:00,
2013-01-01 03:53:00,77.3,69.9,29.97,East,90,6.2,6.2,78,0.00,,---,0.00,VWS V13.01,2013-01-01 07:53:00,
2013-01-01 03:54:00,77.1,69.7,29.97,East,90,3.3,3.3,78,0.00,,---,0.00,VWS V13.01,2013-01-01 07:54:00,
2013-01-01 03:55:00,77.1,69.7,29.97,ENE,68,3.5,3.5,78,0.00,,---,0.00,VWS V13.01,2013-01-01 07:55:00,
2013-01-01 03:56:00,77.1,69.7,29.97,East,90,4.4,4.4,78,0.00,,---,0.00,VWS V13.01,2013-01-01 07:56:00,
2013-01-01 03:57:00,77.1,69.7,29.97,ESE,112,0.8,4.4,78,0.00,,---,0.00,VWS V13.01,2013-01-01 07:57:00,
2013-01-01 03:58:00,77.1,69.7,29.97,ENE,68,6.0,6.0,78,0.00,,---,0.00,VWS V13.01,2013-01-01 07:58:00,
2013-01-01 03:59:00,77.0,69.6,29.97,ENE,68,6.7,6.7,78,0.00,,---,0.00,VWS V13.01,2013-01-01 07:59:00,
2013-01-01 04:00:00,77.1,69.7,29.97,ENE,68,4.9,6.7,78,0.00,,---,0.00,VWS V13.01,2013-01-01 08:00:00,
2013-01-01 04:01:00,77.0,69.6,29.97,East,90,0.0,4.9,78,0.00,,---,0.00,VWS V13.01,2013-01-01 08:01:00,
2013-01-01 04:02:00,77.0,69.6,29.97,ENE,68,3.5,3.5,78,0.00,,---,0.00,VWS V13.01,2013-01-01 08:02:00,
2013-01-01 04:03:00,77.1,69.7,29.97,ESE,112,3.1,3.1,78,0.00,,---,0.00,VWS V13.01,2013-01-01 08:03:00,
2013-01-01 04:04:00,77.0,69.6,29.97,NE,45,4.9,4.9,78,0.00,,---,0.00,VWS V13.01,2013-01-01 08:04:00,
2013-01-01 04:05:00,77.0,69.6,29.97,ENE,68,5.5,5.5,78,0.00,,---,0.00,VWS V13.01,2013-01-01 08:05:00,
2013-01-01 04:06:00,77.0,69.6,29.97,East,90,7.3,7.3,78,0.00,,---,0.00,VWS V13.01,2013-01-01 08:06:00,
2013-01-01 04:07:00,77.0,69.6,29.97,SSE,158,2.4,7.3,78,0.00,,---,0.00,VWS V13.01,2013-01-01 08:07:00,
2013-01-01 04:08:00,77.0,69.6,29.97,ENE,68,1.1,1.1,78,0.00,,---,0.00,VWS V13.01,2013-01-01 08:08:00,
2013-01-01 04:09:00,77.1,69.7,29.98,ENE,68,8.0,8.0,78,0.00,,---,0.00,VWS V13.01,2013-01-01 08:09:00,
2013-01-01 04:10:00,77.1,69.7,29.97,ENE,68,4.0,8.0,78,0.00,,---,0.00,VWS V13.01,2013-01-01 08:10:00,
2013-01-01 04:11:00,77.1,69.7,29.97,ESE,112,1.5,4.0,78,0.00,,---,0.00,VWS V13.01,2013-01-01 08:11:00,
2013-01-01 04:12:00,77.1,69.7,29.97,ENE,68,3.8,3.8,78,0.00,,---,0.00,VWS V13.01,2013-01-01 08:12:00,
2013-01-01 04:13:00,77.0,69.6,29.97,ESE,112,2.4,3.5,78,0.00,,---,0.00,VWS V13.01,2013-01-01 08:13:00,
2013-01-01 04:14:00,77.1,69.7,29.97,SSE,158,2.2,2.2,78,0.00,,---,0.00,VWS V13.01,2013-01-01 08:14:00,
2013-01-01 04:15:00,77.1,69.7,29.97,ENE,68,5.3,5.3,78,0.00,,---,0.00,VWS V13.01,2013-01-01 08:15:00,
2013-01-01 04:16:00,77.1,69.7,29.97,NE,45,3.5,5.3,78,0.00,,---,0.00,VWS V13.01,2013-01-01 08:16:00,
2013-01-01 04:17:00,77.1,69.7,29.97,NE,45,3.8,3.8,78,0.00,,---,0.00,VWS V13.01,2013-01-01 08:17:00,
2013-01-01 04:18:00,77.1,69.7,29.97,East,90,4.4,4.4,78,0.00,,---,0.00,VWS V13.01,2013-01-01 08:18:00,
2013-01-01 04:19:00,77.1,69.7,29.97,ENE,68,6.7,6.7,78,0.00,,---,0.00,VWS V13.01,2013-01-01 08:19:00,
2013-01-01 04:20:00,77.1,69.7,29.97,ENE,68,2.4,6.7,78,0.00,,---,0.00,VWS V13.01,2013-01-01 08:20:00,
2013-01-01 04:21:00,77.1,69.7,29.97,ENE,68,7.6,7.6,78,0.00,,---,0.00,VWS V13.01,2013-01-01 08:21:00,
2013-01-01 04:22:00,77.1,69.7,29.97,ENE,68,10.7,10.7,78,0.00,,---,0.00,VWS V13.01,2013-01-01 08:22:00,
2013-01-01 04:23:00,77.1,69.7,29.97,East,90,0.0,3.8,78,0.00,,---,0.00,VWS V13.01,2013-01-01 08:23:00,
2013-01-01 04:24:00,77.1,69.7,29.97,ENE,68,5.8,5.8,78,0.00,,---,0.00,VWS V13.01,2013-01-01 08:24:00,
2013-01-01 04:25:00,77.1,69.7,29.97,NE,45,0.0,5.8,78,0.00,,---,0.00,VWS V13.01,2013-01-01 08:25:00,
2013-01-01 04:26:00,77.1,69.7,29.97,ENE,68,4.6,4.6,78,0.00,,---,0.00,VWS V13.01,2013-01-01 08:26:00,
2013-01-01 04:27:00,77.1,69.7,29.97,ENE,68,2.4,4.6,78,0.00,,---,0.00,VWS V13.01,2013-01-01 08:27:00,
2013-01-01 04:28:00,77.1,69.7,29.97,East,90,4.4,4.4,78,0.00,,---,0.00,VWS V13.01,2013-01-01 08:28:00,
2013-01-01 04:29:00,77.1,69.7,29.98,ESE,112,3.5,3.5,78,0.00,,---,0.00,VWS V13.01,2013-01-01 08:29:00,
2013-01-01 04:30:00,77.1,69.7,29.97,East,90,8.2,8.2,78,0.00,,---,0.00,VWS V13.01,2013-01-01 08:30:00,
2013-01-01 04:31:00,77.1,69.3,29.97,ENE,68,4.0,8.2,77,0.00,,---,0.00,VWS V13.01,2013-01-01 08:31:00,
2013-01-01 04:32:00,77.1,69.3,29.97,ESE,112,7.1,7.1,77,0.00,,---,0.00,VWS V13.01,2013-01-01 08:32:00,
2013-01-01 04:33:00,77.1,69.7,29.97,ENE,68,4.2,10.7,78,0.00,,---,0.00,VWS V13.01,2013-01-01 08:33:00,
2013-01-01 04:34:00,77.1,69.3,29.98,East,90,7.6,7.6,77,0.00,,---,0.00,VWS V13.01,2013-01-01 08:34:00,
2013-01-01 04:35:00,77.1,69.3,29.97,SSE,158,1.5,7.6,77,0.00,,---,0.00,VWS V13.01,2013-01-01 08:35:00,
2013-01-01 04:36:00,77.1,69.3,29.98,ENE,68,6.4,6.4,77,0.00,,---,0.00,VWS V13.01,2013-01-01 08:36:00,
2013-01-01 04:37:00,77.1,69.3,29.98,ESE,112,2.2,6.4,77,0.00,,---,0.00,VWS V13.01,2013-01-01 08:37:00,
2013-01-01 04:38:00,77.1,69.7,29.98,NE,45,1.5,2.4,78,0.00,,---,0.00,VWS V13.01,2013-01-01 08:38:00,
2013-01-01 04:39:00,77.1,69.3,29.98,ENE,68,4.0,7.6,77,0.00,,---,0.00,VWS V13.01,2013-01-01 08:39:00,
2013-01-01 04:40:00,77.1,69.3,29.98,NE,45,0.0,4.0,77,0.00,,---,0.00,VWS V13.01,2013-01-01 08:40:00,
2013-01-01 04:41:00,77.1,69.3,29.98,SE,135,0.8,0.8,77,0.00,,---,0.00,VWS V13.01,2013-01-01 08:41:00,
2013-01-01 04:42:00,77.1,69.3,29.98,East,90,1.3,1.3,77,0.00,,---,0.00,VWS V13.01,2013-01-01 08:42:00,
2013-01-01 04:43:00,77.1,69.3,29.98,SE,135,0.0,7.1,77,0.00,,---,0.00,VWS V13.01,2013-01-01 08:43:00,
2013-01-01 04:44:00,77.1,69.3,29.98,ENE,68,2.6,4.2,77,0.00,,---,0.00,VWS V13.01,2013-01-01 08:44:00,
2013-01-01 04:45:00,77.1,69.3,29.97,SE,135,1.1,2.6,77,0.00,,---,0.00,VWS V13.01,2013-01-01 08:45:00,
2013-01-01 04:46:00,77.1,69.3,29.97,SE,135,7.6,7.6,77,0.00,,---,0.00,VWS V13.01,2013-01-01 08:46:00,
2013-01-01 04:47:00,77.1,69.3,29.97,ENE,68,3.5,7.6,77,0.00,,---,0.00,VWS V13.01,2013-01-01 08:47:00,
2013-01-01 04:48:00,77.1,69.3,29.98,SE,135,7.6,7.6,77,0.00,,---,0.00,VWS V13.01,2013-01-01 08:48:00,
2013-01-01 04:49:00,77.1,69.3,29.97,ENE,68,6.9,6.9,77,0.00,,---,0.00,VWS V13.01,2013-01-01 08:49:00,
2013-01-01 04:50:00,77.1,69.3,29.97,ENE,68,6.9,6.9,77,0.00,,---,0.00,VWS V13.01,2013-01-01 08:50:00,
2013-01-01 04:51:00,77.1,69.3,29.97,ESE,112,2.0,6.9,77,0.00,,---,0.00,VWS V13.01,2013-01-01 08:51:00,
2013-01-01 04:52:00,77.1,69.3,29.97,ESE,112,2.2,2.2,77,0.00,,---,0.00,VWS V13.01,2013-01-01 08:52:00,
2013-01-01 04:53:00,77.1,69.3,29.98,NE,45,4.2,4.2,77,0.00,,---,0.00,VWS V13.01,2013-01-01 08:53:00,
2013-01-01 04:54:00,77.1,69.3,29.97,ENE,68,0.0,2.2,77,0.00,,---,0.00,VWS V13.01,2013-01-01 08:54:00,
2013-01-01 04:55:00,77.1,69.3,29.97,ESE,112,0.0,0.0,77,0.00,,---,0.00,VWS V13.01,2013-01-01 08:55:00,
2013-01-01 04:56:00,77.1,69.3,29.97,SE,135,0.8,0.8,77,0.00,,---,0.00,VWS V13.01,2013-01-01 08:56:00,
2013-01-01 04:57:00,77.1,69.3,29.97,SE,135,2.0,2.0,77,0.00,,---,0.00,VWS V13.01,2013-01-01 08:57:00,
2013-01-01 04:58:00,77.1,69.3,29.97,SE,135,6.2,6.2,77,0.00,,---,0.00,VWS V13.01,2013-01-01 08:58:00,
2013-01-01 04:59:00,77.1,69.7,29.98,South,180,1.5,1.5,78,0.00,,---,0.00,VWS V13.01,2013-01-01 08:59:00,
2013-01-01 05:00:00,77.0,69.6,29.98,SE,135,2.4,2.4,78,0.00,,---,0.00,VWS V13.01,2013-01-01 09:00:00,
2013-01-01 05:01:00,77.0,69.6,29.98,SSE,158,1.1,2.4,78,0.00,,---,0.00,VWS V13.01,2013-01-01 09:01:00,
2013-01-01 05:02:00,77.0,69.6,29.98,ESE,112,0.0,1.1,78,0.00,,---,0.00,VWS V13.01,2013-01-01 09:02:00,
2013-01-01 05:03:00,77.1,69.3,29.97,SE,135,2.2,2.2,77,0.00,,---,0.00,VWS V13.01,2013-01-01 09:03:00,
2013-01-01 05:04:00,76.8,69.4,29.98,SE,135,1.1,1.1,78,0.00,,---,0.00,VWS V13.01,2013-01-01 09:04:00,
2013-01-01 05:05:00,76.8,69.4,29.97,SSE,158,0.0,1.1,78,0.00,,---,0.00,VWS V13.01,2013-01-01 09:05:00,
2013-01-01 05:06:00,76.8,69.4,29.98,SE,135,0.0,0.0,78,0.00,,---,0.00,VWS V13.01,2013-01-01 09:06:00,
2013-01-01 05:07:00,76.8,69.4,29.98,SE,135,2.4,2.4,78,0.00,,---,0.00,VWS V13.01,2013-01-01 09:07:00,
2013-01-01 05:08:00,77.1,69.3,29.97,SE,135,1.3,2.0,77,0.00,,---,0.00,VWS V13.01,2013-01-01 09:08:00,
2013-01-01 05:09:00,76.6,69.2,29.98,South,180,0.0,1.5,78,0.00,,---,0.00,VWS V13.01,2013-01-01 09:09:00,
2013-01-01 05:10:00,76.6,69.6,29.98,SSE,158,1.3,1.3,79,0.00,,---,0.00,VWS V13.01,2013-01-01 09:10:00,
2013-01-01 05:11:00,76.6,69.6,29.98,South,180,2.0,2.0,79,0.00,,---,0.00,VWS V13.01,2013-01-01 09:11:00,
2013-01-01 05:12:00,76.6,69.6,29.98,SE,135,0.0,2.0,79,0.00,,---,0.00,VWS V13.01,2013-01-01 09:12:00,
2013-01-01 05:13:00,76.8,69.4,29.98,SSE,158,0.0,0.0,78,0.00,,---,0.00,VWS V13.01,2013-01-01 09:13:00,
2013-01-01 05:14:00,76.4,69.4,29.98,SE,135,0.0,1.5,79,0.00,,---,0.00,VWS V13.01,2013-01-01 09:14:00,
2013-01-01 05:15:00,76.4,69.4,29.98,SSE,158,0.6,0.6,79,0.00,,---,0.00,VWS V13.01,2013-01-01 09:15:00,
2013-01-01 05:16:00,76.4,69.4,29.98,South,180,0.0,0.6,79,0.00,,---,0.00,VWS V13.01,2013-01-01 09:16:00,
2013-01-01 05:17:00,76.2,69.2,29.98,ESE,112,0.0,0.0,79,0.00,,---,0.00,VWS V13.01,2013-01-01 09:17:00,
2013-01-01 05:18:00,76.6,69.2,29.98,SE,135,1.5,2.4,78,0.00,,---,0.00,VWS V13.01,2013-01-01 09:18:00,
2013-01-01 05:19:00,76.2,69.2,29.98,SSE,158,0.0,0.0,79,0.00,,---,0.00,VWS V13.01,2013-01-01 09:19:00,
2013-01-01 05:20:00,76.2,69.2,29.98,South,180,0.0,0.0,79,0.00,,---,0.00,VWS V13.01,2013-01-01 09:20:00,
2013-01-01 05:21:00,76.2,69.2,29.98,SSE,158,2.4,2.4,79,0.00,,---,0.00,VWS V13.01,2013-01-01 09:21:00,
2013-01-01 05:22:00,76.2,69.2,29.98,SE,135,0.0,2.4,79,0.00,,---,0.00,VWS V13.01,2013-01-01 09:22:00,
2013-01-01 05:23:00,76.6,69.6,29.98,SSE,158,1.5,1.5,79,0.00,,---,0.00,VWS V13.01,2013-01-01 09:23:00,
2013-01-01 05:24:00,76.2,69.2,29.98,SE,135,2.2,2.2,79,0.00,,---,0.00,VWS V13.01,2013-01-01 09:24:00,
2013-01-01 05:25:00,76.2,69.2,29.98,South,180,0.0,2.2,79,0.00,,---,0.00,VWS V13.01,2013-01-01 09:25:00,
2013-01-01 05:26:00,76.1,69.1,29.98,SSE,158,1.7,1.7,79,0.00,,---,0.00,VWS V13.01,2013-01-01 09:26:00,
2013-01-01 05:27:00,76.1,69.1,29.98,SSE,158,0.0,1.7,79,0.00,,---,0.00,VWS V13.01,2013-01-01 09:27:00,
2013-01-01 05:28:00,76.2,69.2,29.98,SE,135,0.0,0.0,79,0.00,,---,0.00,VWS V13.01,2013-01-01 09:28:00,
2013-01-01 05:29:00,76.1,69.1,29.98,South,180,0.0,0.0,79,0.00,,---,0.00,VWS V13.01,2013-01-01 09:29:00,
2013-01-01 05:30:00,76.1,69.1,29.98,SSE,158,0.0,0.0,79,0.00,,---,0.00,VWS V13.01,2013-01-01 09:30:00,
2013-01-01 05:31:00,76.1,69.1,29.98,SSE,158,4.0,4.0,79,0.00,,---,0.00,VWS V13.01,2013-01-01 09:31:00,
2013-01-01 05:32:00,76.1,69.1,29.98,SSE,158,0.0,4.0,79,0.00,,---,0.00,VWS V13.01,2013-01-01 09:32:00,
2013-01-01 05:33:00,76.2,69.2,29.98,SSE,158,1.7,1.7,79,0.00,,---,0.00,VWS V13.01,2013-01-01 09:33:00,
2013-01-01 05:34:00,75.9,69.3,29.98,South,180,0.8,0.8,80,0.00,,---,0.00,VWS V13.01,2013-01-01 09:34:00,
2013-01-01 05:35:00,75.9,69.3,29.98,SSW,202,0.0,0.8,80,0.00,,---,0.00,VWS V13.01,2013-01-01 09:35:00,
2013-01-01 05:36:00,75.9,69.3,29.98,South,180,3.1,3.1,80,0.00,,---,0.00,VWS V13.01,2013-01-01 09:36:00,
2013-01-01 05:37:00,75.9,69.3,29.98,SE,135,0.0,3.1,80,0.00,,---,0.00,VWS V13.01,2013-01-01 09:37:00,
2013-01-01 05:38:00,76.1,69.1,29.98,SE,135,0.0,0.0,79,0.00,,---,0.00,VWS V13.01,2013-01-01 09:38:00,
2013-01-01 05:39:00,75.9,69.3,29.98,SSW,202,2.0,2.0,80,0.00,,---,0.00,VWS V13.01,2013-01-01 09:39:00,
2013-01-01 05:40:00,75.9,69.3,29.98,SE,135,0.0,2.0,80,0.00,,---,0.00,VWS V13.01,2013-01-01 09:40:00,
2013-01-01 05:41:00,75.9,69.3,29.98,SSE,158,0.0,0.0,80,0.00,,---,0.00,VWS V13.01,2013-01-01 09:41:00,
2013-01-01 05:42:00,75.9,69.3,29.98,ESE,112,0.0,0.0,80,0.00,,---,0.00,VWS V13.01,2013-01-01 09:42:00,
2013-01-01 05:43:00,75.9,68.9,29.98,South,180,0.0,0.0,79,0.00,,---,0.00,VWS V13.01,2013-01-01 09:43:00,
2013-01-01 05:44:00,75.9,69.3,29.99,South,180,0.0,0.0,80,0.00,,---,0.00,VWS V13.01,2013-01-01 09:44:00,
2013-01-01 05:45:00,75.9,69.3,29.99,SE,135,1.3,1.3,80,0.00,,---,0.00,VWS V13.01,2013-01-01 09:45:00,
2013-01-01 05:46:00,75.9,69.3,29.98,South,180,0.0,1.3,80,0.00,,---,0.00,VWS V13.01,2013-01-01 09:46:00,
2013-01-01 05:47:00,75.9,69.3,29.98,SE,135,2.4,2.4,80,0.00,,---,0.00,VWS V13.01,2013-01-01 09:47:00,
2013-01-01 05:48:00,75.9,69.3,29.98,ESE,112,0.0,0.0,80,0.00,,---,0.00,VWS V13.01,2013-01-01 09:48:00,
2013-01-01 05:49:00,75.9,69.3,29.99,SSE,158,0.0,0.0,80,0.00,,---,0.00,VWS V13.01,2013-01-01 09:49:00,
2013-01-01 05:50:00,75.9,69.3,29.99,SSE,158,0.0,0.0,80,0.00,,---,0.00,VWS V13.01,2013-01-01 09:50:00,
2013-01-01 05:51:00,75.9,69.3,29.99,SSE,158,0.0,0.0,80,0.00,,---,0.00,VWS V13.01,2013-01-01 09:51:00,
2013-01-01 05:52:00,75.9,69.3,29.99,SSE,158,0.0,0.0,80,0.00,,---,0.00,VWS V13.01,2013-01-01 09:52:00,
2013-01-01 05:53:00,75.9,69.3,29.99,South,180,0.0,0.0,80,0.00,,---,0.00,VWS V13.01,2013-01-01 09:53:00,
2013-01-01 05:55:00,75.7,69.1,29.99,SE,135,0.0,0.0,80,0.00,,---,0.00,VWS V13.01,2013-01-01 09:55:00,
2013-01-01 05:56:00,75.7,69.1,29.99,ESE,112,0.0,0.0,80,0.00,,---,0.00,VWS V13.01,2013-01-01 09:56:00,
2013-01-01 05:57:00,75.7,69.1,29.99,South,180,0.0,0.0,80,0.00,,---,0.00,VWS V13.01,2013-01-01 09:57:00,
2013-01-01 05:58:00,75.9,69.3,29.98,South,180,0.0,2.4,80,0.00,,---,0.00,VWS V13.01,2013-01-01 09:58:00,
2013-01-01 05:59:00,75.7,69.1,29.99,SE,135,0.0,0.0,80,0.00,,---,0.00,VWS V13.01,2013-01-01 09:59:00,
2013-01-01 06:00:00,75.7,69.1,29.99,SSE,158,0.0,0.0,80,0.00,,---,0.00,VWS V13.01,2013-01-01 10:00:00,
2013-01-01 06:01:00,75.7,69.1,29.99,SSE,158,0.0,0.0,80,0.00,,---,0.00,VWS V13.01,2013-01-01 10:01:00,
2013-01-01 06:02:00,75.7,69.1,29.99,SE,135,0.0,0.0,80,0.00,,---,0.00,VWS V13.01,2013-01-01 10:02:00,
2013-01-01 06:03:00,75.9,69.3,29.99,SSE,158,0.0,0.0,80,0.00,,---,0.00,VWS V13.01,2013-01-01 10:03:00,
2013-01-01 06:04:00,75.7,69.1,29.99,South,180,0.0,0.0,80,0.00,,---,0.00,VWS V13.01,2013-01-01 10:04:00,
2013-01-01 06:05:00,75.7,69.1,29.99,SE,135,0.0,0.0,80,0.00,,---,0.00,VWS V13.01,2013-01-01 10:05:00,
2013-01-01 06:06:00,75.7,69.5,29.99,SSE,158,1.1,1.1,81,0.00,,---,0.00,VWS V13.01,2013-01-01 10:06:00,
2013-01-01 06:07:00,75.5,69.3,29.99,SE,135,0.0,0.0,81,0.00,,---,0.00,VWS V13.01,2013-01-01 10:07:00,
2013-01-01 06:08:00,75.7,69.1,29.99,South,180,0.0,0.0,80,0.00,,---,0.00,VWS V13.01,2013-01-01 10:08:00,
2013-01-01 06:09:00,75.5,69.3,29.99,ESE,112,3.8,3.8,81,0.00,,---,0.00,VWS V13.01,2013-01-01 10:09:00,
2013-01-01 06:10:00,75.7,69.5,29.99,SSE,158,2.0,2.0,81,0.00,,---,0.00,VWS V13.01,2013-01-01 10:10:00,
2013-01-01 06:11:00,75.5,69.3,29.99,SE,135,1.7,1.7,81,0.00,,---,0.00,VWS V13.01,2013-01-01 10:11:00,
2013-01-01 06:12:00,75.5,69.3,29.99,SE,135,0.0,0.0,81,0.00,,---,0.00,VWS V13.01,2013-01-01 10:12:00,
2013-01-01 06:13:00,75.7,69.1,29.99,South,180,0.0,0.0,80,0.00,,---,0.00,VWS V13.01,2013-01-01 10:13:00,
2013-01-01 06:14:00,75.5,69.3,29.99,SSE,158,0.0,0.0,81,0.00,,---,0.00,VWS V13.01,2013-01-01 10:14:00,
2013-01-01 06:15:00,75.5,69.3,29.99,SE,135,0.0,0.0,81,0.00,,---,0.00,VWS V13.01,2013-01-01 10:15:00,
2013-01-01 06:16:00,75.5,69.3,29.99,South,180,0.0,0.0,81,0.00,,---,0.00,VWS V13.01,2013-01-01 10:16:00,
2013-01-01 06:17:00,75.5,69.3,29.99,South,180,1.3,1.3,81,0.00,,---,0.00,VWS V13.01,2013-01-01 10:17:00,
2013-01-01 06:18:00,75.5,69.3,29.99,SE,135,1.3,1.3,81,0.00,,---,0.00,VWS V13.01,2013-01-01 10:18:00,
2013-01-01 06:19:00,75.5,69.3,29.99,SE,135,0.0,0.0,81,0.00,,---,0.00,VWS V13.01,2013-01-01 10:19:00,
2013-01-01 06:20:00,75.5,69.3,29.99,ESE,112,2.4,2.4,81,0.00,,---,0.00,VWS V13.01,2013-01-01 10:20:00,
2013-01-01 06:21:00,75.3,69.1,29.99,SE,135,0.0,0.0,81,0.00,,---,0.00,VWS V13.01,2013-01-01 10:21:00,
2013-01-01 06:22:00,75.3,69.1,30.00,ESE,112,0.0,0.0,81,0.00,,---,0.00,VWS V13.01,2013-01-01 10:22:00,
2013-01-01 06:23:00,75.5,69.3,29.99,ESE,112,0.0,0.0,81,0.00,,---,0.00,VWS V13.01,2013-01-01 10:23:00,
2013-01-01 06:24:00,75.3,69.1,29.99,South,180,0.0,0.0,81,0.00,,---,0.00,VWS V13.01,2013-01-01 10:24:00,
2013-01-01 06:25:00,75.3,69.1,29.99,South,180,0.0,0.0,81,0.00,,---,0.00,VWS V13.01,2013-01-01 10:25:00,
2013-01-01 06:26:00,75.3,69.1,29.99,SE,135,2.4,2.4,81,0.00,,---,0.00,VWS V13.01,2013-01-01 10:26:00,
2013-01-01 06:27:00,75.3,69.4,29.99,SE,135,1.1,1.1,82,0.00,,---,0.00,VWS V13.01,2013-01-01 10:27:00,
2013-01-01 06:28:00,75.5,69.3,29.99,SSE,158,0.0,0.0,81,0.00,,---,0.00,VWS V13.01,2013-01-01 10:28:00,
2013-01-01 06:29:00,75.3,69.4,29.99,SE,135,0.0,0.0,82,0.00,,---,0.00,VWS V13.01,2013-01-01 10:29:00,
2013-01-01 06:30:00,75.3,69.4,29.99,South,180,0.0,0.0,82,0.00,,---,0.00,VWS V13.01,2013-01-01 10:30:00,
2013-01-01 06:31:00,75.3,69.4,29.99,SSE,158,1.7,1.7,82,0.00,,---,0.00,VWS V13.01,2013-01-01 10:31:00,
2013-01-01 06:32:00,75.3,69.4,29.99,SE,135,1.5,1.5,82,0.00,,---,0.00,VWS V13.01,2013-01-01 10:32:00,
2013-01-01 06:33:00,75.3,69.1,30.00,SSW,202,1.1,1.1,81,0.00,,---,0.00,VWS V13.01,2013-01-01 10:33:00,
2013-01-01 06:34:00,75.3,69.4,30.00,SSE,158,1.5,1.5,82,0.00,,---,0.00,VWS V13.01,2013-01-01 10:34:00,
2013-01-01 06:35:00,75.3,69.4,30.00,South,180,2.4,2.4,82,0.00,,---,0.00,VWS V13.01,2013-01-01 10:35:00,
2013-01-01 06:36:00,75.3,69.4,30.00,SE,135,2.0,2.0,82,0.00,,---,0.00,VWS V13.01,2013-01-01 10:36:00,
2013-01-01 06:37:00,75.3,69.4,30.00,SE,135,0.0,0.0,82,0.00,,---,0.00,VWS V13.01,2013-01-01 10:37:00,
2013-01-01 06:38:00,75.3,69.4,30.00,SE,135,1.3,1.3,82,0.00,,---,0.00,VWS V13.01,2013-01-01 10:38:00,
2013-01-01 06:39:00,75.3,69.4,30.00,SSW,202,0.0,0.0,82,0.00,,---,0.00,VWS V13.01,2013-01-01 10:39:00,
2013-01-01 06:40:00,75.3,69.4,30.00,SE,135,3.1,3.1,82,0.00,,---,0.00,VWS V13.01,2013-01-01 10:40:00,
2013-01-01 06:41:00,75.3,69.4,30.00,SE,135,0.0,0.0,82,0.00,,---,0.00,VWS V13.01,2013-01-01 10:41:00,
2013-01-01 06:42:00,75.3,69.4,30.00,SE,135,0.0,0.0,82,0.00,,---,0.00,VWS V13.01,2013-01-01 10:42:00,
2013-01-01 06:43:00,75.3,69.4,30.00,SE,135,3.8,3.8,82,0.00,,---,0.00,VWS V13.01,2013-01-01 10:43:00,
2013-01-01 06:44:00,75.3,69.4,30.00,South,180,1.7,1.7,82,0.00,,---,0.00,VWS V13.01,2013-01-01 10:44:00,
2013-01-01 06:45:00,75.3,69.4,30.00,SSE,158,2.2,2.2,82,0.00,,---,0.00,VWS V13.01,2013-01-01 10:45:00,
2013-01-01 06:46:00,75.3,69.4,30.00,South,180,2.0,2.0,82,0.00,,---,0.00,VWS V13.01,2013-01-01 10:46:00,
2013-01-01 06:47:00,75.3,69.4,30.00,SSE,158,0.0,0.0,82,0.00,,---,0.00,VWS V13.01,2013-01-01 10:47:00,
2013-01-01 06:48:00,75.3,69.4,30.00,ESE,112,0.0,0.0,82,0.00,,---,0.00,VWS V13.01,2013-01-01 10:48:00,
2013-01-01 06:49:00,75.3,69.8,30.00,South,180,0.0,0.0,83,0.00,,---,0.00,VWS V13.01,2013-01-01 10:49:00,
2013-01-01 06:50:00,75.3,69.8,30.00,South,180,0.0,0.0,83,0.00,,---,0.00,VWS V13.01,2013-01-01 10:50:00,
2013-01-01 06:51:00,75.3,69.8,30.01,South,180,0.0,0.0,83,0.00,,---,0.00,VWS V13.01,2013-01-01 10:51:00,
2013-01-01 06:52:00,75.3,69.8,30.01,SE,135,0.0,0.0,83,0.00,,---,0.00,VWS V13.01,2013-01-01 10:52:00,
2013-01-01 06:53:00,75.3,69.4,30.00,SSE,158,0.0,0.0,82,0.00,,---,0.00,VWS V13.01,2013-01-01 10:53:00,
2013-01-01 06:54:00,75.2,69.7,30.01,South,180,0.0,0.0,83,0.00,,---,0.00,VWS V13.01,2013-01-01 10:54:00,
2013-01-01 06:55:00,75.2,69.7,30.01,SSW,202,0.0,0.0,83,0.00,,---,0.00,VWS V13.01,2013-01-01 10:55:00,
2013-01-01 06:56:00,75.2,69.7,30.01,South,180,0.0,0.0,83,0.00,,---,0.00,VWS V13.01,2013-01-01 10:56:00,
2013-01-01 06:57:00,75.2,69.7,30.01,East,90,0.0,0.0,83,0.00,,---,0.00,VWS V13.01,2013-01-01 10:57:00,
2013-01-01 06:58:00,75.3,69.8,30.00,SSE,158,0.0,0.0,83,0.00,,---,0.00,VWS V13.01,2013-01-01 10:58:00,
2013-01-01 06:59:00,75.2,69.7,30.01,ENE,68,0.0,0.0,83,0.00,,---,0.00,VWS V13.01,2013-01-01 10:59:00,
2013-01-01 07:00:00,75.0,69.5,30.01,ENE,68,0.0,0.0,83,0.00,,---,0.00,VWS V13.01,2013-01-01 11:00:00,
2013-01-01 07:01:00,75.0,69.5,30.01,South,180,0.0,0.0,83,0.00,,---,0.00,VWS V13.01,2013-01-01 11:01:00,
2013-01-01 07:02:00,75.0,69.5,30.01,SSW,202,0.0,0.0,83,0.00,,---,0.00,VWS V13.01,2013-01-01 11:02:00,
2013-01-01 07:03:00,75.2,69.7,30.00,South,180,0.0,0.0,83,0.00,,---,0.00,VWS V13.01,2013-01-01 11:03:00,
2013-01-01 07:04:00,75.0,69.5,30.01,South,180,0.0,0.0,83,0.00,,---,0.00,VWS V13.01,2013-01-01 11:04:00,
2013-01-01 07:05:00,75.0,69.5,30.01,SSE,158,0.0,0.0,83,0.00,,---,0.00,VWS V13.01,2013-01-01 11:05:00,
2013-01-01 07:06:00,75.0,69.5,30.01,SSE,158,0.0,0.0,83,0.00,,---,0.00,VWS V13.01,2013-01-01 11:06:00,
2013-01-01 07:07:00,75.0,69.5,30.01,SSE,158,0.0,0.0,83,0.00,,---,0.00,VWS V13.01,2013-01-01 11:07:00,
2013-01-01 07:08:00,75.2,69.7,30.01,ENE,68,0.0,0.0,83,0.00,,---,0.00,VWS V13.01,2013-01-01 11:08:00,
2013-01-01 07:09:00,75.0,69.5,30.01,South,180,0.0,0.0,83,0.00,,---,0.00,VWS V13.01,2013-01-01 11:09:00,
2013-01-01 07:10:00,75.0,69.5,30.01,South,180,0.0,0.0,83,0.00,,---,0.00,VWS V13.01,2013-01-01 11:10:00,
2013-01-01 07:11:00,75.0,69.5,30.01,SSE,158,0.0,0.0,83,0.00,,---,0.00,VWS V13.01,2013-01-01 11:11:00,
2013-01-01 07:12:00,75.0,69.5,30.01,South,180,0.0,0.0,83,0.00,,---,0.00,VWS V13.01,2013-01-01 11:12:00,
2013-01-01 07:13:00,75.0,69.5,30.01,South,180,0.0,0.0,83,0.00,,---,0.00,VWS V13.01,2013-01-01 11:13:00,
2013-01-01 07:14:00,75.0,69.5,30.01,South,180,0.0,0.0,83,0.00,,---,0.00,VWS V13.01,2013-01-01 11:14:00,
2013-01-01 07:15:00,75.0,69.5,30.01,South,180,0.0,0.0,83,0.00,,---,0.00,VWS V13.01,2013-01-01 11:15:00,
2013-01-01 07:16:00,75.0,69.5,30.01,SSW,202,0.0,0.0,83,0.00,,---,0.00,VWS V13.01,2013-01-01 11:16:00,
2013-01-01 07:17:00,75.0,69.5,30.01,South,180,0.0,0.0,83,0.00,,---,0.00,VWS V13.01,2013-01-01 11:17:00,
2013-01-01 07:18:00,75.0,69.5,30.01,South,180,0.0,0.0,83,0.00,,---,0.00,VWS V13.01,2013-01-01 11:18:00,
2013-01-01 07:19:00,75.0,69.5,30.02,South,180,0.0,0.0,83,0.00,,---,0.00,VWS V13.01,2013-01-01 11:19:00,
2013-01-01 07:20:00,75.0,69.5,30.01,SSE,158,0.0,0.0,83,0.00,,---,0.00,VWS V13.01,2013-01-01 11:20:00,
2013-01-01 07:21:00,75.0,69.5,30.02,SSW,202,0.0,0.0,83,0.00,,---,0.00,VWS V13.01,2013-01-01 11:21:00,
2013-01-01 07:22:00,75.0,69.5,30.02,SSW,202,0.0,0.0,83,0.00,,---,0.00,VWS V13.01,2013-01-01 11:22:00,
2013-01-01 07:23:00,75.0,69.5,30.01,South,180,0.0,0.0,83,0.00,,---,0.00,VWS V13.01,2013-01-01 11:23:00,
2013-01-01 07:24:00,75.0,69.5,30.02,SSE,158,0.0,0.0,83,0.00,,---,0.00,VWS V13.01,2013-01-01 11:24:00,
2013-01-01 07:25:00,75.0,69.5,30.02,South,180,0.0,0.0,83,0.00,,---,0.00,VWS V13.01,2013-01-01 11:25:00,
2013-01-01 07:26:00,75.0,69.5,30.02,South,180,0.0,0.0,83,0.00,,---,0.00,VWS V13.01,2013-01-01 11:26:00,
2013-01-01 07:27:00,75.0,69.5,30.02,SSE,158,0.0,0.0,83,0.00,,---,0.00,VWS V13.01,2013-01-01 11:27:00,
2013-01-01 07:28:00,75.0,69.5,30.02,South,180,0.0,0.0,83,0.00,,---,0.00,VWS V13.01,2013-01-01 11:28:00,
2013-01-01 07:29:00,75.0,69.5,30.02,SSW,202,0.0,0.0,83,0.00,,---,0.00,VWS V13.01,2013-01-01 11:29:00,
2013-01-01 07:30:00,75.2,69.7,30.02,South,180,1.3,1.3,83,0.00,,---,0.00,VWS V13.01,2013-01-01 11:30:00,
2013-01-01 07:31:00,75.2,69.7,30.02,SSW,202,0.0,0.0,83,0.00,,---,0.00,VWS V13.01,2013-01-01 11:31:00,
2013-01-01 07:32:00,75.3,69.8,30.02,SSE,158,0.0,0.0,83,0.00,,---,0.00,VWS V13.01,2013-01-01 11:32:00,
2013-01-01 07:33:00,75.0,69.5,30.02,SSW,202,0.0,0.0,83,0.00,,---,0.00,VWS V13.01,2013-01-01 11:33:00,
2013-01-01 07:34:00,75.3,69.8,30.02,South,180,0.0,0.0,83,0.00,,---,0.00,VWS V13.01,2013-01-01 11:34:00,
2013-01-01 07:35:00,75.5,70.0,30.02,SSE,158,3.5,3.5,83,0.00,,---,0.00,VWS V13.01,2013-01-01 11:35:00,
2013-01-01 07:36:00,75.5,70.0,30.02,South,180,1.3,1.3,83,0.00,,---,0.00,VWS V13.01,2013-01-01 11:36:00,
2013-01-01 07:37:00,75.5,70.0,30.03,SE,135,0.0,0.0,83,0.00,,---,0.00,VWS V13.01,2013-01-01 11:37:00,
2013-01-01 07:38:00,75.0,69.5,30.02,SSE,158,1.3,1.3,83,0.00,,---,0.00,VWS V13.01,2013-01-01 11:38:00,
2013-01-01 07:39:00,75.5,70.0,30.02,SSW,202,1.3,1.3,83,0.00,,---,0.00,VWS V13.01,2013-01-01 11:39:00,
2013-01-01 07:40:00,75.7,70.2,30.02,SSW,202,1.1,1.1,83,0.00,,---,0.00,VWS V13.01,2013-01-01 11:40:00,
2013-01-01 07:41:00,75.7,70.2,30.03,South,180,2.2,2.2,83,0.00,,---,0.00,VWS V13.01,2013-01-01 11:41:00,
2013-01-01 07:42:00,75.7,70.2,30.03,SSE,158,0.0,0.0,83,0.00,,---,0.00,VWS V13.01,2013-01-01 11:42:00,
2013-01-01 07:43:00,75.3,69.8,30.02,SSE,158,0.0,0.0,83,0.00,,---,0.00,VWS V13.01,2013-01-01 11:43:00,
2013-01-01 07:44:00,75.9,70.4,30.02,SSW,202,1.5,1.5,83,0.00,,---,0.00,VWS V13.01,2013-01-01 11:44:00,
2013-01-01 07:45:00,75.9,70.4,30.02,South,180,0.0,0.0,83,0.00,,---,0.00,VWS V13.01,2013-01-01 11:45:00,
2013-01-01 07:46:00,75.9,70.4,30.02,SSE,158,0.0,0.0,83,0.00,,---,0.00,VWS V13.01,2013-01-01 11:46:00,
2013-01-01 07:47:00,75.9,70.4,30.02,SE,135,0.0,0.0,83,0.00,,---,0.00,VWS V13.01,2013-01-01 11:47:00,
2013-01-01 07:48:00,75.7,70.2,30.02,SW,225,0.0,0.0,83,0.00,,---,0.00,VWS V13.01,2013-01-01 11:48:00,
2013-01-01 07:49:00,76.1,70.6,30.03,SSE,158,0.0,0.0,83,0.00,,---,0.00,VWS V13.01,2013-01-01 11:49:00,
2013-01-01 07:50:00,75.9,70.4,30.03,SE,135,1.3,1.3,83,0.00,,---,0.00,VWS V13.01,2013-01-01 11:50:00,
2013-01-01 07:51:00,76.1,70.6,30.03,ESE,112,1.7,1.7,83,0.00,,---,0.00,VWS V13.01,2013-01-01 11:51:00,
2013-01-01 07:52:00,76.2,70.7,30.03,SE,135,0.0,0.0,83,0.00,,---,0.00,VWS V13.01,2013-01-01 11:52:00,
2013-01-01 07:53:00,75.9,70.4,30.02,SSE,158,0.0,0.0,83,0.00,,---,0.00,VWS V13.01,2013-01-01 11:53:00,
2013-01-01 07:54:00,76.2,70.3,30.03,South,180,0.6,0.6,82,0.00,,---,0.00,VWS V13.01,2013-01-01 11:54:00,
2013-01-01 07:55:00,76.2,70.3,30.03,South,180,0.8,0.8,82,0.00,,---,0.00,VWS V13.01,2013-01-01 11:55:00,
2013-01-01 07:56:00,76.2,70.3,30.03,South,180,0.0,0.0,82,0.00,,---,0.00,VWS V13.01,2013-01-01 11:56:00,
2013-01-01 07:57:00,76.2,70.3,30.03,SSE,158,1.5,1.5,82,0.00,,---,0.00,VWS V13.01,2013-01-01 11:57:00,
2013-01-01 07:58:00,76.1,70.6,30.02,SSE,158,0.0,0.0,83,0.00,,---,0.00,VWS V13.01,2013-01-01 11:58:00,
2013-01-01 07:59:00,76.2,70.3,30.03,SE,135,2.0,2.0,82,0.00,,---,0.00,VWS V13.01,2013-01-01 11:59:00,
2013-01-01 08:00:00,76.4,70.5,30.03,SE,135,1.5,1.5,82,0.00,,---,0.00,VWS V13.01,2013-01-01 12:00:00,
2013-01-01 08:01:00,76.4,70.5,30.03,ESE,112,0.6,0.6,82,0.02,,---,0.02,VWS V13.01,2013-01-01 12:01:00,
2013-01-01 08:02:00,76.2,70.3,30.04,South,180,1.3,1.3,82,0.06,,---,0.06,VWS V13.01,2013-01-01 12:02:00,
2013-01-01 08:03:00,76.2,70.3,30.03,SE,135,2.4,2.4,82,0.00,,---,0.00,VWS V13.01,2013-01-01 12:03:00,
2013-01-01 08:04:00,76.2,70.7,30.04,East,90,0.0,0.0,83,0.08,,---,0.08,VWS V13.01,2013-01-01 12:04:00,
2013-01-01 08:05:00,76.2,70.7,30.04,ESE,112,0.0,0.0,83,0.08,,---,0.08,VWS V13.01,2013-01-01 12:05:00,
2013-01-01 08:06:00,76.1,70.6,30.04,ESE,112,0.0,0.0,83,0.10,,---,0.10,VWS V13.01,2013-01-01 12:06:00,
2013-01-01 08:07:00,76.2,70.3,30.03,SE,135,0.0,0.0,82,0.00,,---,0.00,VWS V13.01,2013-01-01 12:07:00,
2013-01-01 08:08:00,76.1,70.6,30.04,South,180,0.0,0.0,83,0.10,,---,0.10,VWS V13.01,2013-01-01 12:08:00,
2013-01-01 08:09:00,76.1,70.6,30.04,SSW,202,0.0,0.0,83,0.10,,---,0.10,VWS V13.01,2013-01-01 12:09:00,
2013-01-01 08:10:00,75.9,70.4,30.04,South,180,0.0,0.0,83,0.10,,---,0.10,VWS V13.01,2013-01-01 12:10:00,
2013-01-01 08:11:00,75.9,70.4,30.04,SE,135,0.0,0.0,83,0.10,,---,0.10,VWS V13.01,2013-01-01 12:11:00,
2013-01-01 08:12:00,76.4,70.5,30.04,SSE,158,0.6,0.6,82,0.08,,---,0.08,VWS V13.01,2013-01-01 12:12:00,
2013-01-01 08:13:00,76.1,70.9,30.03,SE,135,0.0,0.0,84,0.10,,---,0.10,VWS V13.01,2013-01-01 12:13:00,
2013-01-01 08:14:00,76.1,70.9,30.03,SSE,158,0.0,0.0,84,0.10,,---,0.10,VWS V13.01,2013-01-01 12:14:00,
2013-01-01 08:15:00,76.1,70.9,30.03,SE,135,0.8,0.8,84,0.10,,---,0.10,VWS V13.01,2013-01-01 12:15:00,
2013-01-01 08:16:00,76.1,70.9,30.03,SE,135,1.1,1.1,84,0.10,,---,0.10,VWS V13.01,2013-01-01 12:16:00,
2013-01-01 08:17:00,76.1,70.9,30.04,South,180,0.0,0.0,84,0.10,,---,0.10,VWS V13.01,2013-01-01 12:17:00,
2013-01-01 08:18:00,76.1,70.6,30.04,South,180,0.0,0.0,83,0.10,,---,0.10,VWS V13.01,2013-01-01 12:18:00,
2013-01-01 08:19:00,76.2,71.0,30.04,SE,135,0.0,0.0,84,0.10,,---,0.10,VWS V13.01,2013-01-01 12:19:00,
2013-01-01 08:20:00,76.4,71.2,30.04,SSW,202,0.0,0.0,84,0.10,,---,0.10,VWS V13.01,2013-01-01 12:20:00,
2013-01-01 08:21:00,76.6,71.4,30.04,South,180,0.0,0.0,84,0.10,,---,0.10,VWS V13.01,2013-01-01 12:21:00,
2013-01-01 08:22:00,76.6,71.4,30.04,SE,135,0.0,0.0,84,0.10,,---,0.10,VWS V13.01,2013-01-01 12:22:00,
2013-01-01 08:23:00,76.1,70.9,30.03,SE,135,0.0,0.0,84,0.10,,---,0.10,VWS V13.01,2013-01-01 12:23:00,
2013-01-01 08:24:00,76.8,71.6,30.04,SSE,158,0.0,0.0,84,0.10,,---,0.10,VWS V13.01,2013-01-01 12:24:00,
2013-01-01 08:25:00,76.8,71.6,30.04,SE,135,0.0,0.0,84,0.10,,---,0.10,VWS V13.01,2013-01-01 12:25:00,
2013-01-01 08:26:00,76.8,71.6,30.04,SE,135,0.0,0.0,84,0.10,,---,0.10,VWS V13.01,2013-01-01 12:26:00,
2013-01-01 08:27:00,76.8,71.2,30.04,SSE,158,0.0,0.0,83,0.10,,---,0.10,VWS V13.01,2013-01-01 12:27:00,
2013-01-01 08:28:00,76.2,71.0,30.04,SSE,158,1.7,1.7,84,0.10,,---,0.10,VWS V13.01,2013-01-01 12:28:00,
2013-01-01 08:29:00,77.0,71.4,30.04,East,90,0.0,0.0,83,0.10,,---,0.10,VWS V13.01,2013-01-01 12:29:00,
2013-01-01 08:30:00,77.1,71.5,30.04,SSE,158,1.3,1.3,83,0.10,,---,0.10,VWS V13.01,2013-01-01 12:30:00,
2013-01-01 08:31:00,77.1,71.5,30.04,SSE,158,1.3,1.3,83,0.10,,---,0.10,VWS V13.01,2013-01-01 12:31:00,
2013-01-01 08:32:00,76.8,71.6,30.04,South,180,0.0,0.0,84,0.10,,---,0.10,VWS V13.01,2013-01-01 12:32:00,
2013-01-01 08:33:00,77.3,71.7,30.04,SE,135,2.2,2.2,83,0.10,,---,0.10,VWS V13.01,2013-01-01 12:33:00,
2013-01-01 08:34:00,77.5,71.9,30.04,SE,135,1.3,1.3,83,0.10,,---,0.10,VWS V13.01,2013-01-01 12:34:00,
2013-01-01 08:35:00,77.5,71.9,30.04,SE,135,0.0,0.0,83,0.10,,---,0.10,VWS V13.01,2013-01-01 12:35:00,
2013-01-01 08:36:00,77.5,71.9,30.04,ENE,68,0.0,0.0,83,0.10,,---,0.10,VWS V13.01,2013-01-01 12:36:00,
2013-01-01 08:37:00,76.8,71.2,30.04,SSE,158,0.0,0.0,83,0.10,,---,0.10,VWS V13.01,2013-01-01 12:37:00,
2013-01-01 08:38:00,77.7,72.1,30.04,ESE,112,2.0,2.0,83,0.10,,---,0.10,VWS V13.01,2013-01-01 12:38:00,
2013-01-01 08:39:00,77.7,72.1,30.04,SE,135,0.0,0.0,83,0.10,,---,0.10,VWS V13.01,2013-01-01 12:39:00,
2013-01-01 08:40:00,77.9,72.3,30.05,SSE,158,1.5,1.5,83,0.10,,---,0.10,VWS V13.01,2013-01-01 12:40:00,
2013-01-01 08:41:00,77.9,72.3,30.04,SE,135,0.0,0.0,83,0.10,,---,0.10,VWS V13.01,2013-01-01 12:41:00,
2013-01-01 08:42:00,77.3,71.7,30.04,SE,135,2.2,2.2,83,0.10,,---,0.10,VWS V13.01,2013-01-01 12:42:00,
2013-01-01 08:43:00,78.0,72.1,30.04,SE,135,0.0,0.0,82,0.10,,---,0.10,VWS V13.01,2013-01-01 12:43:00,
2013-01-01 08:44:00,78.0,72.1,30.04,East,90,0.0,0.0,82,0.10,,---,0.10,VWS V13.01,2013-01-01 12:44:00,
2013-01-01 08:45:00,78.0,72.1,30.05,SE,135,0.0,0.0,82,0.10,,---,0.10,VWS V13.01,2013-01-01 12:45:00,
2013-01-01 08:46:00,78.0,72.1,30.05,SE,135,1.3,1.3,82,0.10,,---,0.10,VWS V13.01,2013-01-01 12:46:00,
2013-01-01 08:47:00,77.7,72.1,30.04,ESE,112,2.0,2.0,83,0.10,,---,0.10,VWS V13.01,2013-01-01 12:47:00,
2013-01-01 08:48:00,78.0,72.1,30.05,ESE,112,1.3,1.3,82,0.10,,---,0.10,VWS V13.01,2013-01-01 12:48:00,
2013-01-01 08:49:00,78.0,71.7,30.05,SE,135,1.5,1.5,81,0.10,,---,0.10,VWS V13.01,2013-01-01 12:49:00,
2013-01-01 08:50:00,78.0,71.7,30.05,ESE,112,0.0,0.0,81,0.10,,---,0.10,VWS V13.01,2013-01-01 12:50:00,
2013-01-01 08:51:00,78.0,71.7,30.05,East,90,0.0,0.0,81,0.10,,---,0.10,VWS V13.01,2013-01-01 12:51:00,
2013-01-01 08:52:00,78.0,72.1,30.04,SE,135,0.0,0.0,82,0.10,,---,0.10,VWS V13.01,2013-01-01 12:52:00,
2013-01-01 08:53:00,78.0,72.1,30.05,ESE,112,0.0,0.0,82,0.10,,---,0.10,VWS V13.01,2013-01-01 12:53:00,
2013-01-01 08:54:00,78.0,72.1,30.05,NNE,22,0.0,0.0,82,0.10,,---,0.10,VWS V13.01,2013-01-01 12:54:00,
2013-01-01 08:55:00,78.0,72.1,30.05,SE,135,0.0,0.0,82,0.10,,---,0.10,VWS V13.01,2013-01-01 12:55:00,
2013-01-01 08:56:00,78.0,72.1,30.06,SE,135,4.4,4.4,82,0.10,,---,0.10,VWS V13.01,2013-01-01 12:56:00,
2013-01-01 08:57:00,78.0,72.1,30.05,ESE,112,1.3,1.3,82,0.10,,---,0.10,VWS V13.01,2013-01-01 12:57:00,
2013-01-01 08:58:00,78.0,71.7,30.06,ENE,68,6.0,6.0,81,0.06,,---,0.10,VWS V13.01,2013-01-01 12:58:00,
2013-01-01 08:59:00,78.0,71.7,30.06,SE,135,8.9,8.9,81,0.06,,---,0.10,VWS V13.01,2013-01-01 12:59:00,
2013-01-01 09:00:00,78.0,71.7,30.06,ENE,68,4.6,4.6,81,0.06,,---,0.10,VWS V13.01,2013-01-01 13:00:00,
2013-01-01 09:01:00,78.0,71.7,30.06,ENE,68,5.8,5.8,81,0.06,,---,0.10,VWS V13.01,2013-01-01 13:01:00,
2013-01-01 09:02:00,78.0,72.1,30.05,ESE,112,0.0,0.0,82,0.10,,---,0.10,VWS V13.01,2013-01-01 13:02:00,
2013-01-01 09:03:00,77.9,71.6,30.06,ESE,112,0.0,0.0,81,0.00,,---,0.10,VWS V13.01,2013-01-01 13:03:00,
2013-01-01 09:04:00,77.9,71.6,30.06,SSE,158,0.0,0.0,81,0.00,,---,0.10,VWS V13.01,2013-01-01 13:04:00,
2013-01-01 09:05:00,77.9,71.6,30.06,East,90,0.0,0.0,81,0.00,,---,0.10,VWS V13.01,2013-01-01 13:05:00,
2013-01-01 09:06:00,77.9,71.6,30.06,East,90,0.0,0.0,81,0.00,,---,0.10,VWS V13.01,2013-01-01 13:06:00,
2013-01-01 09:07:00,78.0,71.7,30.06,ENE,68,6.0,6.0,81,0.06,,---,0.10,VWS V13.01,2013-01-01 13:07:00,
2013-01-01 09:08:00,77.7,71.8,30.06,SE,135,0.0,0.0,82,0.00,,---,0.10,VWS V13.01,2013-01-01 13:08:00,
2013-01-01 09:09:00,77.7,71.8,30.06,ESE,112,0.0,0.0,82,0.00,,---,0.10,VWS V13.01,2013-01-01 13:09:00,
2013-01-01 09:10:00,77.9,72.0,30.06,ESE,112,4.4,4.4,82,0.00,,---,0.10,VWS V13.01,2013-01-01 13:10:00,
2013-01-01 09:11:00,77.9,72.0,30.06,SSE,158,3.1,3.1,82,0.00,,---,0.10,VWS V13.01,2013-01-01 13:11:00,
2013-01-01 09:12:00,77.9,71.6,30.06,ESE,112,0.0,0.0,81,0.00,,---,0.10,VWS V13.01,2013-01-01 13:12:00,
2013-01-01 09:13:00,78.0,72.1,30.06,SE,135,0.0,0.0,82,0.00,,---,0.10,VWS V13.01,2013-01-01 13:13:00,
2013-01-01 09:14:00,78.0,72.1,30.06,East,90,4.2,4.2,82,0.00,,---,0.10,VWS V13.01,2013-01-01 13:14:00,
2013-01-01 09:15:00,78.0,72.1,30.06,ENE,68,4.2,4.2,82,0.00,,---,0.10,VWS V13.01,2013-01-01 13:15:00,
2013-01-01 09:16:00,78.4,72.4,30.07,East,90,0.8,0.8,82,0.00,,---,0.10,VWS V13.01,2013-01-01 13:16:00,
2013-01-01 09:17:00,77.7,71.8,30.06,SE,135,0.0,0.0,82,0.00,,---,0.10,VWS V13.01,2013-01-01 13:17:00,
2013-01-01 09:18:00,78.6,72.7,30.06,SSE,158,5.1,5.1,82,0.00,,---,0.10,VWS V13.01,2013-01-01 13:18:00,
2013-01-01 09:19:00,78.6,72.7,30.06,ENE,68,8.2,8.2,82,0.00,,---,0.10,VWS V13.01,2013-01-01 13:19:00,
2013-01-01 09:20:00,78.6,72.7,30.06,ENE,68,4.9,4.9,82,0.00,,---,0.10,VWS V13.01,2013-01-01 13:20:00,
2013-01-01 09:21:00,78.6,72.7,30.06,SE,135,0.0,0.0,82,0.00,,---,0.10,VWS V13.01,2013-01-01 13:21:00,
2013-01-01 09:22:00,78.0,72.1,30.06,SE,135,0.0,0.0,82,0.00,,---,0.10,VWS V13.01,2013-01-01 13:22:00,
2013-01-01 09:23:00,78.6,72.3,30.06,ESE,112,4.2,4.2,81,0.00,,---,0.10,VWS V13.01,2013-01-01 13:23:00,
2013-01-01 09:24:00,78.8,72.5,30.06,South,180,3.1,3.1,81,0.00,,---,0.10,VWS V13.01,2013-01-01 13:24:00,
2013-01-01 09:25:00,78.6,72.3,30.06,South,180,4.2,4.2,81,0.00,,---,0.10,VWS V13.01,2013-01-01 13:25:00,
2013-01-01 09:26:00,78.6,72.3,30.06,South,180,6.9,6.9,81,0.00,,---,0.10,VWS V13.01,2013-01-01 13:26:00,
2013-01-01 09:27:00,78.6,72.7,30.06,SSE,158,5.1,5.1,82,0.00,,---,0.10,VWS V13.01,2013-01-01 13:27:00,
2013-01-01 09:28:00,78.8,72.5,30.06,SE,135,4.9,4.9,81,0.00,,---,0.10,VWS V13.01,2013-01-01 13:28:00,
2013-01-01 09:29:00,78.8,72.5,30.05,South,180,5.1,5.1,81,0.00,,---,0.10,VWS V13.01,2013-01-01 13:29:00,
2013-01-01 09:30:00,78.9,72.6,30.06,SSE,158,8.9,8.9,81,0.00,,---,0.10,VWS V13.01,2013-01-01 13:30:00,
2013-01-01 09:31:00,78.9,72.6,30.06,SSE,158,3.8,3.8,81,0.00,,---,0.10,VWS V13.01,2013-01-01 13:31:00,
2013-01-01 09:32:00,78.6,72.3,30.06,ESE,112,4.2,4.2,81,0.00,,---,0.10,VWS V13.01,2013-01-01 13:32:00,
2013-01-01 09:33:00,78.9,72.6,30.06,SE,135,7.8,7.8,81,0.00,,---,0.10,VWS V13.01,2013-01-01 13:33:00,
2013-01-01 09:34:00,78.9,72.2,30.06,SE,135,2.2,2.2,80,0.00,,---,0.10,VWS V13.01,2013-01-01 13:34:00,
2013-01-01 09:35:00,78.9,72.2,30.06,SE,135,2.4,2.4,80,0.00,,---,0.10,VWS V13.01,2013-01-01 13:35:00,
2013-01-01 09:36:00,78.9,72.2,30.06,SE,135,6.9,6.9,80,0.00,,---,0.10,VWS V13.01,2013-01-01 13:36:00,
2013-01-01 09:37:00,78.8,72.5,30.06,SE,135,4.9,4.9,81,0.00,,---,0.10,VWS V13.01,2013-01-01 13:37:00,
2013-01-01 09:38:00,78.9,72.2,30.06,ESE,112,1.5,1.5,80,0.00,,---,0.10,VWS V13.01,2013-01-01 13:38:00,
2013-01-01 09:39:00,78.9,72.2,30.06,ESE,112,0.0,0.0,80,0.00,,---,0.10,VWS V13.01,2013-01-01 13:39:00,
2013-01-01 09:40:00,78.9,72.2,30.06,SE,135,4.2,4.2,80,0.00,,---,0.10,VWS V13.01,2013-01-01 13:40:00,
2013-01-01 09:41:00,78.9,72.2,30.06,SSW,202,5.3,5.3,80,0.00,,---,0.10,VWS V13.01,2013-01-01 13:41:00,
2013-01-01 09:42:00,78.9,72.6,30.06,SE,135,7.8,7.8,81,0.00,,---,0.10,VWS V13.01,2013-01-01 13:42:00,
2013-01-01 09:43:00,79.1,72.4,30.06,ENE,68,0.0,0.0,80,0.00,,---,0.10,VWS V13.01,2013-01-01 13:43:00,
2013-01-01 09:44:00,79.3,72.6,30.06,East,90,5.1,5.1,80,0.00,,---,0.10,VWS V13.01,2013-01-01 13:44:00,
2013-01-01 09:45:00,79.3,72.6,30.06,East,90,1.5,1.5,80,0.00,,---,0.10,VWS V13.01,2013-01-01 13:45:00,
2013-01-01 09:46:00,79.5,72.8,30.06,SSE,158,2.9,2.9,80,0.00,,---,0.10,VWS V13.01,2013-01-01 13:46:00,
2013-01-01 09:47:00,78.9,72.2,30.06,ESE,112,1.5,1.5,80,0.00,,---,0.10,VWS V13.01,2013-01-01 13:47:00,
2013-01-01 09:48:00,79.5,72.4,30.06,East,90,0.8,0.8,79,0.00,,---,0.10,VWS V13.01,2013-01-01 13:48:00,
2013-01-01 09:49:00,79.5,72.4,30.06,East,90,6.2,6.2,79,0.00,,---,0.10,VWS V13.01,2013-01-01 13:49:00,
2013-01-01 09:50:00,79.5,72.4,30.06,ESE,112,3.5,3.5,79,0.00,,---,0.10,VWS V13.01,2013-01-01 13:50:00,
2013-01-01 09:51:00,79.5,72.4,30.06,East,90,0.0,0.0,79,0.00,,---,0.10,VWS V13.01,2013-01-01 13:51:00,
2013-01-01 09:52:00,79.1,72.4,30.06,ENE,68,0.0,0.0,80,0.00,,---,0.10,VWS V13.01,2013-01-01 13:52:00,
2013-01-01 09:53:00,79.7,72.2,30.06,ESE,112,0.6,0.6,78,0.00,,---,0.10,VWS V13.01,2013-01-01 13:53:00,
2013-01-01 09:54:00,79.7,72.2,30.06,South,180,1.5,1.5,78,0.00,,---,0.10,VWS V13.01,2013-01-01 13:54:00,
2013-01-01 09:55:00,79.8,72.3,30.06,SE,135,0.0,0.0,78,0.00,,---,0.10,VWS V13.01,2013-01-01 13:55:00,
2013-01-01 09:56:00,79.8,72.3,30.06,SSE,158,0.6,0.6,78,0.00,,---,0.10,VWS V13.01,2013-01-01 13:56:00,
2013-01-01 09:57:00,79.5,72.4,30.06,East,90,0.8,0.8,79,0.00,,---,0.10,VWS V13.01,2013-01-01 13:57:00,
2013-01-01 09:58:00,79.8,72.3,30.06,ESE,112,6.9,6.9,78,0.00,,---,0.10,VWS V13.01,2013-01-01 13:58:00,
2013-01-01 09:59:00,80.0,72.2,30.06,SE,135,0.0,0.0,77,0.00,,---,0.10,VWS V13.01,2013-01-01 13:59:00,
2013-01-01 10:00:00,80.0,72.2,30.06,ESE,112,0.0,0.0,77,0.00,,---,0.10,VWS V13.01,2013-01-01 14:00:00,
2013-01-01 10:01:00,80.0,72.2,30.06,East,90,3.8,3.8,77,0.00,,---,0.10,VWS V13.01,2013-01-01 14:01:00,
2013-01-01 10:02:00,79.7,72.2,30.06,ESE,112,0.6,0.6,78,0.00,,---,0.10,VWS V13.01,2013-01-01 14:02:00,
2013-01-01 10:03:00,80.2,72.3,30.07,South,180,1.5,1.5,77,0.00,,---,0.10,VWS V13.01,2013-01-01 14:03:00,
2013-01-01 10:04:00,80.0,72.2,30.07,ESE,112,1.3,1.3,77,0.00,,---,0.10,VWS V13.01,2013-01-01 14:04:00,
2013-01-01 10:05:00,80.2,71.9,30.06,ESE,112,0.0,0.0,76,0.00,,---,0.10,VWS V13.01,2013-01-01 14:05:00,
2013-01-01 10:06:00,80.0,71.8,30.06,SSE,158,1.3,1.3,76,0.00,,---,0.10,VWS V13.01,2013-01-01 14:06:00,
2013-01-01 10:07:00,79.8,72.3,30.06,ESE,112,6.9,6.9,78,0.00,,---,0.10,VWS V13.01,2013-01-01 14:07:00,
2013-01-01 10:08:00,80.2,71.9,30.06,East,90,0.0,0.0,76,0.00,,---,0.10,VWS V13.01,2013-01-01 14:08:00,
2013-01-01 10:09:00,80.2,71.9,30.06,East,90,4.9,4.9,76,0.00,,---,0.10,VWS V13.01,2013-01-01 14:09:00,
2013-01-01 10:10:00,80.2,71.9,30.06,SE,135,2.4,2.4,76,0.00,,---,0.10,VWS V13.01,2013-01-01 14:10:00,
2013-01-01 10:11:00,80.2,71.9,30.07,NE,45,0.0,0.0,76,0.00,,---,0.10,VWS V13.01,2013-01-01 14:11:00,
2013-01-01 10:12:00,80.2,72.3,30.07,South,180,1.5,1.5,77,0.00,,---,0.10,VWS V13.01,2013-01-01 14:12:00,
2013-01-01 10:13:00,80.4,72.2,30.07,ESE,112,0.0,0.0,76,0.00,,---,0.10,VWS V13.01,2013-01-01 14:13:00,
2013-01-01 10:14:00,80.4,72.2,30.06,SE,135,4.6,4.6,76,0.00,,---,0.10,VWS V13.01,2013-01-01 14:14:00,
2013-01-01 10:15:00,80.4,72.2,30.05,NNE,22,0.0,0.0,76,0.00,,---,0.10,VWS V13.01,2013-01-01 14:15:00,
2013-01-01 10:16:00,80.4,72.2,30.06,SE,135,0.6,0.6,76,0.00,,---,0.10,VWS V13.01,2013-01-01 14:16:00,
2013-01-01 10:17:00,80.2,71.9,30.06,East,90,0.0,0.0,76,0.00,,---,0.10,VWS V13.01,2013-01-01 14:17:00,
2013-01-01 10:18:00,80.6,71.9,30.06,SSE,158,2.0,2.0,75,0.00,,---,0.10,VWS V13.01,2013-01-01 14:18:00,
2013-01-01 10:19:00,80.7,72.0,30.06,ESE,112,2.2,2.2,75,0.00,,---,0.10,VWS V13.01,2013-01-01 14:19:00,
2013-01-01 10:20:00,80.7,72.0,30.06,East,90,7.3,7.3,75,0.00,,---,0.10,VWS V13.01,2013-01-01 14:20:00,
2013-01-01 10:21:00,80.7,72.0,30.06,East,90,2.4,2.4,75,0.00,,---,0.10,VWS V13.01,2013-01-01 14:21:00,
2013-01-01 10:22:00,80.4,72.2,30.07,ESE,112,0.0,0.0,76,0.00,,---,0.10,VWS V13.01,2013-01-01 14:22:00,
2013-01-01 10:23:00,80.9,72.2,30.06,ESE,112,5.8,5.8,75,0.00,,---,0.10,VWS V13.01,2013-01-01 14:23:00,
2013-01-01 10:24:00,81.1,72.4,30.06,ESE,112,4.2,4.2,75,0.00,,---,0.10,VWS V13.01,2013-01-01 14:24:00,
2013-01-01 10:25:00,81.1,72.0,30.06,SSE,158,4.4,4.4,74,0.00,,---,0.10,VWS V13.01,2013-01-01 14:25:00,
2013-01-01 10:26:00,81.1,72.0,30.06,ESE,112,2.2,2.2,74,0.00,,---,0.10,VWS V13.01,2013-01-01 14:26:00,
2013-01-01 10:27:00,80.6,71.9,30.06,SSE,158,2.0,2.0,75,0.00,,---,0.10,VWS V13.01,2013-01-01 14:27:00,
2013-01-01 10:28:00,81.1,72.0,30.06,ESE,112,0.0,0.0,74,0.00,,---,0.10,VWS V13.01,2013-01-01 14:28:00,
2013-01-01 10:29:00,81.1,72.0,30.07,East,90,3.1,3.1,74,0.00,,---,0.10,VWS V13.01,2013-01-01 14:29:00,
2013-01-01 10:30:00,81.1,72.0,30.06,ENE,68,2.2,2.2,74,0.00,,---,0.10,VWS V13.01,2013-01-01 14:30:00,
2013-01-01 10:31:00,80.9,71.8,30.06,ESE,112,3.5,3.5,74,0.00,,---,0.10,VWS V13.01,2013-01-01 14:31:00,
2013-01-01 10:32:00,80.9,72.2,30.06,ESE,112,5.8,5.8,75,0.00,,---,0.10,VWS V13.01,2013-01-01 14:32:00,
2013-01-01 10:33:00,80.9,71.8,30.06,NE,45,7.8,7.8,74,0.00,,---,0.10,VWS V13.01,2013-01-01 14:33:00,
2013-01-01 10:34:00,80.9,71.8,30.07,East,90,8.5,8.5,74,0.00,,---,0.10,VWS V13.01,2013-01-01 14:34:00,
2013-01-01 10:35:00,80.7,71.7,30.07,ESE,112,4.2,4.2,74,0.00,,---,0.10,VWS V13.01,2013-01-01 14:35:00,
2013-01-01 10:36:00,80.6,71.9,30.07,SE,135,8.2,8.2,75,0.00,,---,0.10,VWS V13.01,2013-01-01 14:36:00,
2013-01-01 10:37:00,81.1,72.0,30.06,ESE,112,0.0,0.0,74,0.00,,---,0.10,VWS V13.01,2013-01-01 14:37:00,
2013-01-01 10:38:00,80.4,72.2,30.07,ENE,68,10.2,10.2,76,0.00,,---,0.10,VWS V13.01,2013-01-01 14:38:00,
2013-01-01 10:39:00,80.4,72.2,30.07,ENE,68,7.3,7.3,76,0.00,,---,0.10,VWS V13.01,2013-01-01 14:39:00,
2013-01-01 10:40:00,80.2,71.9,30.06,ENE,68,6.2,6.2,76,0.00,,---,0.10,VWS V13.01,2013-01-01 14:40:00,
2013-01-01 10:41:00,80.0,72.2,30.06,NE,45,6.7,6.7,77,0.00,,---,0.10,VWS V13.01,2013-01-01 14:41:00,
2013-01-01 10:42:00,80.9,71.8,30.06,NE,45,7.8,7.8,74,0.00,,---,0.10,VWS V13.01,2013-01-01 14:42:00,
2013-01-01 10:43:00,79.7,71.9,30.06,ENE,68,5.3,5.3,77,0.02,,---,0.12,VWS V13.01,2013-01-01 14:43:00,
2013-01-01 10:44:00,79.5,72.0,30.06,East,90,4.0,4.0,78,0.02,,---,0.12,VWS V13.01,2013-01-01 14:44:00,
2013-01-01 10:45:00,79.5,72.0,30.06,ENE,68,4.4,4.4,78,0.02,,---,0.12,VWS V13.01,2013-01-01 14:45:00,
2013-01-01 10:46:00,79.5,72.4,30.06,East,90,0.0,0.0,79,0.02,,---,0.12,VWS V13.01,2013-01-01 14:46:00,
2013-01-01 10:47:00,80.4,72.2,30.07,ENE,68,10.2,10.2,76,0.00,,---,0.10,VWS V13.01,2013-01-01 14:47:00,
2013-01-01 10:48:00,79.5,72.4,30.06,SE,135,1.1,1.1,79,0.02,,---,0.12,VWS V13.01,2013-01-01 14:48:00,
2013-01-01 10:49:00,79.3,72.2,30.06,ESE,112,0.0,0.0,79,0.02,,---,0.12,VWS V13.01,2013-01-01 14:49:00,
2013-01-01 10:50:00,79.3,72.2,30.06,ESE,112,1.3,1.3,79,0.02,,---,0.12,VWS V13.01,2013-01-01 14:50:00,
2013-01-01 10:51:00,79.3,72.2,30.05,East,90,3.5,3.5,79,0.02,,---,0.12,VWS V13.01,2013-01-01 14:51:00,
2013-01-01 10:52:00,79.7,71.9,30.06,ENE,68,5.3,5.3,77,0.02,,---,0.12,VWS V13.01,2013-01-01 14:52:00,
2013-01-01 10:53:00,79.3,72.6,30.05,East,90,5.8,5.8,80,0.02,,---,0.12,VWS V13.01,2013-01-01 14:53:00,
2013-01-01 10:54:00,79.3,72.6,30.05,South,180,1.7,1.7,80,0.02,,---,0.12,VWS V13.01,2013-01-01 14:54:00,
2013-01-01 10:55:00,79.3,72.6,30.05,East,90,4.0,4.0,80,0.02,,---,0.12,VWS V13.01,2013-01-01 14:55:00,
2013-01-01 10:56:00,79.3,72.6,30.05,ESE,112,2.4,2.4,80,0.02,,---,0.12,VWS V13.01,2013-01-01 14:56:00,
2013-01-01 10:57:00,79.5,72.4,30.06,SE,135,1.1,1.1,79,0.02,,---,0.12,VWS V13.01,2013-01-01 14:57:00,
2013-01-01 10:58:00,79.1,72.4,30.05,East,90,5.1,5.1,80,0.02,,---,0.12,VWS V13.01,2013-01-01 14:58:00,
2013-01-01 10:59:00,79.1,72.4,30.05,SE,135,1.5,1.5,80,0.02,,---,0.12,VWS V13.01,2013-01-01 14:59:00,
2013-01-01 11:00:00,79.1,72.4,30.05,SSE,158,1.3,1.3,80,0.02,,---,0.12,VWS V13.01,2013-01-01 15:00:00,
2013-01-01 11:01:00,79.1,72.4,30.05,SE,135,0.0,0.0,80,0.02,,---,0.12,VWS V13.01,2013-01-01 15:01:00,
2013-01-01 11:02:00,79.3,72.6,30.05,East,90,5.8,5.8,80,0.02,,---,0.12,VWS V13.01,2013-01-01 15:02:00,
2013-01-01 11:03:00,79.3,72.6,30.05,ENE,68,0.0,0.0,80,0.02,,---,0.12,VWS V13.01,2013-01-01 15:03:00,
2013-01-01 11:04:00,79.3,72.6,30.05,ESE,112,2.9,2.9,80,0.02,,---,0.12,VWS V13.01,2013-01-01 15:04:00,
2013-01-01 11:05:00,79.3,72.6,30.05,SSE,158,5.5,5.5,80,0.02,,---,0.12,VWS V13.01,2013-01-01 15:05:00,
2013-01-01 11:06:00,79.3,72.6,30.05,ESE,112,2.0,2.0,80,0.02,,---,0.12,VWS V13.01,2013-01-01 15:06:00,
2013-01-01 11:07:00,79.1,72.4,30.05,East,90,5.1,5.1,80,0.02,,---,0.12,VWS V13.01,2013-01-01 15:07:00,
2013-01-01 11:08:00,79.3,72.2,30.05,East,90,0.0,0.0,79,0.02,,---,0.12,VWS V13.01,2013-01-01 15:08:00,
2013-01-01 11:09:00,79.5,72.4,30.05,ESE,112,4.6,4.6,79,0.02,,---,0.12,VWS V13.01,2013-01-01 15:09:00,
2013-01-01 11:10:00,79.5,72.4,30.05,ESE,112,3.8,3.8,79,0.02,,---,0.12,VWS V13.01,2013-01-01 15:10:00,
2013-01-01 11:11:00,79.5,72.4,30.05,SE,135,0.0,0.0,79,0.02,,---,0.12,VWS V13.01,2013-01-01 15:11:00,
2013-01-01 11:12:00,79.3,72.6,30.05,ENE,68,0.0,0.0,80,0.02,,---,0.12,VWS V13.01,2013-01-01 15:12:00,
2013-01-01 11:13:00,79.5,72.4,30.05,SE,135,1.5,1.5,79,0.02,,---,0.12,VWS V13.01,2013-01-01 15:13:00,
2013-01-01 11:14:00,79.7,72.6,30.05,East,90,1.7,1.7,79,0.02,,---,0.12,VWS V13.01,2013-01-01 15:14:00,
2013-01-01 11:15:00,79.8,72.7,30.05,ESE,112,3.3,3.3,79,0.02,,---,0.12,VWS V13.01,2013-01-01 15:15:00,
2013-01-01 11:16:00,79.8,72.7,30.05,ESE,112,1.3,1.3,79,0.02,,---,0.12,VWS V13.01,2013-01-01 15:16:00,
2013-01-01 11:17:00,79.3,72.2,30.05,East,90,0.0,0.0,79,0.02,,---,0.12,VWS V13.01,2013-01-01 15:17:00,
2013-01-01 11:18:00,80.0,72.5,30.05,East,90,0.6,0.6,78,0.02,,---,0.12,VWS V13.01,2013-01-01 15:18:00,
2013-01-01 11:19:00,80.2,72.7,30.05,ENE,68,8.5,8.5,78,0.02,,---,0.12,VWS V13.01,2013-01-01 15:19:00,
2013-01-01 11:20:00,80.2,72.3,30.05,East,90,2.0,2.0,77,0.02,,---,0.12,VWS V13.01,2013-01-01 15:20:00,
2013-01-01 11:21:00,80.4,72.5,30.04,ESE,112,3.5,3.5,77,0.02,,---,0.12,VWS V13.01,2013-01-01 15:21:00,
2013-01-01 11:22:00,79.5,72.4,30.05,SE,135,1.5,3.5,79,0.02,,---,0.12,VWS V13.01,2013-01-01 15:22:00,
2013-01-01 11:23:00,80.4,72.5,30.04,ENE,68,1.3,1.3,77,0.02,,---,0.12,VWS V13.01,2013-01-01 15:23:00,
2013-01-01 11:24:00,80.4,72.2,30.04,SE,135,0.0,0.0,76,0.02,,---,0.12,VWS V13.01,2013-01-01 15:24:00,
2013-01-01 11:25:00,80.6,72.3,30.04,NE,45,4.4,4.4,76,0.02,,---,0.12,VWS V13.01,2013-01-01 15:25:00,
2013-01-01 11:26:00,80.7,72.4,30.04,East,90,8.2,8.2,76,0.02,,---,0.12,VWS V13.01,2013-01-01 15:26:00,
2013-01-01 11:27:00,80.0,72.5,30.05,East,90,0.6,0.6,78,0.02,,---,0.12,VWS V13.01,2013-01-01 15:27:00,
2013-01-01 11:28:00,80.9,72.2,30.05,ESE,112,0.0,0.0,75,0.02,,---,0.12,VWS V13.01,2013-01-01 15:28:00,
2013-01-01 11:29:00,80.9,72.2,30.05,ENE,68,6.9,6.9,75,0.02,,---,0.12,VWS V13.01,2013-01-01 15:29:00,
2013-01-01 11:30:00,81.1,72.0,30.04,East,90,7.3,7.3,74,0.02,,---,0.12,VWS V13.01,2013-01-01 15:30:00,
2013-01-01 11:31:00,81.1,72.0,30.04,SE,135,10.7,10.7,74,0.02,,---,0.12,VWS V13.01,2013-01-01 15:31:00,
2013-01-01 11:32:00,80.4,72.5,30.04,ENE,68,1.3,1.3,77,0.02,,---,0.12,VWS V13.01,2013-01-01 15:32:00,
2013-01-01 11:33:00,81.3,72.2,30.05,SE,135,8.2,8.2,74,0.02,,---,0.12,VWS V13.01,2013-01-01 15:33:00,
2013-01-01 11:34:00,81.3,72.2,30.04,North,0,0.0,0.0,74,0.02,,---,0.12,VWS V13.01,2013-01-01 15:34:00,
2013-01-01 11:35:00,81.3,72.2,30.04,ENE,68,9.8,9.8,74,0.02,,---,0.12,VWS V13.01,2013-01-01 15:35:00,
2013-01-01 11:36:00,81.3,71.8,30.04,SSE,158,0.0,0.0,73,0.02,,---,0.12,VWS V13.01,2013-01-01 15:36:00,
2013-01-01 11:37:00,80.9,72.2,30.05,ESE,112,0.0,0.0,75,0.02,,---,0.12,VWS V13.01,2013-01-01 15:37:00,
2013-01-01 11:38:00,81.5,72.0,30.04,NE,45,2.2,2.2,73,0.02,,---,0.12,VWS V13.01,2013-01-01 15:38:00,
2013-01-01 11:39:00,81.5,72.0,30.04,ESE,112,3.1,3.1,73,0.02,,---,0.12,VWS V13.01,2013-01-01 15:39:00,
2013-01-01 11:40:00,81.6,72.1,30.04,ENE,68,4.9,4.9,73,0.02,,---,0.12,VWS V13.01,2013-01-01 15:40:00,
2013-01-01 11:41:00,81.6,72.1,30.04,ENE,68,5.3,5.3,73,0.02,,---,0.12,VWS V13.01,2013-01-01 15:41:00,
2013-01-01 11:42:00,81.3,72.2,30.05,SE,135,8.2,8.2,74,0.02,,---,0.12,VWS V13.01,2013-01-01 15:42:00,
2013-01-01 11:43:00,82.0,72.1,30.03,ENE,68,0.6,0.6,72,0.00,,---,0.12,VWS V13.01,2013-01-01 15:43:00,
2013-01-01 11:44:00,81.8,71.9,30.03,SE,135,2.0,2.0,72,0.00,,---,0.12,VWS V13.01,2013-01-01 15:44:00,
2013-01-01 11:45:00,82.0,72.1,30.03,East,90,0.0,0.0,72,0.00,,---,0.12,VWS V13.01,2013-01-01 15:45:00,
2013-01-01 11:46:00,82.0,72.1,30.03,SE,135,3.5,3.5,72,0.00,,---,0.12,VWS V13.01,2013-01-01 15:46:00,
2013-01-01 11:47:00,81.5,72.0,30.04,NE,45,2.2,2.2,73,0.02,,---,0.12,VWS V13.01,2013-01-01 15:47:00,
2013-01-01 11:48:00,82.2,72.3,30.03,ENE,68,3.1,3.1,72,0.00,,---,0.12,VWS V13.01,2013-01-01 15:48:00,
2013-01-01 11:49:00,82.2,72.3,30.03,East,90,8.5,8.5,72,0.00,,---,0.12,VWS V13.01,2013-01-01 15:49:00,
2013-01-01 11:50:00,82.2,71.9,30.03,ENE,68,6.4,6.4,71,0.00,,---,0.12,VWS V13.01,2013-01-01 15:50:00,
2013-01-01 11:51:00,82.2,71.9,30.03,South,180,0.0,0.0,71,0.00,,---,0.12,VWS V13.01,2013-01-01 15:51:00,
2013-01-01 11:52:00,82.0,72.1,30.03,ENE,68,0.6,4.4,72,0.00,,---,0.12,VWS V13.01,2013-01-01 15:52:00,
2013-01-01 11:53:00,82.4,72.1,30.03,SSE,158,5.8,5.8,71,0.00,,---,0.12,VWS V13.01,2013-01-01 15:53:00,
2013-01-01 11:54:00,82.5,72.2,30.03,ESE,112,4.4,4.4,71,0.00,,---,0.12,VWS V13.01,2013-01-01 15:54:00,
2013-01-01 11:55:00,82.5,72.2,30.03,East,90,4.4,4.4,71,0.00,,---,0.12,VWS V13.01,2013-01-01 15:55:00,
2013-01-01 11:56:00,82.5,72.2,30.03,East,90,4.9,4.9,71,0.00,,---,0.12,VWS V13.01,2013-01-01 15:56:00,
2013-01-01 11:57:00,82.2,72.3,30.03,ENE,68,3.1,3.1,72,0.00,,---,0.12,VWS V13.01,2013-01-01 15:57:00,
2013-01-01 11:58:00,82.5,72.2,30.03,ENE,68,0.0,0.0,71,0.00,,---,0.12,VWS V13.01,2013-01-01 15:58:00,
2013-01-01 11:59:00,82.5,72.2,30.03,ESE,112,4.9,4.9,71,0.00,,---,0.12,VWS V13.01,2013-01-01 15:59:00,
2013-01-01 12:00:00,82.5,72.2,30.03,ESE,112,1.1,1.1,71,0.00,,---,0.12,VWS V13.01,2013-01-01 16:00:00,
2013-01-01 12:01:00,82.7,72.3,30.02,East,90,4.2,4.2,71,0.00,,---,0.12,VWS V13.01,2013-01-01 16:01:00,
2013-01-01 12:02:00,82.4,72.1,30.03,SSE,158,5.8,5.8,71,0.00,,---,0.12,VWS V13.01,2013-01-01 16:02:00,
2013-01-01 12:03:00,82.9,72.5,30.03,East,90,6.2,6.2,71,0.00,,---,0.12,VWS V13.01,2013-01-01 16:03:00,
2013-01-01 12:04:00,82.9,72.5,30.03,ENE,68,0.0,0.0,71,0.00,,---,0.12,VWS V13.01,2013-01-01 16:04:00,
2013-01-01 12:05:00,82.9,72.5,30.02,ENE,68,7.3,7.3,71,0.00,,---,0.12,VWS V13.01,2013-01-01 16:05:00,
2013-01-01 12:06:00,82.7,72.3,30.02,ENE,68,8.9,8.9,71,0.00,,---,0.12,VWS V13.01,2013-01-01 16:06:00,
2013-01-01 12:07:00,82.5,72.2,30.03,ENE,68,0.0,5.3,71,0.00,,---,0.12,VWS V13.01,2013-01-01 16:07:00,
2013-01-01 12:08:00,82.5,72.2,30.02,NNE,22,10.2,10.2,71,0.00,,---,0.12,VWS V13.01,2013-01-01 16:08:00,
2013-01-01 12:09:00,82.5,72.2,30.02,ENE,68,13.1,13.1,71,0.00,,---,0.12,VWS V13.01,2013-01-01 16:09:00,
2013-01-01 12:10:00,82.5,72.2,30.02,East,90,5.5,5.5,71,0.00,,---,0.12,VWS V13.01,2013-01-01 16:10:00,
2013-01-01 12:11:00,82.5,72.2,30.02,ENE,68,6.7,6.7,71,0.00,,---,0.12,VWS V13.01,2013-01-01 16:11:00,
2013-01-01 12:12:00,82.9,72.5,30.03,East,90,6.2,7.1,71,0.00,,---,0.12,VWS V13.01,2013-01-01 16:12:00,
2013-01-01 12:13:00,82.4,72.1,30.02,ENE,68,3.5,3.5,71,0.00,,---,0.12,VWS V13.01,2013-01-01 16:13:00,
2013-01-01 12:14:00,82.2,71.9,30.02,ESE,112,4.6,4.6,71,0.00,,---,0.12,VWS V13.01,2013-01-01 16:14:00,
2013-01-01 12:15:00,82.2,71.9,30.02,ENE,68,0.0,0.0,71,0.00,,---,0.12,VWS V13.01,2013-01-01 16:15:00,
2013-01-01 12:16:00,82.2,71.9,30.02,East,90,10.7,10.7,71,0.00,,---,0.12,VWS V13.01,2013-01-01 16:16:00,
2013-01-01 12:17:00,82.5,72.2,30.02,NNE,22,10.2,10.2,71,0.00,,---,0.12,VWS V13.01,2013-01-01 16:17:00,
2013-01-01 12:18:00,82.2,72.3,30.02,NE,45,6.0,6.0,72,0.00,,---,0.12,VWS V13.01,2013-01-01 16:18:00,
2013-01-01 12:19:00,82.2,72.3,30.02,ENE,68,5.8,5.8,72,0.00,,---,0.12,VWS V13.01,2013-01-01 16:19:00,
2013-01-01 12:20:00,82.2,72.3,30.01,ESE,112,6.0,6.0,72,0.00,,---,0.12,VWS V13.01,2013-01-01 16:20:00,
2013-01-01 12:21:00,82.2,72.3,30.01,East,90,4.9,4.9,72,0.00,,---,0.12,VWS V13.01,2013-01-01 16:21:00,
2013-01-01 12:22:00,82.4,72.1,30.02,ENE,68,3.5,3.5,71,0.00,,---,0.12,VWS V13.01,2013-01-01 16:22:00,
2013-01-01 12:23:00,82.2,72.3,30.01,ESE,112,6.0,6.0,72,0.00,,---,0.12,VWS V13.01,2013-01-01 16:23:00,
2013-01-01 12:24:00,82.2,72.3,30.01,ENE,68,0.6,0.6,72,0.00,,---,0.12,VWS V13.01,2013-01-01 16:24:00,
2013-01-01 12:25:00,82.4,72.1,30.01,ENE,68,2.2,2.2,71,0.00,,---,0.12,VWS V13.01,2013-01-01 16:25:00,
2013-01-01 12:26:00,82.5,72.2,30.01,ENE,68,6.9,6.9,71,0.00,,---,0.12,VWS V13.01,2013-01-01 16:26:00,
2013-01-01 12:27:00,82.2,72.3,30.02,NE,45,6.0,10.5,72,0.00,,---,0.12,VWS V13.01,2013-01-01 16:27:00,
2013-01-01 12:28:00,82.5,72.6,30.01,ESE,112,11.1,11.1,72,0.00,,---,0.12,VWS V13.01,2013-01-01 16:28:00,
2013-01-01 12:29:00,82.5,73.0,30.01,East,90,10.7,10.7,73,0.00,,---,0.12,VWS V13.01,2013-01-01 16:29:00,
2013-01-01 12:30:00,82.5,73.4,30.01,East,90,7.3,7.3,74,0.00,,---,0.12,VWS V13.01,2013-01-01 16:30:00,
2013-01-01 12:31:00,82.5,73.4,30.01,East,90,12.7,12.7,74,0.00,,---,0.12,VWS V13.01,2013-01-01 16:31:00,
2013-01-01 12:32:00,82.2,72.3,30.01,ESE,112,6.0,6.0,72,0.00,,---,0.12,VWS V13.01,2013-01-01 16:32:00,
2013-01-01 12:33:00,82.4,73.3,30.01,NE,45,4.4,4.4,74,0.00,,---,0.12,VWS V13.01,2013-01-01 16:33:00,
2013-01-01 12:34:00,82.5,73.4,30.01,ENE,68,10.7,10.7,74,0.00,,---,0.12,VWS V13.01,2013-01-01 16:34:00,
2013-01-01 12:35:00,82.5,73.4,30.00,ENE,68,9.1,9.1,74,0.00,,---,0.12,VWS V13.01,2013-01-01 16:35:00,
2013-01-01 12:36:00,82.5,73.4,30.00,ENE,68,8.2,8.2,74,0.00,,---,0.12,VWS V13.01,2013-01-01 16:36:00,
2013-01-01 12:37:00,82.5,72.6,30.01,ESE,112,11.1,11.1,72,0.00,,---,0.12,VWS V13.01,2013-01-01 16:37:00,
2013-01-01 12:38:00,82.5,73.4,30.00,East,90,6.0,6.0,74,0.00,,---,0.12,VWS V13.01,2013-01-01 16:38:00,
2013-01-01 12:39:00,82.4,73.3,30.00,ESE,112,10.0,10.0,74,0.00,,---,0.12,VWS V13.01,2013-01-01 16:39:00,
2013-01-01 12:40:00,82.5,73.4,30.00,ENE,68,6.0,6.0,74,0.00,,---,0.12,VWS V13.01,2013-01-01 16:40:00,
2013-01-01 12:41:00,82.5,73.0,30.00,East,90,6.2,6.2,73,0.00,,---,0.12,VWS V13.01,2013-01-01 16:41:00,
2013-01-01 12:42:00,82.4,73.3,30.01,NE,45,4.4,4.4,74,0.00,,---,0.12,VWS V13.01,2013-01-01 16:42:00,
2013-01-01 12:43:00,82.5,72.2,30.00,ENE,68,3.8,3.8,71,0.00,,---,0.12,VWS V13.01,2013-01-01 16:43:00,
2013-01-01 12:44:00,82.5,72.2,30.00,NE,45,6.2,6.2,71,0.00,,---,0.12,VWS V13.01,2013-01-01 16:44:00,
2013-01-01 12:45:00,82.5,72.6,30.00,ENE,68,11.4,11.4,72,0.00,,---,0.12,VWS V13.01,2013-01-01 16:45:00,
2013-01-01 12:46:00,82.5,72.6,30.00,East,90,8.9,8.9,72,0.00,,---,0.12,VWS V13.01,2013-01-01 16:46:00,
2013-01-01 12:47:00,82.5,73.4,30.00,East,90,6.0,11.1,74,0.00,,---,0.12,VWS V13.01,2013-01-01 16:47:00,
2013-01-01 12:48:00,82.5,73.0,30.00,ESE,112,4.6,4.6,73,0.00,,---,0.12,VWS V13.01,2013-01-01 16:48:00,
2013-01-01 12:49:00,82.5,73.0,30.00,ENE,68,7.3,7.3,73,0.00,,---,0.12,VWS V13.01,2013-01-01 16:49:00,
2013-01-01 12:50:00,82.5,73.0,30.00,ENE,68,11.1,11.1,73,0.00,,---,0.12,VWS V13.01,2013-01-01 16:50:00,
2013-01-01 12:51:00,82.7,73.2,30.00,East,90,7.3,7.3,73,0.00,,---,0.12,VWS V13.01,2013-01-01 16:51:00,
2013-01-01 12:52:00,82.5,72.2,30.00,ENE,68,3.8,7.8,71,0.00,,---,0.12,VWS V13.01,2013-01-01 16:52:00,
2013-01-01 12:53:00,82.9,72.9,29.99,ENE,68,5.3,5.3,72,0.00,,---,0.12,VWS V13.01,2013-01-01 16:53:00,
2013-01-01 12:54:00,83.1,73.1,29.99,ESE,112,10.9,10.9,72,0.00,,---,0.12,VWS V13.01,2013-01-01 16:54:00,
2013-01-01 12:55:00,83.1,73.1,29.99,SE,135,7.6,7.6,72,0.00,,---,0.12,VWS V13.01,2013-01-01 16:55:00,
2013-01-01 12:56:00,83.3,73.3,29.99,ESE,112,3.8,3.8,72,0.00,,---,0.12,VWS V13.01,2013-01-01 16:56:00,
2013-01-01 12:57:00,82.5,73.0,30.00,ESE,112,4.6,4.6,73,0.00,,---,0.12,VWS V13.01,2013-01-01 16:57:00,
2013-01-01 12:58:00,83.4,73.0,30.00,ESE,112,8.0,8.0,71,0.00,,---,0.12,VWS V13.01,2013-01-01 16:58:00,
2013-01-01 12:59:00,83.4,73.0,29.99,ESE,112,10.2,10.2,71,0.00,,---,0.12,VWS V13.01,2013-01-01 16:59:00,
2013-01-01 13:00:00,83.4,73.0,29.99,ENE,68,4.2,4.2,71,0.00,,---,0.12,VWS V13.01,2013-01-01 17:00:00,
2013-01-01 13:01:00,83.4,73.0,29.99,East,90,6.0,6.0,71,0.00,,---,0.12,VWS V13.01,2013-01-01 17:01:00,
2013-01-01 13:02:00,82.9,72.9,29.99,ENE,68,5.3,8.2,72,0.00,,---,0.12,VWS V13.01,2013-01-01 17:02:00,
2013-01-01 13:03:00,83.4,73.0,29.99,ENE,68,6.4,6.4,71,0.00,,---,0.12,VWS V13.01,2013-01-01 17:03:00,
2013-01-01 13:04:00,83.4,73.0,29.99,NE,45,3.5,3.5,71,0.00,,---,0.12,VWS V13.01,2013-01-01 17:04:00,
2013-01-01 13:05:00,83.4,73.0,29.99,ESE,112,5.3,5.3,71,0.00,,---,0.12,VWS V13.01,2013-01-01 17:05:00,
2013-01-01 13:06:00,83.6,72.8,29.99,East,90,4.2,4.2,70,0.00,,---,0.12,VWS V13.01,2013-01-01 17:06:00,
2013-01-01 13:07:00,83.4,73.0,30.00,ESE,112,8.0,8.0,71,0.00,,---,0.12,VWS V13.01,2013-01-01 17:07:00,
2013-01-01 13:08:00,83.8,73.0,29.99,ESE,112,2.2,2.2,70,0.00,,---,0.12,VWS V13.01,2013-01-01 17:08:00,
2013-01-01 13:09:00,83.8,73.0,29.99,ENE,68,6.2,6.2,70,0.00,,---,0.12,VWS V13.01,2013-01-01 17:09:00,
2013-01-01 13:10:00,83.8,73.0,30.00,ENE,68,13.6,13.6,70,0.00,,---,0.12,VWS V13.01,2013-01-01 17:10:00,
2013-01-01 13:11:00,83.8,73.0,30.00,ENE,68,5.1,5.1,70,0.00,,---,0.12,VWS V13.01,2013-01-01 17:11:00,
2013-01-01 13:12:00,83.4,73.0,29.99,ENE,68,6.4,6.4,71,0.00,,---,0.12,VWS V13.01,2013-01-01 17:12:00,
2013-01-01 13:13:00,83.8,73.0,29.99,East,90,2.0,2.0,70,0.00,,---,0.12,VWS V13.01,2013-01-01 17:13:00,
2013-01-01 13:14:00,83.8,73.0,29.99,ENE,68,5.5,5.5,70,0.00,,---,0.12,VWS V13.01,2013-01-01 17:14:00,
2013-01-01 13:15:00,83.8,73.0,29.99,ENE,68,6.4,6.4,70,0.00,,---,0.12,VWS V13.01,2013-01-01 17:15:00,
2013-01-01 13:16:00,83.8,73.0,29.99,ENE,68,4.6,4.6,70,0.00,,---,0.12,VWS V13.01,2013-01-01 17:16:00,
2013-01-01 13:17:00,83.8,73.0,29.99,ESE,112,2.2,4.4,70,0.00,,---,0.12,VWS V13.01,2013-01-01 17:17:00,
2013-01-01 13:18:00,83.8,73.0,29.99,ENE,68,8.9,8.9,70,0.00,,---,0.12,VWS V13.01,2013-01-01 17:18:00,
2013-01-01 13:19:00,83.8,73.0,29.99,East,90,6.0,6.0,70,0.00,,---,0.12,VWS V13.01,2013-01-01 17:19:00,
2013-01-01 13:20:00,84.0,73.2,29.99,NE,45,4.4,4.4,70,0.00,,---,0.12,VWS V13.01,2013-01-01 17:20:00,
2013-01-01 13:21:00,84.0,73.2,29.99,East,90,8.2,8.2,70,0.00,,---,0.12,VWS V13.01,2013-01-01 17:21:00,
2013-01-01 13:22:00,83.8,73.0,29.99,East,90,2.0,5.1,70,0.00,,---,0.12,VWS V13.01,2013-01-01 17:22:00,
2013-01-01 13:23:00,84.0,73.2,29.99,ENE,68,7.3,7.3,70,0.00,,---,0.12,VWS V13.01,2013-01-01 17:23:00,
2013-01-01 13:24:00,84.0,73.2,29.99,ENE,68,4.2,4.2,70,0.00,,---,0.12,VWS V13.01,2013-01-01 17:24:00,
2013-01-01 13:25:00,84.0,73.2,29.98,NE,45,5.8,5.8,70,0.00,,---,0.12,VWS V13.01,2013-01-01 17:25:00,
2013-01-01 13:26:00,84.2,73.4,29.98,ESE,112,4.9,4.9,70,0.00,,---,0.12,VWS V13.01,2013-01-01 17:26:00,
2013-01-01 13:27:00,83.8,73.0,29.99,ENE,68,8.9,8.9,70,0.00,,---,0.12,VWS V13.01,2013-01-01 17:27:00,
2013-01-01 13:28:00,84.3,73.0,29.98,ESE,112,2.4,2.4,69,0.00,,---,0.12,VWS V13.01,2013-01-01 17:28:00,
2013-01-01 13:29:00,84.3,73.5,29.98,East,90,8.2,8.2,70,0.00,,---,0.12,VWS V13.01,2013-01-01 17:29:00,
2013-01-01 13:30:00,84.3,73.5,29.98,NE,45,7.3,7.3,70,0.00,,---,0.12,VWS V13.01,2013-01-01 17:30:00,
2013-01-01 13:31:00,84.5,73.7,29.98,ENE,68,10.5,10.5,70,0.00,,---,0.12,VWS V13.01,2013-01-01 17:31:00,
2013-01-01 13:32:00,84.0,73.2,29.99,ENE,68,7.3,7.3,70,0.00,,---,0.12,VWS V13.01,2013-01-01 17:32:00,
2013-01-01 13:33:00,84.5,73.7,29.98,East,90,6.2,6.2,70,0.00,,---,0.12,VWS V13.01,2013-01-01 17:33:00,
2013-01-01 13:34:00,84.5,73.2,29.98,ENE,68,9.1,9.1,69,0.00,,---,0.12,VWS V13.01,2013-01-01 17:34:00,
2013-01-01 13:35:00,84.5,73.2,29.98,ENE,68,6.2,6.2,69,0.00,,---,0.12,VWS V13.01,2013-01-01 17:35:00,
2013-01-01 13:36:00,84.7,73.4,29.98,NE,45,0.0,0.0,69,0.00,,---,0.12,VWS V13.01,2013-01-01 17:36:00,
2013-01-01 13:37:00,84.3,73.0,29.98,ESE,112,2.4,5.8,69,0.00,,---,0.12,VWS V13.01,2013-01-01 17:37:00,
2013-01-01 13:38:00,84.7,73.4,29.98,East,90,9.8,9.8,69,0.00,,---,0.12,VWS V13.01,2013-01-01 17:38:00,
2013-01-01 13:39:00,84.7,73.4,29.98,ENE,68,14.9,14.9,69,0.00,,---,0.12,VWS V13.01,2013-01-01 17:39:00,
2013-01-01 13:40:00,84.7,73.4,29.98,East,90,7.8,7.8,69,0.00,,---,0.12,VWS V13.01,2013-01-01 17:40:00,
2013-01-01 13:41:00,84.7,73.4,29.98,NE,45,2.9,2.9,69,0.00,,---,0.12,VWS V13.01,2013-01-01 17:41:00,
2013-01-01 13:42:00,84.5,73.7,29.98,East,90,6.2,6.2,70,0.00,,---,0.12,VWS V13.01,2013-01-01 17:42:00,
2013-01-01 13:43:00,84.7,73.4,29.98,East,90,12.3,12.3,69,0.00,,---,0.12,VWS V13.01,2013-01-01 17:43:00,
2013-01-01 13:44:00,84.7,73.4,29.98,ENE,68,5.3,5.3,69,0.00,,---,0.12,VWS V13.01,2013-01-01 17:44:00,
2013-01-01 13:45:00,84.7,73.4,29.98,ENE,68,7.6,7.6,69,0.00,,---,0.12,VWS V13.01,2013-01-01 17:45:00,
2013-01-01 13:46:00,84.9,73.6,29.98,ENE,68,11.4,11.4,69,0.00,,---,0.12,VWS V13.01,2013-01-01 17:46:00,
2013-01-01 13:47:00,84.7,73.4,29.98,East,90,9.8,9.8,69,0.00,,---,0.12,VWS V13.01,2013-01-01 17:47:00,
2013-01-01 13:48:00,84.9,73.2,29.98,East,90,0.0,0.0,68,0.00,,---,0.12,VWS V13.01,2013-01-01 17:48:00,
2013-01-01 13:49:00,84.9,73.2,29.98,NNE,22,9.8,9.8,68,0.00,,---,0.12,VWS V13.01,2013-01-01 17:49:00,
2013-01-01 13:50:00,84.9,73.2,29.98,ENE,68,5.3,5.3,68,0.00,,---,0.12,VWS V13.01,2013-01-01 17:50:00,
2013-01-01 13:51:00,85.1,73.4,29.98,NE,45,6.9,6.9,68,0.00,,---,0.12,VWS V13.01,2013-01-01 17:51:00,
2013-01-01 13:52:00,84.7,73.4,29.98,East,90,12.3,12.3,69,0.00,,---,0.12,VWS V13.01,2013-01-01 17:52:00,
2013-01-01 13:53:00,85.2,73.4,29.97,ENE,68,8.7,8.7,68,0.00,,---,0.12,VWS V13.01,2013-01-01 17:53:00,
2013-01-01 13:54:00,85.2,73.0,29.98,ESE,112,9.6,9.6,67,0.00,,---,0.12,VWS V13.01,2013-01-01 17:54:00,
2013-01-01 13:55:00,85.2,73.0,29.98,ENE,68,5.8,5.8,67,0.00,,---,0.12,VWS V13.01,2013-01-01 17:55:00,
2013-01-01 13:56:00,85.2,73.0,29.98,East,90,14.5,14.5,67,0.00,,---,0.12,VWS V13.01,2013-01-01 17:56:00,
2013-01-01 13:57:00,84.9,73.2,29.98,East,90,0.0,0.0,68,0.00,,---,0.12,VWS V13.01,2013-01-01 17:57:00,
2013-01-01 13:58:00,85.2,73.0,29.97,ESE,112,5.1,5.1,67,0.00,,---,0.12,VWS V13.01,2013-01-01 17:58:00,
2013-01-01 13:59:00,85.4,73.2,29.97,ENE,68,7.3,7.3,67,0.00,,---,0.12,VWS V13.01,2013-01-01 17:59:00,
2013-01-01 14:00:00,85.2,73.0,29.97,ESE,112,4.4,4.4,67,0.00,,---,0.12,VWS V13.01,2013-01-01 18:00:00,
2013-01-01 14:01:00,85.4,73.2,29.97,NE,45,5.3,5.3,67,0.00,,---,0.12,VWS V13.01,2013-01-01 18:01:00,
2013-01-01 14:02:00,85.2,73.4,29.97,ENE,68,8.7,8.7,68,0.00,,---,0.12,VWS V13.01,2013-01-01 18:02:00,
2013-01-01 14:03:00,85.2,73.0,29.98,East,90,2.2,2.2,67,0.00,,---,0.12,VWS V13.01,2013-01-01 18:03:00,
2013-01-01 14:04:00,85.2,73.0,29.97,East,90,4.0,4.0,67,0.00,,---,0.12,VWS V13.01,2013-01-01 18:04:00,
2013-01-01 14:05:00,85.4,73.2,29.97,East,90,5.8,5.8,67,0.00,,---,0.12,VWS V13.01,2013-01-01 18:05:00,
2013-01-01 14:06:00,85.2,73.0,29.97,ENE,68,7.1,7.1,67,0.00,,---,0.12,VWS V13.01,2013-01-01 18:06:00,
2013-01-01 14:07:00,85.2,73.0,29.97,ESE,112,5.1,9.3,67,0.00,,---,0.12,VWS V13.01,2013-01-01 18:07:00,
2013-01-01 14:08:00,85.4,72.8,29.97,SE,135,5.1,5.1,66,0.00,,---,0.12,VWS V13.01,2013-01-01 18:08:00,
2013-01-01 14:09:00,85.4,72.8,29.97,ENE,68,10.5,10.5,66,0.00,,---,0.12,VWS V13.01,2013-01-01 18:09:00,
2013-01-01 14:10:00,85.4,72.8,29.98,NE,45,4.4,4.4,66,0.00,,---,0.12,VWS V13.01,2013-01-01 18:10:00,
2013-01-01 14:11:00,85.4,72.8,29.97,ESE,112,10.5,10.5,66,0.00,,---,0.12,VWS V13.01,2013-01-01 18:11:00,
2013-01-01 14:12:00,85.2,73.0,29.98,East,90,2.2,9.8,67,0.00,,---,0.12,VWS V13.01,2013-01-01 18:12:00,
2013-01-01 14:13:00,85.6,72.9,29.97,East,90,3.8,3.8,66,0.00,,---,0.12,VWS V13.01,2013-01-01 18:13:00,
2013-01-01 14:14:00,85.4,72.8,29.97,East,90,10.2,10.2,66,0.00,,---,0.12,VWS V13.01,2013-01-01 18:14:00,
2013-01-01 14:15:00,85.2,72.6,29.97,ENE,68,11.4,11.4,66,0.00,,---,0.12,VWS V13.01,2013-01-01 18:15:00,
2013-01-01 14:16:00,85.2,72.6,29.97,ENE,68,4.0,4.0,66,0.00,,---,0.12,VWS V13.01,2013-01-01 18:16:00,
2013-01-01 14:17:00,85.4,72.8,29.97,SE,135,5.1,5.3,66,0.00,,---,0.12,VWS V13.01,2013-01-01 18:17:00,
2013-01-01 14:18:00,85.2,72.6,29.97,ENE,68,4.0,4.0,66,0.00,,---,0.12,VWS V13.01,2013-01-01 18:18:00,
2013-01-01 14:19:00,85.2,72.6,29.97,NE,45,6.0,6.0,66,0.00,,---,0.12,VWS V13.01,2013-01-01 18:19:00,
2013-01-01 14:20:00,85.2,72.6,29.97,SE,135,4.4,4.4,66,0.00,,---,0.12,VWS V13.01,2013-01-01 18:20:00,
2013-01-01 14:21:00,85.2,72.6,29.97,East,90,10.0,10.0,66,0.00,,---,0.12,VWS V13.01,2013-01-01 18:21:00,
2013-01-01 14:22:00,85.6,72.9,29.97,East,90,3.8,4.9,66,0.00,,---,0.12,VWS V13.01,2013-01-01 18:22:00,
2013-01-01 14:23:00,85.4,72.8,29.97,ENE,68,6.4,6.4,66,0.00,,---,0.12,VWS V13.01,2013-01-01 18:23:00,
2013-01-01 14:24:00,85.6,72.9,29.97,ENE,68,9.6,9.6,66,0.00,,---,0.12,VWS V13.01,2013-01-01 18:24:00,
2013-01-01 14:25:00,85.4,72.8,29.97,East,90,5.5,5.5,66,0.00,,---,0.12,VWS V13.01,2013-01-01 18:25:00,
2013-01-01 14:26:00,85.6,72.9,29.97,NE,45,14.9,14.9,66,0.00,,---,0.12,VWS V13.01,2013-01-01 18:26:00,
2013-01-01 14:27:00,85.2,72.6,29.97,ENE,68,4.0,4.0,66,0.00,,---,0.12,VWS V13.01,2013-01-01 18:27:00,
2013-01-01 14:28:00,85.6,72.9,29.97,ENE,68,7.6,7.6,66,0.00,,---,0.12,VWS V13.01,2013-01-01 18:28:00,
2013-01-01 14:29:00,85.8,73.1,29.97,ENE,68,6.2,6.2,66,0.00,,---,0.12,VWS V13.01,2013-01-01 18:29:00,
2013-01-01 14:30:00,85.8,73.1,29.97,NE,45,7.3,7.3,66,0.00,,---,0.12,VWS V13.01,2013-01-01 18:30:00,
2013-01-01 14:31:00,85.8,73.1,29.97,SE,135,6.7,6.7,66,0.00,,---,0.12,VWS V13.01,2013-01-01 18:31:00,
2013-01-01 14:32:00,85.4,72.8,29.97,ENE,68,6.4,7.1,66,0.00,,---,0.12,VWS V13.01,2013-01-01 18:32:00,
2013-01-01 14:33:00,85.8,72.7,29.97,East,90,9.6,9.6,65,0.00,,---,0.12,VWS V13.01,2013-01-01 18:33:00,
2013-01-01 14:34:00,85.8,72.7,29.97,East,90,10.0,10.0,65,0.00,,---,0.12,VWS V13.01,2013-01-01 18:34:00,
2013-01-01 14:35:00,85.8,72.7,29.97,ENE,68,4.6,4.6,65,0.00,,---,0.12,VWS V13.01,2013-01-01 18:35:00,
2013-01-01 14:36:00,85.6,72.5,29.97,ENE,68,6.9,6.9,65,0.00,,---,0.12,VWS V13.01,2013-01-01 18:36:00,
2013-01-01 14:37:00,85.6,72.9,29.97,ENE,68,7.6,9.1,66,0.00,,---,0.12,VWS V13.01,2013-01-01 18:37:00,
2013-01-01 14:38:00,85.6,72.5,29.97,ESE,112,1.7,1.7,65,0.00,,---,0.12,VWS V13.01,2013-01-01 18:38:00,
2013-01-01 14:39:00,85.6,72.5,29.97,East,90,5.5,5.5,65,0.00,,---,0.12,VWS V13.01,2013-01-01 18:39:00,
2013-01-01 14:40:00,85.6,72.5,29.97,ENE,68,4.6,4.6,65,0.00,,---,0.12,VWS V13.01,2013-01-01 18:40:00,
2013-01-01 14:41:00,85.6,72.5,29.97,East,90,9.3,9.3,65,0.00,,---,0.12,VWS V13.01,2013-01-01 18:41:00,
2013-01-01 14:42:00,85.8,72.7,29.97,East,90,9.6,9.6,65,0.00,,---,0.12,VWS V13.01,2013-01-01 18:42:00,
2013-01-01 14:43:00,85.6,72.5,29.96,ENE,68,9.6,9.6,65,0.00,,---,0.12,VWS V13.01,2013-01-01 18:43:00,
2013-01-01 14:44:00,85.6,72.5,29.96,East,90,7.3,7.3,65,0.00,,---,0.12,VWS V13.01,2013-01-01 18:44:00,
2013-01-01 14:45:00,85.6,72.5,29.96,NE,45,6.2,6.2,65,0.00,,---,0.12,VWS V13.01,2013-01-01 18:45:00,
2013-01-01 14:46:00,85.6,72.5,29.96,ENE,68,9.8,9.8,65,0.00,,---,0.12,VWS V13.01,2013-01-01 18:46:00,
2013-01-01 14:47:00,85.6,72.5,29.97,ESE,112,1.7,1.7,65,0.00,,---,0.12,VWS V13.01,2013-01-01 18:47:00,
2013-01-01 14:48:00,85.8,72.7,29.96,ENE,68,8.9,8.9,65,0.00,,---,0.12,VWS V13.01,2013-01-01 18:48:00,
2013-01-01 14:49:00,85.8,72.7,29.97,ESE,112,9.3,9.3,65,0.00,,---,0.12,VWS V13.01,2013-01-01 18:49:00,
2013-01-01 14:50:00,85.8,72.7,29.97,ENE,68,7.8,7.8,65,0.00,,---,0.12,VWS V13.01,2013-01-01 18:50:00,
2013-01-01 14:51:00,85.8,72.7,29.97,East,90,7.1,7.1,65,0.00,,---,0.12,VWS V13.01,2013-01-01 18:51:00,
2013-01-01 14:52:00,85.6,72.5,29.96,ENE,68,9.6,9.6,65,0.00,,---,0.12,VWS V13.01,2013-01-01 18:52:00,
2013-01-01 14:53:00,86.1,73.0,29.97,ENE,68,7.8,7.8,65,0.00,,---,0.12,VWS V13.01,2013-01-01 18:53:00,
2013-01-01 14:54:00,86.0,72.9,29.97,NE,45,10.7,10.7,65,0.00,,---,0.12,VWS V13.01,2013-01-01 18:54:00,
2013-01-01 14:55:00,86.1,73.0,29.97,ENE,68,4.9,4.9,65,0.00,,---,0.12,VWS V13.01,2013-01-01 18:55:00,
2013-01-01 14:56:00,86.1,72.5,29.97,ESE,112,9.6,9.6,64,0.00,,---,0.12,VWS V13.01,2013-01-01 18:56:00,
2013-01-01 14:57:00,85.8,72.7,29.96,ENE,68,8.9,8.9,65,0.00,,---,0.12,VWS V13.01,2013-01-01 18:57:00,
2013-01-01 14:58:00,86.3,72.7,29.97,ENE,68,4.9,4.9,64,0.00,,---,0.12,VWS V13.01,2013-01-01 18:58:00,
2013-01-01 14:59:00,86.3,72.7,29.97,East,90,6.0,6.0,64,0.00,,---,0.12,VWS V13.01,2013-01-01 18:59:00,
2013-01-01 15:00:00,86.5,72.9,29.97,ENE,68,4.9,4.9,64,0.00,,---,0.12,VWS V13.01,2013-01-01 19:00:00,
2013-01-01 15:01:00,86.5,72.9,29.97,ENE,68,5.8,5.8,64,0.00,,---,0.12,VWS V13.01,2013-01-01 19:01:00,
2013-01-01 15:02:00,86.1,73.0,29.97,ENE,68,7.8,7.8,65,0.00,,---,0.12,VWS V13.01,2013-01-01 19:02:00,
2013-01-01 15:03:00,86.7,72.6,29.97,East,90,4.6,4.6,63,0.00,,---,0.12,VWS V13.01,2013-01-01 19:03:00,
2013-01-01 15:04:00,86.7,72.6,29.97,ENE,68,7.1,7.1,63,0.00,,---,0.12,VWS V13.01,2013-01-01 19:04:00,
2013-01-01 15:05:00,86.7,72.6,29.97,ENE,68,8.0,8.0,63,0.00,,---,0.12,VWS V13.01,2013-01-01 19:05:00,
2013-01-01 15:06:00,86.9,72.8,29.97,ESE,112,4.4,4.4,63,0.00,,---,0.12,VWS V13.01,2013-01-01 19:06:00,
2013-01-01 15:07:00,86.3,72.7,29.97,ENE,68,4.9,4.9,64,0.00,,---,0.12,VWS V13.01,2013-01-01 19:07:00,
2013-01-01 15:08:00,86.9,72.3,29.97,ENE,68,10.9,10.9,62,0.00,,---,0.12,VWS V13.01,2013-01-01 19:08:00,
2013-01-01 15:09:00,86.9,72.3,29.97,ENE,68,7.6,7.6,62,0.00,,---,0.12,VWS V13.01,2013-01-01 19:09:00,
2013-01-01 15:10:00,86.7,72.1,29.96,ESE,112,5.3,5.3,62,0.00,,---,0.12,VWS V13.01,2013-01-01 19:10:00,
2013-01-01 15:11:00,86.9,72.3,29.96,ENE,68,4.0,4.0,62,0.00,,---,0.12,VWS V13.01,2013-01-01 19:11:00,
2013-01-01 15:12:00,86.7,72.6,29.97,East,90,4.6,7.1,63,0.00,,---,0.12,VWS V13.01,2013-01-01 19:12:00,
2013-01-01 15:13:00,86.9,72.3,29.97,NE,45,7.8,7.8,62,0.00,,---,0.12,VWS V13.01,2013-01-01 19:13:00,
2013-01-01 15:14:00,86.9,72.3,29.97,ENE,68,6.2,6.2,62,0.00,,---,0.12,VWS V13.01,2013-01-01 19:14:00,
2013-01-01 15:15:00,86.9,72.3,29.97,ENE,68,5.5,5.5,62,0.00,,---,0.12,VWS V13.01,2013-01-01 19:15:00,
2013-01-01 15:16:00,87.0,72.4,29.97,East,90,7.1,7.1,62,0.00,,---,0.12,VWS V13.01,2013-01-01 19:16:00,
2013-01-01 15:17:00,86.9,72.3,29.97,ENE,68,10.9,10.9,62,0.00,,---,0.12,VWS V13.01,2013-01-01 19:17:00,
2013-01-01 15:18:00,87.0,72.4,29.96,NE,45,4.6,4.6,62,0.00,,---,0.12,VWS V13.01,2013-01-01 19:18:00,
2013-01-01 15:19:00,87.0,72.4,29.96,NE,45,8.7,8.7,62,0.00,,---,0.12,VWS V13.01,2013-01-01 19:19:00,
2013-01-01 15:20:00,87.0,72.4,29.96,ESE,112,6.9,6.9,62,0.00,,---,0.12,VWS V13.01,2013-01-01 19:20:00,
2013-01-01 15:21:00,87.2,72.6,29.96,ENE,68,11.4,11.4,62,0.00,,---,0.12,VWS V13.01,2013-01-01 19:21:00,
2013-01-01 15:22:00,86.9,72.3,29.97,NE,45,7.8,7.8,62,0.00,,---,0.12,VWS V13.01,2013-01-01 19:22:00,
2013-01-01 15:23:00,87.4,72.8,29.97,ESE,112,6.2,6.2,62,0.00,,---,0.12,VWS V13.01,2013-01-01 19:23:00,
2013-01-01 15:24:00,87.4,72.8,29.97,ENE,68,7.3,7.3,62,0.00,,---,0.12,VWS V13.01,2013-01-01 19:24:00,
2013-01-01 15:25:00,87.4,72.3,29.96,ENE,68,6.0,6.0,61,0.00,,---,0.12,VWS V13.01,2013-01-01 19:25:00,
2013-01-01 15:26:00,87.4,72.3,29.96,East,90,4.9,4.9,61,0.00,,---,0.12,VWS V13.01,2013-01-01 19:26:00,
2013-01-01 15:27:00,87.0,72.4,29.96,NE,45,4.6,5.5,62,0.00,,---,0.12,VWS V13.01,2013-01-01 19:27:00,
2013-01-01 15:28:00,87.4,72.3,29.96,ENE,68,3.8,3.8,61,0.00,,---,0.12,VWS V13.01,2013-01-01 19:28:00,
2013-01-01 15:29:00,87.4,72.3,29.96,ESE,112,2.9,2.9,61,0.00,,---,0.12,VWS V13.01,2013-01-01 19:29:00,
2013-01-01 15:30:00,87.4,72.8,29.96,SSE,158,0.0,0.0,62,0.00,,---,0.12,VWS V13.01,2013-01-01 19:30:00,
2013-01-01 15:31:00,87.4,72.8,29.96,East,90,5.3,5.3,62,0.00,,---,0.12,VWS V13.01,2013-01-01 19:31:00,
2013-01-01 15:32:00,87.4,72.8,29.97,ESE,112,6.2,9.8,62,0.00,,---,0.12,VWS V13.01,2013-01-01 19:32:00,
2013-01-01 15:33:00,87.4,72.8,29.96,East,90,6.9,6.9,62,0.00,,---,0.12,VWS V13.01,2013-01-01 19:33:00,
2013-01-01 15:34:00,87.4,72.8,29.96,ESE,112,0.8,0.8,62,0.00,,---,0.12,VWS V13.01,2013-01-01 19:34:00,
2013-01-01 15:35:00,87.2,72.6,29.96,East,90,1.7,1.7,62,0.00,,---,0.12,VWS V13.01,2013-01-01 19:35:00,
2013-01-01 15:36:00,87.4,72.8,29.96,ENE,68,5.3,5.3,62,0.00,,---,0.12,VWS V13.01,2013-01-01 19:36:00,
2013-01-01 15:37:00,87.4,72.3,29.96,ENE,68,3.8,3.8,61,0.00,,---,0.12,VWS V13.01,2013-01-01 19:37:00,
2013-01-01 15:38:00,87.4,72.8,29.96,ENE,68,7.6,7.6,62,0.00,,---,0.12,VWS V13.01,2013-01-01 19:38:00,
2013-01-01 15:39:00,87.4,72.8,29.96,ENE,68,4.9,4.9,62,0.00,,---,0.12,VWS V13.01,2013-01-01 19:39:00,
2013-01-01 15:40:00,87.2,72.6,29.96,ESE,112,1.5,1.5,62,0.00,,---,0.12,VWS V13.01,2013-01-01 19:40:00,
2013-01-01 15:41:00,87.2,72.6,29.96,NE,45,14.3,14.3,62,0.00,,---,0.12,VWS V13.01,2013-01-01 19:41:00,
2013-01-01 15:42:00,87.4,72.8,29.96,East,90,6.9,6.9,62,0.00,,---,0.12,VWS V13.01,2013-01-01 19:42:00,
2013-01-01 15:43:00,87.4,72.8,29.96,ENE,68,10.5,10.5,62,0.00,,---,0.12,VWS V13.01,2013-01-01 19:43:00,
2013-01-01 15:44:00,87.2,72.6,29.96,ENE,68,2.0,2.0,62,0.00,,---,0.12,VWS V13.01,2013-01-01 19:44:00,
2013-01-01 15:45:00,87.4,72.8,29.96,ENE,68,8.9,8.9,62,0.00,,---,0.12,VWS V13.01,2013-01-01 19:45:00,
2013-01-01 15:46:00,87.4,72.8,29.96,ENE,68,8.9,8.9,62,0.00,,---,0.12,VWS V13.01,2013-01-01 19:46:00,
2013-01-01 15:47:00,87.4,72.8,29.96,ENE,68,7.6,8.0,62,0.00,,---,0.12,VWS V13.01,2013-01-01 19:47:00,
2013-01-01 15:48:00,87.2,72.6,29.96,ESE,112,6.4,6.4,62,0.00,,---,0.12,VWS V13.01,2013-01-01 19:48:00,
2013-01-01 15:49:00,87.0,72.9,29.96,ENE,68,4.4,4.4,63,0.00,,---,0.12,VWS V13.01,2013-01-01 19:49:00,
2013-01-01 15:50:00,87.0,72.9,29.96,ENE,68,10.5,10.5,63,0.00,,---,0.12,VWS V13.01,2013-01-01 19:50:00,
2013-01-01 15:51:00,87.0,72.9,29.96,ESE,112,7.3,7.3,63,0.00,,---,0.12,VWS V13.01,2013-01-01 19:51:00,
2013-01-01 15:52:00,87.4,72.8,29.96,ENE,68,10.5,10.5,62,0.00,,---,0.12,VWS V13.01,2013-01-01 19:52:00,
2013-01-01 15:53:00,87.0,72.9,29.97,East,90,6.9,6.9,63,0.00,,---,0.12,VWS V13.01,2013-01-01 19:53:00,
2013-01-01 15:54:00,87.0,72.9,29.97,NE,45,7.1,7.1,63,0.00,,---,0.12,VWS V13.01,2013-01-01 19:54:00,
2013-01-01 15:55:00,87.0,72.9,29.96,East,90,10.7,10.7,63,0.00,,---,0.12,VWS V13.01,2013-01-01 19:55:00,
2013-01-01 15:56:00,86.9,72.8,29.96,ENE,68,6.9,6.9,63,0.00,,---,0.12,VWS V13.01,2013-01-01 19:56:00,
2013-01-01 15:57:00,87.2,72.6,29.96,ESE,112,6.4,6.4,62,0.00,,---,0.12,VWS V13.01,2013-01-01 19:57:00,
2013-01-01 15:58:00,86.7,73.1,29.96,ENE,68,10.0,10.0,64,0.00,,---,0.12,VWS V13.01,2013-01-01 19:58:00,
2013-01-01 15:59:00,86.7,73.1,29.96,ENE,68,2.9,2.9,64,0.00,,---,0.12,VWS V13.01,2013-01-01 19:59:00,
2013-01-01 16:00:00,86.7,73.1,29.96,ESE,112,4.4,4.4,64,0.00,,---,0.12,VWS V13.01,2013-01-01 20:00:00,
2013-01-01 16:01:00,86.7,73.1,29.96,NNE,22,7.3,7.3,64,0.00,,---,0.12,VWS V13.01,2013-01-01 20:01:00,
2013-01-01 16:02:00,87.0,72.9,29.97,East,90,6.9,7.3,63,0.00,,---,0.12,VWS V13.01,2013-01-01 20:02:00,
2013-01-01 16:03:00,86.7,73.1,29.96,ESE,112,5.5,5.5,64,0.00,,---,0.12,VWS V13.01,2013-01-01 20:03:00,
2013-01-01 16:04:00,86.5,72.9,29.96,ENE,68,1.1,1.1,64,0.00,,---,0.12,VWS V13.01,2013-01-01 20:04:00,
2013-01-01 16:05:00,86.7,73.1,29.96,NE,45,10.0,10.0,64,0.00,,---,0.12,VWS V13.01,2013-01-01 20:05:00,
2013-01-01 16:06:00,86.7,73.1,29.96,NE,45,1.7,1.7,64,0.00,,---,0.12,VWS V13.01,2013-01-01 20:06:00,
2013-01-01 16:07:00,86.7,73.1,29.96,ENE,68,10.0,10.0,64,0.00,,---,0.12,VWS V13.01,2013-01-01 20:07:00,
2013-01-01 16:08:00,86.5,72.9,29.96,SE,135,9.1,9.1,64,0.00,,---,0.12,VWS V13.01,2013-01-01 20:08:00,
2013-01-01 16:09:00,86.5,72.9,29.96,ENE,68,3.3,3.3,64,0.00,,---,0.12,VWS V13.01,2013-01-01 20:09:00,
2013-01-01 16:10:00,86.5,72.9,29.96,East,90,4.6,4.6,64,0.00,,---,0.12,VWS V13.01,2013-01-01 20:10:00,
2013-01-01 16:11:00,86.3,72.7,29.96,ENE,68,1.1,1.1,64,0.00,,---,0.12,VWS V13.01,2013-01-01 20:11:00,
2013-01-01 16:12:00,86.7,73.1,29.96,ESE,112,5.5,5.5,64,0.00,,---,0.12,VWS V13.01,2013-01-01 20:12:00,
2013-01-01 16:13:00,86.3,73.2,29.96,ENE,68,6.2,6.2,65,0.00,,---,0.12,VWS V13.01,2013-01-01 20:13:00,
2013-01-01 16:14:00,86.3,72.7,29.96,ENE,68,4.6,4.6,64,0.00,,---,0.12,VWS V13.01,2013-01-01 20:14:00,
2013-01-01 16:15:00,86.3,73.2,29.96,East,90,5.3,5.3,65,0.00,,---,0.12,VWS V13.01,2013-01-01 20:15:00,
2013-01-01 16:16:00,86.3,73.2,29.96,ENE,68,2.6,2.6,65,0.00,,---,0.12,VWS V13.01,2013-01-01 20:16:00,
2013-01-01 16:17:00,86.5,72.9,29.96,SE,135,9.1,9.1,64,0.00,,---,0.12,VWS V13.01,2013-01-01 20:17:00,
2013-01-01 16:18:00,86.1,73.0,29.97,East,90,4.6,4.6,65,0.00,,---,0.12,VWS V13.01,2013-01-01 20:18:00,
2013-01-01 16:19:00,86.1,73.4,29.97,ENE,68,11.6,11.6,66,0.00,,---,0.12,VWS V13.01,2013-01-01 20:19:00,
2013-01-01 16:20:00,86.0,73.3,29.96,East,90,10.2,10.2,66,0.00,,---,0.12,VWS V13.01,2013-01-01 20:20:00,
2013-01-01 16:21:00,85.8,73.1,29.96,ENE,68,9.6,9.6,66,0.00,,---,0.12,VWS V13.01,2013-01-01 20:21:00,
2013-01-01 16:22:00,86.3,73.2,29.96,ENE,68,6.2,6.2,65,0.00,,---,0.12,VWS V13.01,2013-01-01 20:22:00,
2013-01-01 16:23:00,85.8,73.1,29.97,ENE,68,8.5,8.5,66,0.00,,---,0.12,VWS V13.01,2013-01-01 20:23:00,
2013-01-01 16:24:00,85.6,72.9,29.97,ENE,68,6.2,6.2,66,0.00,,---,0.12,VWS V13.01,2013-01-01 20:24:00,
2013-01-01 16:25:00,85.4,72.8,29.97,ENE,68,6.7,6.7,66,0.00,,---,0.12,VWS V13.01,2013-01-01 20:25:00,
2013-01-01 16:26:00,85.2,72.6,29.97,East,90,8.7,8.7,66,0.00,,---,0.12,VWS V13.01,2013-01-01 20:26:00,
2013-01-01 16:27:00,86.1,73.0,29.97,East,90,4.6,4.6,65,0.00,,---,0.12,VWS V13.01,2013-01-01 20:27:00,
2013-01-01 16:28:00,85.1,72.5,29.96,ENE,68,4.6,4.6,66,0.00,,---,0.12,VWS V13.01,2013-01-01 20:28:00,
2013-01-01 16:29:00,84.9,72.3,29.96,North,0,0.0,0.0,66,0.00,,---,0.12,VWS V13.01,2013-01-01 20:29:00,
2013-01-01 16:30:00,84.9,72.3,29.97,ENE,68,7.3,7.3,66,0.00,,---,0.12,VWS V13.01,2013-01-01 20:30:00,
2013-01-01 16:31:00,84.7,72.1,29.96,ESE,112,7.3,7.3,66,0.00,,---,0.12,VWS V13.01,2013-01-01 20:31:00,
2013-01-01 16:32:00,85.8,73.1,29.97,ENE,68,8.5,8.5,66,0.00,,---,0.12,VWS V13.01,2013-01-01 20:32:00,
2013-01-01 16:33:00,84.5,71.9,29.97,ENE,68,8.9,8.9,66,0.00,,---,0.12,VWS V13.01,2013-01-01 20:33:00,
2013-01-01 16:34:00,84.3,71.7,29.97,NE,45,9.3,9.3,66,0.00,,---,0.12,VWS V13.01,2013-01-01 20:34:00,
2013-01-01 16:35:00,84.3,71.7,29.96,NE,45,0.0,0.0,66,0.00,,---,0.12,VWS V13.01,2013-01-01 20:35:00,
2013-01-01 16:36:00,84.2,71.6,29.96,ESE,112,3.3,3.3,66,0.00,,---,0.12,VWS V13.01,2013-01-01 20:36:00,
2013-01-01 16:37:00,85.1,72.5,29.96,ENE,68,4.6,10.5,66,0.00,,---,0.12,VWS V13.01,2013-01-01 20:37:00,
2013-01-01 16:38:00,84.0,71.9,29.96,ENE,68,4.2,4.2,67,0.00,,---,0.12,VWS V13.01,2013-01-01 20:38:00,
2013-01-01 16:39:00,84.0,71.9,29.96,ENE,68,0.0,0.0,67,0.00,,---,0.12,VWS V13.01,2013-01-01 20:39:00,
2013-01-01 16:40:00,84.0,71.9,29.96,NNE,22,0.0,0.0,67,0.00,,---,0.12,VWS V13.01,2013-01-01 20:40:00,
2013-01-01 16:41:00,84.0,71.9,29.97,East,90,0.0,0.0,67,0.00,,---,0.12,VWS V13.01,2013-01-01 20:41:00,
2013-01-01 16:42:00,84.5,71.9,29.97,ENE,68,8.9,8.9,66,0.00,,---,0.12,VWS V13.01,2013-01-01 20:42:00,
2013-01-01 16:43:00,83.8,71.7,29.97,East,90,4.0,4.0,67,0.00,,---,0.12,VWS V13.01,2013-01-01 20:43:00,
2013-01-01 16:44:00,83.8,71.7,29.97,SE,135,3.8,3.8,67,0.00,,---,0.12,VWS V13.01,2013-01-01 20:44:00,
2013-01-01 16:45:00,83.8,71.7,29.96,SSE,158,0.0,0.0,67,0.00,,---,0.12,VWS V13.01,2013-01-01 20:45:00,
2013-01-01 16:46:00,83.8,71.7,29.96,ENE,68,4.2,4.2,67,0.00,,---,0.12,VWS V13.01,2013-01-01 20:46:00,
2013-01-01 16:47:00,84.0,71.9,29.96,ENE,68,4.2,4.2,67,0.00,,---,0.12,VWS V13.01,2013-01-01 20:47:00,
2013-01-01 16:48:00,83.6,71.5,29.97,ESE,112,0.0,0.0,67,0.00,,---,0.12,VWS V13.01,2013-01-01 20:48:00,
2013-01-01 16:49:00,83.6,71.5,29.97,SE,135,0.0,0.0,67,0.00,,---,0.12,VWS V13.01,2013-01-01 20:49:00,
2013-01-01 16:50:00,83.6,71.5,29.96,East,90,2.0,2.0,67,0.00,,---,0.12,VWS V13.01,2013-01-01 20:50:00,
2013-01-01 16:51:00,83.6,71.5,29.96,NE,45,6.7,6.7,67,0.00,,---,0.12,VWS V13.01,2013-01-01 20:51:00,
2013-01-01 16:52:00,83.8,71.7,29.97,East,90,4.0,4.0,67,0.00,,---,0.12,VWS V13.01,2013-01-01 20:52:00,
2013-01-01 16:53:00,83.6,71.5,29.96,NE,45,0.0,0.0,67,0.00,,---,0.12,VWS V13.01,2013-01-01 20:53:00,
2013-01-01 16:54:00,83.8,71.7,29.97,ENE,68,7.1,7.1,67,0.00,,---,0.12,VWS V13.01,2013-01-01 20:54:00,
2013-01-01 16:55:00,83.8,71.7,29.97,ESE,112,4.6,4.6,67,0.00,,---,0.12,VWS V13.01,2013-01-01 20:55:00,
2013-01-01 16:56:00,83.8,71.2,29.97,ESE,112,5.1,5.1,66,0.00,,---,0.12,VWS V13.01,2013-01-01 20:56:00,
2013-01-01 16:57:00,83.6,71.5,29.97,ESE,112,0.0,4.0,67,0.00,,---,0.12,VWS V13.01,2013-01-01 20:57:00,
2013-01-01 16:58:00,83.6,71.1,29.97,ESE,112,7.8,7.8,66,0.00,,---,0.12,VWS V13.01,2013-01-01 20:58:00,
2013-01-01 16:59:00,83.8,71.2,29.97,ESE,112,0.0,0.0,66,0.00,,---,0.12,VWS V13.01,2013-01-01 20:59:00,
2013-01-01 17:00:00,83.8,71.2,29.97,East,90,0.0,0.0,66,0.00,,---,0.12,VWS V13.01,2013-01-01 21:00:00,
2013-01-01 17:01:00,83.8,71.2,29.97,SE,135,1.5,1.5,66,0.00,,---,0.12,VWS V13.01,2013-01-01 21:01:00,
2013-01-01 17:02:00,83.6,71.5,29.96,NE,45,0.0,1.3,67,0.00,,---,0.12,VWS V13.01,2013-01-01 21:02:00,
2013-01-01 17:03:00,83.6,71.1,29.97,SSE,158,0.0,0.0,66,0.00,,---,0.12,VWS V13.01,2013-01-01 21:03:00,
2013-01-01 17:04:00,83.6,71.1,29.97,ENE,68,1.7,1.7,66,0.00,,---,0.12,VWS V13.01,2013-01-01 21:04:00,
2013-01-01 17:05:00,83.6,71.1,29.97,East,90,1.5,1.5,66,0.00,,---,0.12,VWS V13.01,2013-01-01 21:05:00,
2013-01-01 17:06:00,83.6,71.1,29.98,SE,135,0.0,0.0,66,0.00,,---,0.12,VWS V13.01,2013-01-01 21:06:00,
2013-01-01 17:07:00,83.6,71.1,29.97,ESE,112,7.8,7.8,66,0.00,,---,0.12,VWS V13.01,2013-01-01 21:07:00,
2013-01-01 17:08:00,83.4,70.9,29.97,ENE,68,4.2,4.2,66,0.00,,---,0.12,VWS V13.01,2013-01-01 21:08:00,
2013-01-01 17:09:00,83.4,70.9,29.97,ENE,68,0.8,0.8,66,0.00,,---,0.12,VWS V13.01,2013-01-01 21:09:00,
2013-01-01 17:10:00,83.4,70.9,29.97,ENE,68,5.8,5.8,66,0.00,,---,0.12,VWS V13.01,2013-01-01 21:10:00,
2013-01-01 17:11:00,83.4,70.9,29.97,ESE,112,1.7,1.7,66,0.00,,---,0.12,VWS V13.01,2013-01-01 21:11:00,
2013-01-01 17:12:00,83.6,71.1,29.97,SSE,158,0.0,6.0,66,0.00,,---,0.12,VWS V13.01,2013-01-01 21:12:00,
2013-01-01 17:13:00,83.3,70.8,29.97,ESE,112,9.6,9.6,66,0.00,,---,0.12,VWS V13.01,2013-01-01 21:13:00,
2013-01-01 17:14:00,83.3,71.2,29.97,SE,135,1.1,1.1,67,0.00,,---,0.12,VWS V13.01,2013-01-01 21:14:00,
2013-01-01 17:15:00,83.3,71.2,29.97,ENE,68,1.1,1.1,67,0.00,,---,0.12,VWS V13.01,2013-01-01 21:15:00,
2013-01-01 17:16:00,83.1,71.0,29.97,East,90,1.3,1.3,67,0.00,,---,0.12,VWS V13.01,2013-01-01 21:16:00,
2013-01-01 17:17:00,83.4,70.9,29.97,ENE,68,4.2,4.2,66,0.00,,---,0.12,VWS V13.01,2013-01-01 21:17:00,
2013-01-01 17:18:00,83.1,71.0,29.97,East,90,2.4,2.4,67,0.00,,---,0.12,VWS V13.01,2013-01-01 21:18:00,
2013-01-01 17:19:00,83.1,71.0,29.97,East,90,3.1,3.1,67,0.00,,---,0.12,VWS V13.01,2013-01-01 21:19:00,
2013-01-01 17:20:00,83.1,71.0,29.97,East,90,2.4,2.4,67,0.00,,---,0.12,VWS V13.01,2013-01-01 21:20:00,
2013-01-01 17:21:00,83.1,71.0,29.97,ESE,112,3.5,3.5,67,0.00,,---,0.12,VWS V13.01,2013-01-01 21:21:00,
2013-01-01 17:22:00,83.3,70.8,29.97,ESE,112,9.6,9.6,66,0.00,,---,0.12,VWS V13.01,2013-01-01 21:22:00,
2013-01-01 17:23:00,82.9,70.8,29.97,ENE,68,4.4,4.4,67,0.00,,---,0.12,VWS V13.01,2013-01-01 21:23:00,
2013-01-01 17:24:00,82.9,70.8,29.97,East,90,1.3,1.3,67,0.00,,---,0.12,VWS V13.01,2013-01-01 21:24:00,
2013-01-01 17:25:00,82.9,70.4,29.97,SE,135,5.1,5.1,66,0.00,,---,0.12,VWS V13.01,2013-01-01 21:25:00,
2013-01-01 17:26:00,82.7,70.2,29.97,East,90,2.9,2.9,66,0.00,,---,0.12,VWS V13.01,2013-01-01 21:26:00,
2013-01-01 17:27:00,83.1,71.0,29.97,East,90,2.4,2.4,67,0.00,,---,0.12,VWS V13.01,2013-01-01 21:27:00,
2013-01-01 17:28:00,82.7,70.2,29.97,ENE,68,3.8,3.8,66,0.00,,---,0.12,VWS V13.01,2013-01-01 21:28:00,
2013-01-01 17:29:00,82.5,70.0,29.97,NE,45,0.0,0.0,66,0.00,,---,0.12,VWS V13.01,2013-01-01 21:29:00,
2013-01-01 17:30:00,82.7,70.2,29.98,ESE,112,3.8,3.8,66,0.00,,---,0.12,VWS V13.01,2013-01-01 21:30:00,
2013-01-01 17:31:00,82.5,70.0,29.98,East,90,3.8,3.8,66,0.00,,---,0.12,VWS V13.01,2013-01-01 21:31:00,
2013-01-01 17:32:00,82.9,70.8,29.97,ENE,68,4.4,4.4,67,0.00,,---,0.12,VWS V13.01,2013-01-01 21:32:00,
2013-01-01 17:33:00,82.5,70.0,29.98,ESE,112,0.0,0.0,66,0.00,,---,0.12,VWS V13.01,2013-01-01 21:33:00,
2013-01-01 17:34:00,82.5,70.0,29.97,SSE,158,3.1,3.1,66,0.00,,---,0.12,VWS V13.01,2013-01-01 21:34:00,
2013-01-01 17:35:00,82.5,70.0,29.97,NE,45,7.6,7.6,66,0.00,,---,0.12,VWS V13.01,2013-01-01 21:35:00,
2013-01-01 17:36:00,82.4,69.9,29.97,NE,45,4.4,4.4,66,0.00,,---,0.12,VWS V13.01,2013-01-01 21:36:00,
2013-01-01 17:37:00,82.7,70.2,29.97,ENE,68,3.8,3.8,66,0.00,,---,0.12,VWS V13.01,2013-01-01 21:37:00,
2013-01-01 17:38:00,82.2,69.7,29.97,ENE,68,4.6,4.6,66,0.00,,---,0.12,VWS V13.01,2013-01-01 21:38:00,
2013-01-01 17:39:00,82.2,69.7,29.97,ESE,112,0.0,0.0,66,0.00,,---,0.12,VWS V13.01,2013-01-01 21:39:00,
2013-01-01 17:40:00,82.2,69.7,29.97,ESE,112,4.4,4.4,66,0.00,,---,0.12,VWS V13.01,2013-01-01 21:40:00,
2013-01-01 17:41:00,82.2,69.7,29.97,SSE,158,1.3,1.3,66,0.00,,---,0.12,VWS V13.01,2013-01-01 21:41:00,
2013-01-01 17:42:00,82.5,70.0,29.98,ESE,112,0.0,0.0,66,0.00,,---,0.12,VWS V13.01,2013-01-01 21:42:00,
2013-01-01 17:43:00,82.2,70.2,29.98,ENE,68,4.9,4.9,67,0.00,,---,0.12,VWS V13.01,2013-01-01 21:43:00,
2013-01-01 17:44:00,82.0,70.0,29.98,ESE,112,2.4,2.4,67,0.00,,---,0.12,VWS V13.01,2013-01-01 21:44:00,
2013-01-01 17:45:00,82.0,70.0,29.98,ENE,68,11.6,11.6,67,0.00,,---,0.12,VWS V13.01,2013-01-01 21:45:00,
2013-01-01 17:46:00,82.0,70.0,29.98,ENE,68,9.3,9.3,67,0.00,,---,0.12,VWS V13.01,2013-01-01 21:46:00,
2013-01-01 17:47:00,82.2,69.7,29.97,ENE,68,4.6,6.0,66,0.00,,---,0.12,VWS V13.01,2013-01-01 21:47:00,
2013-01-01 17:48:00,82.0,70.0,29.98,South,180,7.8,7.8,67,0.00,,---,0.12,VWS V13.01,2013-01-01 21:48:00,
2013-01-01 17:49:00,82.0,70.0,29.98,East,90,5.5,5.5,67,0.00,,---,0.12,VWS V13.01,2013-01-01 21:49:00,
2013-01-01 17:50:00,82.0,70.0,29.98,ESE,112,5.1,5.1,67,0.00,,---,0.12,VWS V13.01,2013-01-01 21:50:00,
2013-01-01 17:51:00,81.8,69.8,29.97,ENE,68,0.0,0.0,67,0.00,,---,0.12,VWS V13.01,2013-01-01 21:51:00,
2013-01-01 17:52:00,82.2,70.2,29.98,ENE,68,4.9,4.9,67,0.00,,---,0.12,VWS V13.01,2013-01-01 21:52:00,
2013-01-01 17:53:00,81.6,69.6,29.98,ENE,68,2.6,2.6,67,0.00,,---,0.12,VWS V13.01,2013-01-01 21:53:00,
2013-01-01 17:54:00,81.6,69.6,29.98,ESE,112,2.2,2.2,67,0.00,,---,0.12,VWS V13.01,2013-01-01 21:54:00,
2013-01-01 17:55:00,81.6,69.6,29.98,ESE,112,0.0,0.0,67,0.00,,---,0.12,VWS V13.01,2013-01-01 21:55:00,
2013-01-01 17:56:00,81.6,69.6,29.98,ESE,112,1.7,1.7,67,0.00,,---,0.12,VWS V13.01,2013-01-01 21:56:00,
2013-01-01 17:57:00,82.0,70.0,29.98,South,180,7.8,7.8,67,0.00,,---,0.12,VWS V13.01,2013-01-01 21:57:00,
2013-01-01 17:58:00,81.6,69.6,29.97,East,90,0.0,0.0,67,0.00,,---,0.12,VWS V13.01,2013-01-01 21:58:00,
2013-01-01 17:59:00,81.6,69.6,29.97,East,90,4.0,4.0,67,0.00,,---,0.12,VWS V13.01,2013-01-01 21:59:00,
2013-01-01 18:00:00,81.5,69.5,29.97,SE,135,1.5,1.5,67,0.00,,---,0.12,VWS V13.01,2013-01-01 22:00:00,
2013-01-01 18:01:00,81.5,69.5,29.97,SSE,158,0.0,0.0,67,0.00,,---,0.12,VWS V13.01,2013-01-01 22:01:00,
2013-01-01 18:02:00,81.6,69.6,29.98,ENE,68,2.6,2.6,67,0.00,,---,0.12,VWS V13.01,2013-01-01 22:02:00,
2013-01-01 18:03:00,81.5,69.5,29.98,ESE,112,3.8,3.8,67,0.00,,---,0.12,VWS V13.01,2013-01-01 22:03:00,
2013-01-01 18:04:00,81.5,69.5,29.98,ENE,68,4.9,4.9,67,0.00,,---,0.12,VWS V13.01,2013-01-01 22:04:00,
2013-01-01 18:05:00,81.5,69.5,29.98,SE,135,0.8,0.8,67,0.00,,---,0.12,VWS V13.01,2013-01-01 22:05:00,
2013-01-01 18:06:00,81.3,69.3,29.98,SE,135,2.4,2.4,67,0.00,,---,0.12,VWS V13.01,2013-01-01 22:06:00,
2013-01-01 18:07:00,81.6,69.6,29.97,East,90,0.0,4.2,67,0.00,,---,0.12,VWS V13.01,2013-01-01 22:07:00,
2013-01-01 18:08:00,81.3,69.3,29.98,ENE,68,0.0,0.0,67,0.00,,---,0.12,VWS V13.01,2013-01-01 22:08:00,
2013-01-01 18:09:00,81.3,69.3,29.98,East,90,2.6,2.6,67,0.00,,---,0.12,VWS V13.01,2013-01-01 22:09:00,
2013-01-01 18:10:00,81.3,69.3,29.98,East,90,0.0,0.0,67,0.00,,---,0.12,VWS V13.01,2013-01-01 22:10:00,
2013-01-01 18:11:00,81.3,69.3,29.98,SE,135,0.0,0.0,67,0.00,,---,0.12,VWS V13.01,2013-01-01 22:11:00,
2013-01-01 18:12:00,81.5,69.5,29.98,ESE,112,3.8,3.8,67,0.00,,---,0.12,VWS V13.01,2013-01-01 22:12:00,
2013-01-01 18:13:00,81.3,69.3,29.98,East,90,1.5,1.5,67,0.00,,---,0.12,VWS V13.01,2013-01-01 22:13:00,
2013-01-01 18:14:00,81.3,69.3,29.98,East,90,0.0,0.0,67,0.00,,---,0.12,VWS V13.01,2013-01-01 22:14:00,
2013-01-01 18:15:00,81.3,69.3,29.98,East,90,3.5,3.5,67,0.00,,---,0.12,VWS V13.01,2013-01-01 22:15:00,
2013-01-01 18:16:00,81.3,69.3,29.97,SE,135,3.8,3.8,67,0.00,,---,0.12,VWS V13.01,2013-01-01 22:16:00,
2013-01-01 18:17:00,81.3,69.3,29.98,ENE,68,0.0,4.4,67,0.00,,---,0.12,VWS V13.01,2013-01-01 22:17:00,
2013-01-01 18:18:00,81.3,68.9,29.98,ENE,68,2.4,2.4,66,0.00,,---,0.12,VWS V13.01,2013-01-01 22:18:00,
2013-01-01 18:19:00,81.1,68.7,29.98,SE,135,1.7,1.7,66,0.00,,---,0.12,VWS V13.01,2013-01-01 22:19:00,
2013-01-01 18:20:00,81.1,68.7,29.98,SE,135,0.0,0.0,66,0.00,,---,0.12,VWS V13.01,2013-01-01 22:20:00,
2013-01-01 18:21:00,81.1,68.7,29.98,SE,135,6.9,6.9,66,0.00,,---,0.12,VWS V13.01,2013-01-01 22:21:00,
2013-01-01 18:22:00,81.3,69.3,29.98,East,90,1.5,2.0,67,0.00,,---,0.12,VWS V13.01,2013-01-01 22:22:00,
2013-01-01 18:23:00,81.1,68.7,29.98,East,90,3.3,3.3,66,0.00,,---,0.12,VWS V13.01,2013-01-01 22:23:00,
2013-01-01 18:24:00,81.1,68.7,29.98,ENE,68,2.4,2.4,66,0.00,,---,0.12,VWS V13.01,2013-01-01 22:24:00,
2013-01-01 18:25:00,81.1,68.7,29.98,ESE,112,2.6,2.6,66,0.00,,---,0.12,VWS V13.01,2013-01-01 22:25:00,
2013-01-01 18:26:00,81.1,68.7,29.98,East,90,0.0,0.0,66,0.00,,---,0.12,VWS V13.01,2013-01-01 22:26:00,
2013-01-01 18:27:00,81.3,68.9,29.98,ENE,68,2.4,2.4,66,0.00,,---,0.12,VWS V13.01,2013-01-01 22:27:00,
2013-01-01 18:28:00,80.9,68.5,29.98,SE,135,1.3,1.3,66,0.00,,---,0.12,VWS V13.01,2013-01-01 22:28:00,
2013-01-01 18:29:00,80.9,68.5,29.98,SE,135,0.0,0.0,66,0.00,,---,0.12,VWS V13.01,2013-01-01 22:29:00,
2013-01-01 18:30:00,80.9,68.5,29.98,East,90,2.0,2.0,66,0.00,,---,0.12,VWS V13.01,2013-01-01 22:30:00,
2013-01-01 18:31:00,80.9,68.5,29.98,ESE,112,0.8,0.8,66,0.00,,---,0.12,VWS V13.01,2013-01-01 22:31:00,
2013-01-01 18:32:00,81.1,68.7,29.98,East,90,3.3,3.3,66,0.00,,---,0.12,VWS V13.01,2013-01-01 22:32:00,
2013-01-01 18:33:00,80.9,68.5,29.98,ESE,112,4.9,4.9,66,0.00,,---,0.12,VWS V13.01,2013-01-01 22:33:00,
2013-01-01 18:34:00,80.9,68.5,29.98,East,90,1.1,1.1,66,0.00,,---,0.12,VWS V13.01,2013-01-01 22:34:00,
2013-01-01 18:35:00,80.7,68.3,29.98,SE,135,2.4,2.4,66,0.00,,---,0.12,VWS V13.01,2013-01-01 22:35:00,
2013-01-01 18:36:00,80.7,68.3,29.98,ESE,112,5.1,5.1,66,0.00,,---,0.12,VWS V13.01,2013-01-01 22:36:00,
2013-01-01 18:37:00,80.9,68.5,29.98,SE,135,1.3,4.4,66,0.00,,---,0.12,VWS V13.01,2013-01-01 22:37:00,
2013-01-01 18:38:00,80.7,68.3,29.98,NNE,22,0.0,0.0,66,0.00,,---,0.12,VWS V13.01,2013-01-01 22:38:00,
2013-01-01 18:39:00,80.7,68.3,29.98,East,90,0.0,0.0,66,0.00,,---,0.12,VWS V13.01,2013-01-01 22:39:00,
2013-01-01 18:40:00,80.7,68.3,29.98,ESE,112,0.0,0.0,66,0.00,,---,0.12,VWS V13.01,2013-01-01 22:40:00,
2013-01-01 18:41:00,80.7,68.3,29.98,ENE,68,2.6,2.6,66,0.00,,---,0.12,VWS V13.01,2013-01-01 22:41:00,
2013-01-01 18:42:00,80.9,68.5,29.98,ESE,112,4.9,4.9,66,0.00,,---,0.12,VWS V13.01,2013-01-01 22:42:00,
2013-01-01 18:43:00,80.7,68.3,29.98,SE,135,0.0,0.0,66,0.00,,---,0.12,VWS V13.01,2013-01-01 22:43:00,
2013-01-01 18:44:00,80.7,68.3,29.98,ENE,68,0.0,0.0,66,0.00,,---,0.12,VWS V13.01,2013-01-01 22:44:00,
2013-01-01 18:45:00,80.7,68.3,29.98,ENE,68,4.6,4.6,66,0.00,,---,0.12,VWS V13.01,2013-01-01 22:45:00,
2013-01-01 18:46:00,80.7,68.3,29.98,ENE,68,0.0,0.0,66,0.00,,---,0.12,VWS V13.01,2013-01-01 22:46:00,
2013-01-01 18:47:00,80.7,68.3,29.98,NNE,22,0.0,0.0,66,0.00,,---,0.12,VWS V13.01,2013-01-01 22:47:00,
2013-01-01 18:48:00,80.7,68.3,29.98,East,90,0.0,0.0,66,0.00,,---,0.12,VWS V13.01,2013-01-01 22:48:00,
2013-01-01 18:49:00,80.7,68.3,29.98,SE,135,0.6,0.6,66,0.00,,---,0.12,VWS V13.01,2013-01-01 22:49:00,
2013-01-01 18:50:00,80.7,68.3,29.98,East,90,6.2,6.2,66,0.00,,---,0.12,VWS V13.01,2013-01-01 22:50:00,
2013-01-01 18:51:00,80.7,68.3,29.98,East,90,2.4,2.4,66,0.00,,---,0.12,VWS V13.01,2013-01-01 22:51:00,
2013-01-01 18:52:00,80.7,68.3,29.98,SE,135,0.0,3.5,66,0.00,,---,0.12,VWS V13.01,2013-01-01 22:52:00,
2013-01-01 18:53:00,80.7,68.3,29.98,ENE,68,2.2,2.2,66,0.00,,---,0.12,VWS V13.01,2013-01-01 22:53:00,
2013-01-01 18:54:00,80.7,68.3,29.98,NE,45,0.0,0.0,66,0.00,,---,0.12,VWS V13.01,2013-01-01 22:54:00,
2013-01-01 18:55:00,80.7,68.3,29.98,SE,135,0.0,0.0,66,0.00,,---,0.12,VWS V13.01,2013-01-01 22:55:00,
2013-01-01 18:56:00,80.7,68.3,29.98,SE,135,2.2,2.2,66,0.00,,---,0.12,VWS V13.01,2013-01-01 22:56:00,
2013-01-01 18:57:00,80.7,68.3,29.98,East,90,0.0,2.4,66,0.00,,---,0.12,VWS V13.01,2013-01-01 22:57:00,
2013-01-01 18:58:00,80.7,68.3,29.98,ESE,112,0.6,0.6,66,0.00,,---,0.12,VWS V13.01,2013-01-01 22:58:00,
2013-01-01 18:59:00,80.7,68.7,29.98,ENE,68,0.0,0.0,67,0.00,,---,0.12,VWS V13.01,2013-01-01 22:59:00,
2013-01-01 19:00:00,80.7,68.7,29.98,ESE,112,1.5,1.5,67,0.00,,---,0.12,VWS V13.01,2013-01-01 23:00:00,
2013-01-01 19:01:00,80.7,68.7,29.98,ESE,112,1.7,1.7,67,0.00,,---,0.12,VWS V13.01,2013-01-01 23:01:00,
2013-01-01 19:02:00,80.7,68.3,29.98,ENE,68,2.2,3.1,66,0.00,,---,0.12,VWS V13.01,2013-01-01 23:02:00,
2013-01-01 19:03:00,80.7,68.7,29.99,SE,135,5.8,5.8,67,0.00,,---,0.12,VWS V13.01,2013-01-01 23:03:00,
2013-01-01 19:04:00,80.7,68.7,29.99,SE,135,2.9,2.9,67,0.00,,---,0.12,VWS V13.01,2013-01-01 23:04:00,
2013-01-01 19:05:00,80.6,68.6,29.99,East,90,0.0,0.0,67,0.00,,---,0.12,VWS V13.01,2013-01-01 23:05:00,
2013-01-01 19:06:00,80.6,68.6,29.98,ESE,112,0.0,0.0,67,0.00,,---,0.12,VWS V13.01,2013-01-01 23:06:00,
2013-01-01 19:07:00,80.7,68.3,29.98,ESE,112,0.6,0.6,66,0.00,,---,0.12,VWS V13.01,2013-01-01 23:07:00,
2013-01-01 19:08:00,80.6,68.6,29.99,ESE,112,4.6,4.6,67,0.00,,---,0.12,VWS V13.01,2013-01-01 23:08:00,
2013-01-01 19:09:00,80.4,68.4,29.99,SE,135,3.5,3.5,67,0.00,,---,0.12,VWS V13.01,2013-01-01 23:09:00,
2013-01-01 19:10:00,80.4,68.4,29.99,ENE,68,0.0,0.0,67,0.00,,---,0.12,VWS V13.01,2013-01-01 23:10:00,
2013-01-01 19:11:00,80.4,68.4,29.99,SE,135,0.0,0.0,67,0.00,,---,0.12,VWS V13.01,2013-01-01 23:11:00,
2013-01-01 19:12:00,80.7,68.7,29.99,SE,135,5.8,5.8,67,0.00,,---,0.12,VWS V13.01,2013-01-01 23:12:00,
2013-01-01 19:13:00,80.4,68.4,29.99,East,90,0.0,0.0,67,0.00,,---,0.12,VWS V13.01,2013-01-01 23:13:00,
2013-01-01 19:14:00,80.4,68.4,29.99,ESE,112,0.0,0.0,67,0.00,,---,0.12,VWS V13.01,2013-01-01 23:14:00,
2013-01-01 19:15:00,80.4,68.4,29.99,SE,135,6.4,6.4,67,0.00,,---,0.12,VWS V13.01,2013-01-01 23:15:00,
2013-01-01 19:16:00,80.4,68.4,29.99,SSE,158,3.3,3.3,67,0.00,,---,0.12,VWS V13.01,2013-01-01 23:16:00,
2013-01-01 19:17:00,80.6,68.6,29.99,ESE,112,4.6,4.6,67,0.00,,---,0.12,VWS V13.01,2013-01-01 23:17:00,
2013-01-01 19:18:00,80.4,68.4,29.99,ESE,112,1.7,1.7,67,0.00,,---,0.12,VWS V13.01,2013-01-01 23:18:00,
2013-01-01 19:19:00,80.4,68.4,29.99,SE,135,1.7,1.7,67,0.00,,---,0.12,VWS V13.01,2013-01-01 23:19:00,
2013-01-01 19:20:00,80.4,68.4,29.99,ESE,112,1.7,1.7,67,0.00,,---,0.12,VWS V13.01,2013-01-01 23:20:00,
2013-01-01 19:21:00,80.4,68.4,29.99,SE,135,3.1,3.1,67,0.00,,---,0.12,VWS V13.01,2013-01-01 23:21:00,
2013-01-01 19:22:00,80.4,68.4,29.99,East,90,0.0,0.6,67,0.00,,---,0.12,VWS V13.01,2013-01-01 23:22:00,
2013-01-01 19:23:00,80.4,68.4,29.99,ESE,112,3.3,3.3,67,0.00,,---,0.12,VWS V13.01,2013-01-01 23:23:00,
2013-01-01 19:24:00,80.4,68.4,29.99,SE,135,4.2,4.2,67,0.00,,---,0.12,VWS V13.01,2013-01-01 23:24:00,
2013-01-01 19:25:00,80.4,68.4,29.99,ENE,68,1.1,1.1,67,0.00,,---,0.12,VWS V13.01,2013-01-01 23:25:00,
2013-01-01 19:26:00,80.4,68.4,29.99,ENE,68,1.3,1.3,67,0.00,,---,0.12,VWS V13.01,2013-01-01 23:26:00,
2013-01-01 19:27:00,80.4,68.4,29.99,ESE,112,1.7,3.8,67,0.00,,---,0.12,VWS V13.01,2013-01-01 23:27:00,
2013-01-01 19:28:00,80.4,68.4,29.99,SE,135,7.1,7.1,67,0.00,,---,0.12,VWS V13.01,2013-01-01 23:28:00,
2013-01-01 19:29:00,80.4,68.4,29.99,NNE,22,0.0,0.0,67,0.00,,---,0.12,VWS V13.01,2013-01-01 23:29:00,
2013-01-01 19:30:00,80.2,68.3,29.99,NE,45,2.4,2.4,67,0.00,,---,0.12,VWS V13.01,2013-01-01 23:30:00,
2013-01-01 19:31:00,80.2,68.3,29.99,ESE,112,4.6,4.6,67,0.00,,---,0.12,VWS V13.01,2013-01-01 23:31:00,
2013-01-01 19:32:00,80.4,68.4,29.99,ESE,112,3.3,3.3,67,0.00,,---,0.12,VWS V13.01,2013-01-01 23:32:00,
2013-01-01 19:33:00,80.2,68.3,29.99,East,90,2.0,2.0,67,0.00,,---,0.12,VWS V13.01,2013-01-01 23:33:00,
2013-01-01 19:34:00,80.2,68.3,30.00,SSE,158,3.8,3.8,67,0.00,,---,0.12,VWS V13.01,2013-01-01 23:34:00,
2013-01-01 19:35:00,80.2,68.3,30.00,SSE,158,0.0,0.0,67,0.00,,---,0.12,VWS V13.01,2013-01-01 23:35:00,
2013-01-01 19:36:00,80.2,68.3,30.00,ESE,112,0.0,0.0,67,0.00,,---,0.12,VWS V13.01,2013-01-01 23:36:00,
2013-01-01 19:37:00,80.4,68.4,29.99,SE,135,7.1,7.1,67,0.00,,---,0.12,VWS V13.01,2013-01-01 23:37:00,
2013-01-01 19:38:00,80.2,68.3,29.99,East,90,0.0,0.0,67,0.00,,---,0.12,VWS V13.01,2013-01-01 23:38:00,
2013-01-01 19:39:00,80.2,68.7,29.99,SSE,158,0.0,0.0,68,0.00,,---,0.12,VWS V13.01,2013-01-01 23:39:00,
2013-01-01 19:40:00,80.2,68.7,29.99,SE,135,1.3,1.3,68,0.00,,---,0.12,VWS V13.01,2013-01-01 23:40:00,
2013-01-01 19:41:00,80.2,68.7,29.99,South,180,2.0,2.0,68,0.00,,---,0.12,VWS V13.01,2013-01-01 23:41:00,
2013-01-01 19:42:00,80.2,68.3,29.99,East,90,2.0,6.7,67,0.00,,---,0.12,VWS V13.01,2013-01-01 23:42:00,
2013-01-01 19:43:00,80.0,68.5,30.00,SE,135,0.0,0.0,68,0.00,,---,0.12,VWS V13.01,2013-01-01 23:43:00,
2013-01-01 19:44:00,80.0,68.5,30.00,SE,135,4.4,4.4,68,0.00,,---,0.12,VWS V13.01,2013-01-01 23:44:00,
2013-01-01 19:45:00,80.0,68.5,29.99,East,90,0.0,0.0,68,0.00,,---,0.12,VWS V13.01,2013-01-01 23:45:00,
2013-01-01 19:46:00,80.0,68.5,29.99,SE,135,1.3,1.3,68,0.00,,---,0.12,VWS V13.01,2013-01-01 23:46:00,
2013-01-01 19:47:00,80.2,68.3,29.99,East,90,0.0,0.6,67,0.00,,---,0.12,VWS V13.01,2013-01-01 23:47:00,
2013-01-01 19:48:00,80.0,68.5,30.00,ESE,112,3.5,3.5,68,0.00,,---,0.12,VWS V13.01,2013-01-01 23:48:00,
2013-01-01 19:49:00,79.8,68.3,30.00,East,90,1.7,1.7,68,0.00,,---,0.12,VWS V13.01,2013-01-01 23:49:00,
2013-01-01 19:50:00,80.0,68.5,30.00,ENE,68,1.7,1.7,68,0.00,,---,0.12,VWS V13.01,2013-01-01 23:50:00,
2013-01-01 19:51:00,79.8,68.3,30.00,ESE,112,0.0,0.0,68,0.00,,---,0.12,VWS V13.01,2013-01-01 23:51:00,
2013-01-01 19:52:00,80.0,68.5,30.00,SE,135,0.0,0.0,68,0.00,,---,0.12,VWS V13.01,2013-01-01 23:52:00,
2013-01-01 19:53:00,79.8,68.3,30.00,SSE,158,4.4,4.4,68,0.00,,---,0.12,VWS V13.01,2013-01-01 23:53:00,
2013-01-01 19:54:00,79.8,68.3,29.99,NE,45,0.0,0.0,68,0.00,,---,0.12,VWS V13.01,2013-01-01 23:54:00,
2013-01-01 19:55:00,79.8,68.3,30.00,ESE,112,1.1,1.1,68,0.00,,---,0.12,VWS V13.01,2013-01-01 23:55:00,
2013-01-01 19:56:00,79.8,68.3,30.00,ESE,112,0.0,0.0,68,0.00,,---,0.12,VWS V13.01,2013-01-01 23:56:00,
2013-01-01 19:57:00,80.0,68.5,30.00,ESE,112,3.5,3.5,68,0.00,,---,0.12,VWS V13.01,2013-01-01 23:57:00,
2013-01-01 19:58:00,79.8,68.3,30.00,SSE,158,2.0,2.0,68,0.00,,---,0.12,VWS V13.01,2013-01-01 23:58:00,
2013-01-01 19:59:00,79.8,68.7,30.00,SE,135,0.0,0.0,69,0.00,,---,0.12,VWS V13.01,2013-01-01 23:59:00,
2013-01-01 20:00:00,79.8,68.7,30.00,SSE,158,4.0,4.0,69,0.00,,---,0.12,VWS V13.01,2013-01-02 00:00:00,
2013-01-01 20:01:00,79.8,68.7,30.00,ESE,112,2.2,2.2,69,0.00,,---,0.12,VWS V13.01,2013-01-02 00:01:00,
2013-01-01 20:02:00,79.8,68.3,30.00,SSE,158,4.4,4.4,68,0.00,,---,0.12,VWS V13.01,2013-01-02 00:02:00,
2013-01-01 20:03:00,79.8,68.7,30.00,ESE,112,0.0,0.0,69,0.00,,---,0.12,VWS V13.01,2013-01-02 00:03:00,
2013-01-01 20:04:00,79.8,68.7,30.00,East,90,0.0,0.0,69,0.00,,---,0.12,VWS V13.01,2013-01-02 00:04:00,
2013-01-01 20:05:00,79.8,68.7,30.00,ESE,112,2.0,2.0,69,0.00,,---,0.12,VWS V13.01,2013-01-02 00:05:00,
2013-01-01 20:06:00,79.8,68.7,30.00,East,90,0.0,0.0,69,0.00,,---,0.12,VWS V13.01,2013-01-02 00:06:00,
2013-01-01 20:07:00,79.8,68.3,30.00,SSE,158,2.0,2.0,68,0.00,,---,0.12,VWS V13.01,2013-01-02 00:07:00,
2013-01-01 20:08:00,79.8,68.7,30.00,SE,135,6.4,6.4,69,0.00,,---,0.12,VWS V13.01,2013-01-02 00:08:00,
2013-01-01 20:09:00,79.8,68.7,30.00,SE,135,1.5,1.5,69,0.00,,---,0.12,VWS V13.01,2013-01-02 00:09:00,
2013-01-01 20:10:00,79.8,68.7,30.00,ESE,112,3.1,3.1,69,0.00,,---,0.12,VWS V13.01,2013-01-02 00:10:00,
2013-01-01 20:11:00,79.8,68.7,30.00,ENE,68,0.0,0.0,69,0.00,,---,0.12,VWS V13.01,2013-01-02 00:11:00,
2013-01-01 20:12:00,79.8,68.7,30.00,ESE,112,0.0,0.0,69,0.00,,---,0.12,VWS V13.01,2013-01-02 00:12:00,
2013-01-01 20:13:00,79.7,68.6,30.00,SE,135,2.0,2.0,69,0.00,,---,0.12,VWS V13.01,2013-01-02 00:13:00,
2013-01-01 20:14:00,79.7,68.6,30.00,ENE,68,0.0,0.0,69,0.00,,---,0.12,VWS V13.01,2013-01-02 00:14:00,
2013-01-01 20:15:00,79.7,68.6,30.01,ESE,112,1.1,1.1,69,0.00,,---,0.12,VWS V13.01,2013-01-02 00:15:00,
2013-01-01 20:16:00,79.7,68.6,30.00,ESE,112,2.0,2.0,69,0.00,,---,0.12,VWS V13.01,2013-01-02 00:16:00,
2013-01-01 20:17:00,79.8,68.7,30.00,SE,135,6.4,6.4,69,0.00,,---,0.12,VWS V13.01,2013-01-02 00:17:00,
2013-01-01 20:18:00,79.7,68.6,30.00,SE,135,1.7,1.7,69,0.00,,---,0.12,VWS V13.01,2013-01-02 00:18:00,
2013-01-01 20:19:00,79.7,68.6,30.00,SE,135,3.1,3.1,69,0.00,,---,0.12,VWS V13.01,2013-01-02 00:19:00,
2013-01-01 20:20:00,79.7,68.6,30.00,SE,135,2.9,2.9,69,0.00,,---,0.12,VWS V13.01,2013-01-02 00:20:00,
2013-01-01 20:21:00,79.7,68.6,30.01,SE,135,2.0,2.0,69,0.00,,---,0.12,VWS V13.01,2013-01-02 00:21:00,
2013-01-01 20:22:00,79.7,68.6,30.00,SE,135,2.0,7.1,69,0.00,,---,0.12,VWS V13.01,2013-01-02 00:22:00,
2013-01-01 20:23:00,79.7,68.6,30.01,East,90,2.2,2.2,69,0.00,,---,0.12,VWS V13.01,2013-01-02 00:23:00,
2013-01-01 20:24:00,79.7,68.6,30.01,ESE,112,2.0,2.0,69,0.00,,---,0.12,VWS V13.01,2013-01-02 00:24:00,
2013-01-01 20:25:00,79.7,68.6,30.00,ESE,112,0.0,0.0,69,0.00,,---,0.12,VWS V13.01,2013-01-02 00:25:00,
2013-01-01 20:26:00,79.7,68.6,30.01,South,180,0.0,0.0,69,0.00,,---,0.12,VWS V13.01,2013-01-02 00:26:00,
2013-01-01 20:27:00,79.7,68.6,30.00,SE,135,1.7,1.7,69,0.00,,---,0.12,VWS V13.01,2013-01-02 00:27:00,
2013-01-01 20:28:00,79.5,68.4,30.01,ENE,68,0.0,0.0,69,0.00,,---,0.12,VWS V13.01,2013-01-02 00:28:00,
2013-01-01 20:29:00,79.5,68.4,30.01,East,90,2.6,2.6,69,0.00,,---,0.12,VWS V13.01,2013-01-02 00:29:00,
2013-01-01 20:30:00,79.5,68.4,30.01,SE,135,3.3,3.3,69,0.00,,---,0.12,VWS V13.01,2013-01-02 00:30:00,
2013-01-01 20:31:00,79.5,68.9,30.01,SE,135,2.9,2.9,70,0.00,,---,0.12,VWS V13.01,2013-01-02 00:31:00,
2013-01-01 20:32:00,79.7,68.6,30.01,East,90,2.2,2.9,69,0.00,,---,0.12,VWS V13.01,2013-01-02 00:32:00,
2013-01-01 20:33:00,79.5,68.9,30.01,North,0,0.0,0.0,70,0.00,,---,0.12,VWS V13.01,2013-01-02 00:33:00,
2013-01-01 20:34:00,79.5,68.9,30.01,SSE,158,2.0,2.0,70,0.00,,---,0.12,VWS V13.01,2013-01-02 00:34:00,
2013-01-01 20:35:00,79.5,68.9,30.01,SE,135,5.1,5.1,70,0.00,,---,0.12,VWS V13.01,2013-01-02 00:35:00,
2013-01-01 20:36:00,79.5,68.9,30.01,SE,135,5.3,5.3,70,0.00,,---,0.12,VWS V13.01,2013-01-02 00:36:00,
2013-01-01 20:37:00,79.5,68.4,30.01,ENE,68,0.0,0.0,69,0.00,,---,0.12,VWS V13.01,2013-01-02 00:37:00,
2013-01-01 20:38:00,79.5,68.9,30.00,ESE,112,0.0,0.0,70,0.00,,---,0.12,VWS V13.01,2013-01-02 00:38:00,
2013-01-01 20:39:00,79.5,68.9,30.00,SE,135,0.6,0.6,70,0.00,,---,0.12,VWS V13.01,2013-01-02 00:39:00,
2013-01-01 20:40:00,79.5,68.9,30.00,ESE,112,0.0,0.0,70,0.00,,---,0.12,VWS V13.01,2013-01-02 00:40:00,
2013-01-01 20:41:00,79.3,68.7,30.00,SE,135,3.8,3.8,70,0.00,,---,0.12,VWS V13.01,2013-01-02 00:41:00,
2013-01-01 20:42:00,79.5,68.9,30.01,North,0,0.0,0.0,70,0.00,,---,0.12,VWS V13.01,2013-01-02 00:42:00,
2013-01-01 20:43:00,79.3,68.7,30.00,SE,135,0.0,0.0,70,0.00,,---,0.12,VWS V13.01,2013-01-02 00:43:00,
2013-01-01 20:44:00,79.3,68.7,30.01,ESE,112,0.0,0.0,70,0.00,,---,0.12,VWS V13.01,2013-01-02 00:44:00,
2013-01-01 20:45:00,79.3,68.7,30.00,SE,135,2.4,2.4,70,0.00,,---,0.12,VWS V13.01,2013-01-02 00:45:00,
2013-01-01 20:46:00,79.3,68.7,30.00,SSE,158,0.0,0.0,70,0.00,,---,0.12,VWS V13.01,2013-01-02 00:46:00,
2013-01-01 20:47:00,79.5,68.9,30.00,ESE,112,0.0,4.6,70,0.00,,---,0.12,VWS V13.01,2013-01-02 00:47:00,
2013-01-01 20:48:00,79.3,69.1,30.01,SE,135,3.1,3.1,71,0.00,,---,0.12,VWS V13.01,2013-01-02 00:48:00,
2013-01-01 20:49:00,79.3,69.1,30.01,SE,135,2.4,2.4,71,0.00,,---,0.12,VWS V13.01,2013-01-02 00:49:00,
2013-01-01 20:50:00,79.3,69.1,30.00,SE,135,3.5,3.5,71,0.00,,---,0.12,VWS V13.01,2013-01-02 00:50:00,
2013-01-01 20:51:00,79.1,68.9,30.01,SE,135,1.7,1.7,71,0.00,,---,0.12,VWS V13.01,2013-01-02 00:51:00,
2013-01-01 20:52:00,79.3,68.7,30.00,SE,135,0.0,2.0,70,0.00,,---,0.12,VWS V13.01,2013-01-02 00:52:00,
2013-01-01 20:53:00,79.1,68.9,30.01,ESE,112,0.0,0.0,71,0.00,,---,0.12,VWS V13.01,2013-01-02 00:53:00,
2013-01-01 20:54:00,79.1,68.9,30.01,East,90,0.0,0.0,71,0.00,,---,0.12,VWS V13.01,2013-01-02 00:54:00,
2013-01-01 20:55:00,79.1,68.9,30.01,ESE,112,1.7,1.7,71,0.00,,---,0.12,VWS V13.01,2013-01-02 00:55:00,
2013-01-01 20:56:00,79.1,68.9,30.01,SSE,158,0.0,0.0,71,0.00,,---,0.12,VWS V13.01,2013-01-02 00:56:00,
2013-01-01 20:57:00,79.3,69.1,30.01,SE,135,3.1,3.1,71,0.00,,---,0.12,VWS V13.01,2013-01-02 00:57:00,
2013-01-01 20:58:00,79.1,68.9,30.01,SE,135,2.0,2.0,71,0.00,,---,0.12,VWS V13.01,2013-01-02 00:58:00,
2013-01-01 20:59:00,79.1,68.9,30.01,ESE,112,1.5,1.5,71,0.00,,---,0.12,VWS V13.01,2013-01-02 00:59:00,
2013-01-01 21:00:00,78.9,68.7,30.01,SSE,158,0.0,0.0,71,0.00,,---,0.12,VWS V13.01,2013-01-02 01:00:00,
2013-01-01 21:01:00,78.9,68.7,30.01,ESE,112,2.4,2.4,71,0.00,,---,0.12,VWS V13.01,2013-01-02 01:01:00,
2013-01-01 21:02:00,79.1,68.9,30.01,ESE,112,0.0,0.0,71,0.00,,---,0.12,VWS V13.01,2013-01-02 01:02:00,
2013-01-01 21:03:00,78.9,68.7,30.01,SE,135,0.0,0.0,71,0.00,,---,0.12,VWS V13.01,2013-01-02 01:03:00,
2013-01-01 21:04:00,78.9,68.7,30.01,ESE,112,0.0,0.0,71,0.00,,---,0.12,VWS V13.01,2013-01-02 01:04:00,
2013-01-01 21:05:00,78.9,68.7,30.01,SE,135,0.0,0.0,71,0.00,,---,0.12,VWS V13.01,2013-01-02 01:05:00,
2013-01-01 21:06:00,78.9,68.7,30.01,SE,135,0.0,0.0,71,0.00,,---,0.12,VWS V13.01,2013-01-02 01:06:00,
2013-01-01 21:07:00,79.1,68.9,30.01,SE,135,2.0,2.0,71,0.00,,---,0.12,VWS V13.01,2013-01-02 01:07:00,
2013-01-01 21:08:00,78.8,68.6,30.01,SE,135,1.1,1.1,71,0.00,,---,0.12,VWS V13.01,2013-01-02 01:08:00,
2013-01-01 21:09:00,78.8,68.6,30.01,SE,135,0.0,0.0,71,0.00,,---,0.12,VWS V13.01,2013-01-02 01:09:00,
2013-01-01 21:10:00,78.8,68.6,30.01,SE,135,0.0,0.0,71,0.00,,---,0.12,VWS V13.01,2013-01-02 01:10:00,
2013-01-01 21:11:00,78.8,68.6,30.01,SE,135,0.0,0.0,71,0.00,,---,0.12,VWS V13.01,2013-01-02 01:11:00,
2013-01-01 21:12:00,78.9,68.7,30.01,SE,135,0.0,0.0,71,0.00,,---,0.12,VWS V13.01,2013-01-02 01:12:00,
2013-01-01 21:13:00,78.6,68.4,30.01,SE,135,0.0,0.0,71,0.00,,---,0.12,VWS V13.01,2013-01-02 01:13:00,
2013-01-01 21:14:00,78.6,68.4,30.01,SE,135,2.6,2.6,71,0.00,,---,0.12,VWS V13.01,2013-01-02 01:14:00,
2013-01-01 21:15:00,78.6,68.4,30.01,SSE,158,1.3,1.3,71,0.00,,---,0.12,VWS V13.01,2013-01-02 01:15:00,
2013-01-01 21:16:00,78.6,68.4,30.01,SE,135,2.4,2.4,71,0.00,,---,0.12,VWS V13.01,2013-01-02 01:16:00,
2013-01-01 21:17:00,78.8,68.6,30.01,SE,135,1.1,1.1,71,0.00,,---,0.12,VWS V13.01,2013-01-02 01:17:00,
2013-01-01 21:18:00,78.6,68.8,30.01,ESE,112,0.0,0.0,72,0.00,,---,0.12,VWS V13.01,2013-01-02 01:18:00,
2013-01-01 21:19:00,78.6,68.8,30.01,SSE,158,0.0,0.0,72,0.00,,---,0.12,VWS V13.01,2013-01-02 01:19:00,
2013-01-01 21:20:00,78.6,68.8,30.01,SSE,158,0.0,0.0,72,0.00,,---,0.12,VWS V13.01,2013-01-02 01:20:00,
2013-01-01 21:21:00,78.6,68.8,30.01,SE,135,2.6,2.6,72,0.00,,---,0.12,VWS V13.01,2013-01-02 01:21:00,
2013-01-01 21:22:00,78.6,68.4,30.01,SE,135,0.0,0.0,71,0.00,,---,0.12,VWS V13.01,2013-01-02 01:22:00,
2013-01-01 21:23:00,78.6,68.8,30.01,SE,135,0.0,0.0,72,0.00,,---,0.12,VWS V13.01,2013-01-02 01:23:00,
2013-01-01 21:24:00,78.6,68.8,30.01,SSE,158,4.0,4.0,72,0.00,,---,0.12,VWS V13.01,2013-01-02 01:24:00,
2013-01-01 21:25:00,78.6,68.8,30.01,South,180,0.0,0.0,72,0.00,,---,0.12,VWS V13.01,2013-01-02 01:25:00,
2013-01-01 21:26:00,78.6,68.8,30.01,SE,135,0.0,0.0,72,0.00,,---,0.12,VWS V13.01,2013-01-02 01:26:00,
2013-01-01 21:27:00,78.6,68.8,30.01,ESE,112,0.0,6.0,72,0.00,,---,0.12,VWS V13.01,2013-01-02 01:27:00,
2013-01-01 21:28:00,78.6,68.8,30.01,ESE,112,0.0,0.0,72,0.00,,---,0.12,VWS V13.01,2013-01-02 01:28:00,
2013-01-01 21:29:00,78.6,68.8,30.01,East,90,0.0,0.0,72,0.00,,---,0.12,VWS V13.01,2013-01-02 01:29:00,
2013-01-01 21:30:00,78.6,68.8,30.01,SSE,158,0.0,0.0,72,0.00,,---,0.12,VWS V13.01,2013-01-02 01:30:00,
2013-01-01 21:31:00,78.6,68.8,30.01,ESE,112,0.0,0.0,72,0.00,,---,0.12,VWS V13.01,2013-01-02 01:31:00,
2013-01-01 21:32:00,78.6,68.8,30.01,SE,135,0.0,0.0,72,0.00,,---,0.12,VWS V13.01,2013-01-02 01:32:00,
2013-01-01 21:33:00,78.6,68.8,30.01,SSE,158,2.0,2.0,72,0.00,,---,0.12,VWS V13.01,2013-01-02 01:33:00,
2013-01-01 21:34:00,78.6,68.8,30.01,SE,135,0.0,0.0,72,0.00,,---,0.12,VWS V13.01,2013-01-02 01:34:00,
2013-01-01 21:35:00,78.6,68.8,30.01,SE,135,0.0,0.0,72,0.00,,---,0.12,VWS V13.01,2013-01-02 01:35:00,
2013-01-01 21:36:00,78.6,68.8,30.01,SE,135,0.0,0.0,72,0.00,,---,0.12,VWS V13.01,2013-01-02 01:36:00,
2013-01-01 21:37:00,78.6,68.8,30.01,ESE,112,0.0,0.0,72,0.00,,---,0.12,VWS V13.01,2013-01-02 01:37:00,
2013-01-01 21:38:00,78.6,68.8,30.01,SSE,158,3.1,3.1,72,0.00,,---,0.12,VWS V13.01,2013-01-02 01:38:00,
2013-01-01 21:39:00,78.6,68.8,30.01,ESE,112,0.0,0.0,72,0.00,,---,0.12,VWS V13.01,2013-01-02 01:39:00,
2013-01-01 21:40:00,78.6,68.8,30.01,ESE,112,0.0,0.0,72,0.00,,---,0.12,VWS V13.01,2013-01-02 01:40:00,
2013-01-01 21:41:00,78.6,68.8,30.01,SSE,158,0.0,0.0,72,0.00,,---,0.12,VWS V13.01,2013-01-02 01:41:00,
2013-01-01 21:42:00,78.6,68.8,30.01,SSE,158,2.0,2.0,72,0.00,,---,0.12,VWS V13.01,2013-01-02 01:42:00,
2013-01-01 21:43:00,78.6,68.8,30.01,South,180,0.0,0.0,72,0.00,,---,0.12,VWS V13.01,2013-01-02 01:43:00,
2013-01-01 21:44:00,78.6,68.8,30.02,SE,135,5.1,5.1,72,0.00,,---,0.12,VWS V13.01,2013-01-02 01:44:00,
2013-01-01 21:45:00,78.6,68.8,30.01,SE,135,1.3,1.3,72,0.00,,---,0.12,VWS V13.01,2013-01-02 01:45:00,
2013-01-01 21:46:00,78.6,68.8,30.01,East,90,0.0,0.0,72,0.00,,---,0.12,VWS V13.01,2013-01-02 01:46:00,
2013-01-01 21:47:00,78.6,68.8,30.01,SSE,158,3.1,3.1,72,0.00,,---,0.12,VWS V13.01,2013-01-02 01:47:00,
2013-01-01 21:48:00,78.6,68.8,30.01,SE,135,0.0,0.0,72,0.00,,---,0.12,VWS V13.01,2013-01-02 01:48:00,
2013-01-01 21:49:00,78.4,68.6,30.02,SE,135,0.0,0.0,72,0.00,,---,0.12,VWS V13.01,2013-01-02 01:49:00,
2013-01-01 21:50:00,78.4,68.6,30.01,SE,135,0.0,0.0,72,0.00,,---,0.12,VWS V13.01,2013-01-02 01:50:00,
2013-01-01 21:51:00,78.4,68.6,30.01,SE,135,1.5,1.5,72,0.00,,---,0.12,VWS V13.01,2013-01-02 01:51:00,
2013-01-01 21:52:00,78.6,68.8,30.01,South,180,0.0,0.0,72,0.00,,---,0.12,VWS V13.01,2013-01-02 01:52:00,
2013-01-01 21:53:00,78.4,68.6,30.01,SE,135,0.0,0.0,72,0.00,,---,0.12,VWS V13.01,2013-01-02 01:53:00,
2013-01-01 21:54:00,78.4,68.6,30.01,SE,135,1.5,1.5,72,0.00,,---,0.12,VWS V13.01,2013-01-02 01:54:00,
2013-01-01 21:55:00,78.4,68.6,30.02,SSE,158,0.0,0.0,72,0.00,,---,0.12,VWS V13.01,2013-01-02 01:55:00,
2013-01-01 21:56:00,78.4,68.6,30.02,SSE,158,0.0,0.0,72,0.00,,---,0.12,VWS V13.01,2013-01-02 01:56:00,
2013-01-01 21:57:00,78.6,68.8,30.01,SE,135,0.0,0.0,72,0.00,,---,0.12,VWS V13.01,2013-01-02 01:57:00,
2013-01-01 21:58:00,78.4,68.6,30.02,SE,135,2.0,2.0,72,0.00,,---,0.12,VWS V13.01,2013-01-02 01:58:00,
2013-01-01 21:59:00,78.4,68.6,30.02,SE,135,0.0,0.0,72,0.00,,---,0.12,VWS V13.01,2013-01-02 01:59:00,
2013-01-01 22:00:00,78.4,68.6,30.02,East,90,0.6,0.6,72,0.00,,---,0.12,VWS V13.01,2013-01-02 02:00:00,
2013-01-01 22:01:00,78.4,68.6,30.02,ESE,112,1.7,1.7,72,0.00,,---,0.12,VWS V13.01,2013-01-02 02:01:00,
2013-01-01 22:02:00,78.4,68.6,30.01,SE,135,0.0,1.7,72,0.00,,---,0.12,VWS V13.01,2013-01-02 02:02:00,
2013-01-01 22:03:00,78.2,68.4,30.02,SE,135,0.0,0.0,72,0.00,,---,0.12,VWS V13.01,2013-01-02 02:03:00,
2013-01-01 22:04:00,78.2,68.4,30.01,East,90,0.0,0.0,72,0.00,,---,0.12,VWS V13.01,2013-01-02 02:04:00,
2013-01-01 22:05:00,78.0,68.2,30.01,SSE,158,0.0,0.0,72,0.00,,---,0.12,VWS V13.01,2013-01-02 02:05:00,
2013-01-01 22:06:00,78.2,68.4,30.01,SE,135,0.0,0.0,72,0.00,,---,0.12,VWS V13.01,2013-01-02 02:06:00,
2013-01-01 22:07:00,78.4,68.6,30.02,SE,135,2.0,2.0,72,0.00,,---,0.12,VWS V13.01,2013-01-02 02:07:00,
2013-01-01 22:08:00,78.0,68.2,30.01,SSE,158,1.5,1.5,72,0.00,,---,0.12,VWS V13.01,2013-01-02 02:08:00,
2013-01-01 22:09:00,78.0,68.2,30.01,SSE,158,0.0,0.0,72,0.00,,---,0.12,VWS V13.01,2013-01-02 02:09:00,
2013-01-01 22:10:00,78.0,68.2,30.02,SSE,158,0.0,0.0,72,0.00,,---,0.12,VWS V13.01,2013-01-02 02:10:00,
2013-01-01 22:11:00,78.0,68.2,30.02,ESE,112,0.0,0.0,72,0.00,,---,0.12,VWS V13.01,2013-01-02 02:11:00,
2013-01-01 22:12:00,78.2,68.4,30.02,SE,135,0.0,0.0,72,0.00,,---,0.12,VWS V13.01,2013-01-02 02:12:00,
2013-01-01 22:13:00,78.0,68.7,30.02,SSE,158,0.0,0.0,73,0.00,,---,0.12,VWS V13.01,2013-01-02 02:13:00,
2013-01-01 22:14:00,78.0,68.7,30.02,SSE,158,0.8,0.8,73,0.00,,---,0.12,VWS V13.01,2013-01-02 02:14:00,
2013-01-01 22:15:00,78.0,68.7,30.02,SSE,158,0.0,0.0,73,0.00,,---,0.12,VWS V13.01,2013-01-02 02:15:00,
2013-01-01 22:16:00,78.0,68.7,30.01,SW,225,0.0,0.0,73,0.00,,---,0.12,VWS V13.01,2013-01-02 02:16:00,
2013-01-01 22:17:00,78.0,68.2,30.01,SSE,158,1.5,1.5,72,0.00,,---,0.12,VWS V13.01,2013-01-02 02:17:00,
2013-01-01 22:18:00,78.0,68.7,30.02,SSE,158,0.0,0.0,73,0.00,,---,0.12,VWS V13.01,2013-01-02 02:18:00,
2013-01-01 22:19:00,78.0,68.7,30.02,SSE,158,0.0,0.0,73,0.00,,---,0.12,VWS V13.01,2013-01-02 02:19:00,
2013-01-01 22:20:00,78.0,68.7,30.01,South,180,0.0,0.0,73,0.00,,---,0.12,VWS V13.01,2013-01-02 02:20:00,
2013-01-01 22:21:00,78.0,68.7,30.02,SE,135,0.0,0.0,73,0.00,,---,0.12,VWS V13.01,2013-01-02 02:21:00,
2013-01-01 22:22:00,78.0,68.7,30.02,SSE,158,0.0,0.0,73,0.00,,---,0.12,VWS V13.01,2013-01-02 02:22:00,
2013-01-01 22:23:00,78.0,68.7,30.02,SSE,158,1.3,1.3,73,0.00,,---,0.12,VWS V13.01,2013-01-02 02:23:00,
2013-01-01 22:24:00,78.0,68.7,30.01,ESE,112,0.0,0.0,73,0.00,,---,0.12,VWS V13.01,2013-01-02 02:24:00,
2013-01-01 22:25:00,78.0,68.7,30.02,SE,135,0.0,0.0,73,0.00,,---,0.12,VWS V13.01,2013-01-02 02:25:00,
2013-01-01 22:26:00,78.0,68.7,30.02,SE,135,1.7,1.7,73,0.00,,---,0.12,VWS V13.01,2013-01-02 02:26:00,
2013-01-01 22:27:00,78.0,68.7,30.02,SSE,158,0.0,2.4,73,0.00,,---,0.12,VWS V13.01,2013-01-02 02:27:00,
2013-01-01 22:28:00,77.9,68.6,30.01,SE,135,0.0,0.0,73,0.00,,---,0.12,VWS V13.01,2013-01-02 02:28:00,
2013-01-01 22:29:00,77.9,68.6,30.01,SE,135,0.0,0.0,73,0.00,,---,0.12,VWS V13.01,2013-01-02 02:29:00,
2013-01-01 22:30:00,77.9,68.6,30.01,ESE,112,1.1,1.1,73,0.00,,---,0.12,VWS V13.01,2013-01-02 02:30:00,
2013-01-01 22:31:00,77.9,68.6,30.01,SSE,158,0.0,0.0,73,0.00,,---,0.12,VWS V13.01,2013-01-02 02:31:00,
2013-01-01 22:32:00,78.0,68.7,30.02,SSE,158,1.3,1.3,73,0.00,,---,0.12,VWS V13.01,2013-01-02 02:32:00,
2013-01-01 22:33:00,77.9,68.6,30.01,SE,135,2.2,2.2,73,0.00,,---,0.12,VWS V13.01,2013-01-02 02:33:00,
2013-01-01 22:34:00,77.9,68.6,30.01,ESE,112,0.0,0.0,73,0.00,,---,0.12,VWS V13.01,2013-01-02 02:34:00,
2013-01-01 22:35:00,77.9,68.6,30.01,SE,135,1.5,1.5,73,0.00,,---,0.12,VWS V13.01,2013-01-02 02:35:00,
2013-01-01 22:36:00,77.9,68.6,30.01,ESE,112,3.1,3.1,73,0.00,,---,0.12,VWS V13.01,2013-01-02 02:36:00,
2013-01-01 22:37:00,77.9,68.6,30.01,SE,135,0.0,0.0,73,0.00,,---,0.12,VWS V13.01,2013-01-02 02:37:00,
2013-01-01 22:38:00,77.7,68.4,30.02,SE,135,0.0,0.0,73,0.00,,---,0.12,VWS V13.01,2013-01-02 02:38:00,
2013-01-01 22:39:00,77.7,68.4,30.01,SE,135,0.0,0.0,73,0.00,,---,0.12,VWS V13.01,2013-01-02 02:39:00,
2013-01-01 22:40:00,77.7,68.4,30.01,SE,135,0.0,0.0,73,0.00,,---,0.12,VWS V13.01,2013-01-02 02:40:00,
2013-01-01 22:41:00,77.7,68.4,30.01,SSE,158,1.5,1.5,73,0.00,,---,0.12,VWS V13.01,2013-01-02 02:41:00,
2013-01-01 22:42:00,77.9,68.6,30.01,SE,135,2.2,2.2,73,0.00,,---,0.12,VWS V13.01,2013-01-02 02:42:00,
2013-01-01 22:43:00,77.7,68.4,30.01,SE,135,0.0,0.0,73,0.00,,---,0.12,VWS V13.01,2013-01-02 02:43:00,
2013-01-01 22:44:00,77.7,68.8,30.01,SE,135,0.0,0.0,74,0.00,,---,0.12,VWS V13.01,2013-01-02 02:44:00,
2013-01-01 22:45:00,77.7,68.8,30.01,South,180,1.3,1.3,74,0.00,,---,0.12,VWS V13.01,2013-01-02 02:45:00,
2013-01-01 22:46:00,77.7,68.8,30.01,SSE,158,0.0,0.0,74,0.00,,---,0.12,VWS V13.01,2013-01-02 02:46:00,
2013-01-01 22:47:00,77.7,68.4,30.02,SE,135,0.0,0.0,73,0.00,,---,0.12,VWS V13.01,2013-01-02 02:47:00,
2013-01-01 22:48:00,77.7,68.8,30.01,SW,225,2.2,2.2,74,0.00,,---,0.12,VWS V13.01,2013-01-02 02:48:00,
2013-01-01 22:49:00,77.7,68.8,30.01,ESE,112,3.3,3.3,74,0.00,,---,0.12,VWS V13.01,2013-01-02 02:49:00,
2013-01-01 22:50:00,77.7,68.8,30.01,SSE,158,2.2,2.2,74,0.00,,---,0.12,VWS V13.01,2013-01-02 02:50:00,
2013-01-01 22:51:00,77.7,68.8,30.01,SSW,202,2.4,2.4,74,0.00,,---,0.12,VWS V13.01,2013-01-02 02:51:00,
2013-01-01 22:52:00,77.7,68.4,30.01,SE,135,0.0,0.0,73,0.00,,---,0.12,VWS V13.01,2013-01-02 02:52:00,
2013-01-01 22:53:00,77.7,68.8,30.01,SE,135,0.6,0.6,74,0.00,,---,0.12,VWS V13.01,2013-01-02 02:53:00,
2013-01-01 22:54:00,77.7,68.8,30.01,ESE,112,1.3,1.3,74,0.00,,---,0.12,VWS V13.01,2013-01-02 02:54:00,
2013-01-01 22:55:00,77.7,68.8,30.01,SE,135,4.0,4.0,74,0.00,,---,0.12,VWS V13.01,2013-01-02 02:55:00,
2013-01-01 22:56:00,77.7,68.8,30.01,SE,135,2.2,2.2,74,0.00,,---,0.12,VWS V13.01,2013-01-02 02:56:00,
2013-01-01 22:57:00,77.7,68.8,30.01,SW,225,2.2,2.2,74,0.00,,---,0.12,VWS V13.01,2013-01-02 02:57:00,
2013-01-01 22:58:00,77.7,68.8,30.01,SE,135,0.8,0.8,74,0.00,,---,0.12,VWS V13.01,2013-01-02 02:58:00,
2013-01-01 22:59:00,77.7,68.8,30.01,SSE,158,0.0,0.0,74,0.00,,---,0.12,VWS V13.01,2013-01-02 02:59:00,
2013-01-01 23:00:00,77.7,68.8,30.01,South,180,0.0,0.0,74,0.00,,---,0.12,VWS V13.01,2013-01-02 03:00:00,
2013-01-01 23:01:00,77.7,68.8,30.01,SE,135,0.0,0.0,74,0.00,,---,0.12,VWS V13.01,2013-01-02 03:01:00,
2013-01-01 23:02:00,77.7,68.8,30.01,SE,135,0.6,3.5,74,0.00,,---,0.12,VWS V13.01,2013-01-02 03:02:00,
2013-01-01 23:03:00,77.7,68.8,30.01,ESE,112,0.0,0.0,74,0.00,,---,0.12,VWS V13.01,2013-01-02 03:03:00,
2013-01-01 23:04:00,77.5,68.6,30.01,SSE,158,0.0,0.0,74,0.00,,---,0.12,VWS V13.01,2013-01-02 03:04:00,
2013-01-01 23:05:00,77.5,68.6,30.01,South,180,1.7,1.7,74,0.00,,---,0.12,VWS V13.01,2013-01-02 03:05:00,
2013-01-01 23:06:00,77.5,68.6,30.01,SSE,158,2.2,2.2,74,0.00,,---,0.12,VWS V13.01,2013-01-02 03:06:00,
2013-01-01 23:07:00,77.7,68.8,30.01,SE,135,0.8,1.3,74,0.00,,---,0.12,VWS V13.01,2013-01-02 03:07:00,
2013-01-01 23:08:00,77.5,68.6,30.01,SSE,158,0.0,0.0,74,0.00,,---,0.12,VWS V13.01,2013-01-02 03:08:00,
2013-01-01 23:09:00,77.5,68.6,30.01,SSE,158,1.3,1.3,74,0.00,,---,0.12,VWS V13.01,2013-01-02 03:09:00,
2013-01-01 23:10:00,77.5,68.6,30.01,South,180,0.0,0.0,74,0.00,,---,0.12,VWS V13.01,2013-01-02 03:10:00,
2013-01-01 23:11:00,77.5,68.6,30.00,SE,135,0.0,0.0,74,0.00,,---,0.12,VWS V13.01,2013-01-02 03:11:00,
2013-01-01 23:12:00,77.7,68.8,30.01,ESE,112,0.0,0.0,74,0.00,,---,0.12,VWS V13.01,2013-01-02 03:12:00,
2013-01-01 23:13:00,77.5,68.6,30.00,SE,135,0.0,0.0,74,0.00,,---,0.12,VWS V13.01,2013-01-02 03:13:00,
2013-01-01 23:14:00,77.5,68.6,30.00,ESE,112,0.0,0.0,74,0.00,,---,0.12,VWS V13.01,2013-01-02 03:14:00,
2013-01-01 23:15:00,77.5,68.6,30.00,ESE,112,0.0,0.0,74,0.00,,---,0.12,VWS V13.01,2013-01-02 03:15:00,
2013-01-01 23:16:00,77.5,68.6,30.00,SE,135,0.0,0.0,74,0.00,,---,0.12,VWS V13.01,2013-01-02 03:16:00,
2013-01-01 23:17:00,77.5,68.6,30.01,SSE,158,0.0,1.3,74,0.00,,---,0.12,VWS V13.01,2013-01-02 03:17:00,
2013-01-01 23:18:00,77.5,68.6,30.00,SSE,158,0.0,0.0,74,0.00,,---,0.12,VWS V13.01,2013-01-02 03:18:00,
2013-01-01 23:19:00,77.5,68.6,30.00,SE,135,2.0,2.0,74,0.00,,---,0.12,VWS V13.01,2013-01-02 03:19:00,
2013-01-01 23:20:00,77.5,68.6,30.00,SE,135,0.8,0.8,74,0.00,,---,0.12,VWS V13.01,2013-01-02 03:20:00,
2013-01-01 23:21:00,77.5,68.6,30.00,SSE,158,0.0,0.0,74,0.00,,---,0.12,VWS V13.01,2013-01-02 03:21:00,
2013-01-01 23:22:00,77.5,68.6,30.00,SE,135,0.0,0.0,74,0.00,,---,0.12,VWS V13.01,2013-01-02 03:22:00,
2013-01-01 23:23:00,77.5,68.6,30.00,SSW,202,0.0,0.0,74,0.00,,---,0.12,VWS V13.01,2013-01-02 03:23:00,
2013-01-01 23:24:00,77.5,68.6,30.00,SE,135,0.0,0.0,74,0.00,,---,0.12,VWS V13.01,2013-01-02 03:24:00,
2013-01-01 23:25:00,77.5,68.6,30.01,SE,135,2.0,2.0,74,0.00,,---,0.12,VWS V13.01,2013-01-02 03:25:00,
2013-01-01 23:26:00,77.5,68.6,30.00,SSE,158,0.0,0.0,74,0.00,,---,0.12,VWS V13.01,2013-01-02 03:26:00,
2013-01-01 23:27:00,77.5,68.6,30.00,SSE,158,0.0,0.0,74,0.00,,---,0.12,VWS V13.01,2013-01-02 03:27:00,
2013-01-01 23:28:00,77.5,68.6,30.00,SE,135,2.0,2.0,74,0.00,,---,0.12,VWS V13.01,2013-01-02 03:28:00,
2013-01-01 23:29:00,77.5,68.6,30.00,SSE,158,2.6,2.6,74,0.00,,---,0.12,VWS V13.01,2013-01-02 03:29:00,
2013-01-01 23:30:00,77.5,68.6,30.00,SE,135,0.0,0.0,74,0.00,,---,0.12,VWS V13.01,2013-01-02 03:30:00,
2013-01-01 23:31:00,77.5,68.6,30.00,ESE,112,0.0,0.0,74,0.00,,---,0.12,VWS V13.01,2013-01-02 03:31:00,
2013-01-01 23:32:00,77.5,68.6,30.00,SSW,202,0.0,0.0,74,0.00,,---,0.12,VWS V13.01,2013-01-02 03:32:00,
2013-01-01 23:33:00,77.5,68.6,30.00,SE,135,0.0,0.0,74,0.00,,---,0.12,VWS V13.01,2013-01-02 03:33:00,
2013-01-01 23:34:00,77.5,68.6,30.00,ESE,112,0.0,0.0,74,0.00,,---,0.12,VWS V13.01,2013-01-02 03:34:00,
2013-01-01 23:35:00,77.5,68.6,30.00,ESE,112,0.0,0.0,74,0.00,,---,0.12,VWS V13.01,2013-01-02 03:35:00,
2013-01-01 23:36:00,77.5,68.6,30.00,ESE,112,0.0,0.0,74,0.00,,---,0.12,VWS V13.01,2013-01-02 03:36:00,
2013-01-01 23:37:00,77.5,68.6,30.00,SE,135,2.0,2.0,74,0.00,,---,0.12,VWS V13.01,2013-01-02 03:37:00,
2013-01-01 23:38:00,77.3,68.0,30.00,SE,135,1.1,1.1,73,0.00,,---,0.12,VWS V13.01,2013-01-02 03:38:00,
2013-01-01 23:39:00,77.3,68.0,30.00,SE,135,0.0,0.0,73,0.00,,---,0.12,VWS V13.01,2013-01-02 03:39:00,
2013-01-01 23:40:00,77.3,68.0,30.00,ESE,112,0.0,0.0,73,0.00,,---,0.12,VWS V13.01,2013-01-02 03:40:00,
2013-01-01 23:41:00,77.3,68.0,30.00,East,90,0.0,0.0,73,0.00,,---,0.12,VWS V13.01,2013-01-02 03:41:00,
2013-01-01 23:42:00,77.5,68.6,30.00,SE,135,0.0,0.0,74,0.00,,---,0.12,VWS V13.01,2013-01-02 03:42:00,
2013-01-01 23:43:00,77.3,68.0,30.00,ESE,112,0.0,0.0,73,0.00,,---,0.12,VWS V13.01,2013-01-02 03:43:00,
2013-01-01 23:44:00,77.3,68.0,30.00,ENE,68,0.0,0.0,73,0.00,,---,0.12,VWS V13.01,2013-01-02 03:44:00,
2013-01-01 23:45:00,77.3,68.0,29.99,ESE,112,0.0,0.0,73,0.00,,---,0.12,VWS V13.01,2013-01-02 03:45:00,
2013-01-01 23:46:00,77.3,68.0,29.99,SE,135,1.3,1.3,73,0.00,,---,0.12,VWS V13.01,2013-01-02 03:46:00,
2013-01-01 23:47:00,77.3,68.0,30.00,SE,135,1.1,1.3,73,0.00,,---,0.12,VWS V13.01,2013-01-02 03:47:00,
2013-01-01 23:48:00,77.1,67.8,30.00,ESE,112,0.0,0.0,73,0.00,,---,0.12,VWS V13.01,2013-01-02 03:48:00,
2013-01-01 23:49:00,77.1,67.8,29.99,SSE,158,0.6,0.6,73,0.00,,---,0.12,VWS V13.01,2013-01-02 03:49:00,
2013-01-01 23:50:00,77.1,67.8,29.99,ESE,112,1.1,1.1,73,0.00,,---,0.12,VWS V13.01,2013-01-02 03:50:00,
2013-01-01 23:51:00,77.1,67.8,29.99,SSE,158,1.5,1.5,73,0.00,,---,0.12,VWS V13.01,2013-01-02 03:51:00,
2013-01-01 23:52:00,77.3,68.0,30.00,ESE,112,0.0,0.6,73,0.00,,---,0.12,VWS V13.01,2013-01-02 03:52:00,
2013-01-01 23:53:00,77.1,67.8,30.00,ENE,68,0.0,0.0,73,0.00,,---,0.12,VWS V13.01,2013-01-02 03:53:00,
2013-01-01 23:54:00,77.1,67.8,30.00,ESE,112,1.5,1.5,73,0.00,,---,0.12,VWS V13.01,2013-01-02 03:54:00,
2013-01-01 23:55:00,77.1,67.8,29.99,SE,135,0.0,0.0,73,0.00,,---,0.12,VWS V13.01,2013-01-02 03:55:00,
2013-01-01 23:56:00,77.1,67.8,30.00,SE,135,1.3,1.3,73,0.00,,---,0.12,VWS V13.01,2013-01-02 03:56:00,
2013-01-01 23:57:00,77.1,67.8,30.00,ESE,112,0.0,0.0,73,0.00,,---,0.12,VWS V13.01,2013-01-02 03:57:00,
2013-01-01 23:58:00,77.1,67.8,29.99,SE,135,0.0,0.0,73,0.00,,---,0.12,VWS V13.01,2013-01-02 03:58:00,
2013-01-01 23:59:00,77.0,67.7,29.99,SE,135,0.0,0.0,73,0.00,,---,0.12,VWS V13.01,2013-01-02 03:59:00,